Provisional Data: Hammer Creek near Route 322


Please select a monitoring station.
Please select start date.
Please select start date.

Toggle Unit: C/F Toggle Unit: C/F
Sample Time Temperature (C) Temperature (F) Specific Conductivity (mS/cm) pH   Turbidity (NTU+) DO (mg/L)
8/9/2021 12:00:00 AM 21.44 70.592 0.533 7.93 4.51 7.32
8/9/2021 12:15:00 AM 21.36 70.448 0.533 7.93 4.78 7.35
8/9/2021 12:30:00 AM 21.28 70.304 0.533 7.93 4.91 7.38
8/9/2021 12:45:00 AM 21.19 70.142 0.534 7.93 5.5 7.41
8/9/2021 1:00:00 AM 21.1 69.98 0.534 7.92 4.64 7.44
8/9/2021 1:15:00 AM 21 69.8 0.534 7.92 5.43 7.46
8/9/2021 1:30:00 AM 20.89 69.602 0.535 7.92 6.32 7.48
8/9/2021 1:45:00 AM 20.78 69.404 0.535 7.92 5.25 7.51
8/9/2021 2:00:00 AM 20.67 69.206 0.536 7.91 5.7 7.52
8/9/2021 2:15:00 AM 20.54 68.972 0.537 7.91 6.44 7.54
8/9/2021 2:30:00 AM 20.42 68.756 0.537 7.9 7.53 7.58
8/9/2021 2:45:00 AM 20.28 68.504 0.538 7.9 6.85 7.62
8/9/2021 3:00:00 AM 20.14 68.252 0.538 7.9 6.58 7.66
8/9/2021 3:15:00 AM 20 68 0.538 7.9 7.31 7.73
8/9/2021 3:30:00 AM 19.86 67.748 0.539 7.89 7.6 7.78
8/9/2021 3:45:00 AM 19.71 67.478 0.538 7.9 6.2 7.84
8/9/2021 4:00:00 AM 19.56 67.208 0.539 7.9 6.98 7.9
8/9/2021 4:15:00 AM 19.41 66.938 0.539 7.9 7.54 7.94
8/9/2021 4:30:00 AM 19.26 66.668 0.539 7.91 7.93 8.01
8/9/2021 4:45:00 AM 19.11 66.398 0.539 7.91 7.23 8.07
8/9/2021 5:00:00 AM 18.96 66.128 0.54 7.91 6.52 8.12
8/9/2021 5:15:00 AM 18.82 65.876 0.54 7.91 7.13 8.16
8/9/2021 5:30:00 AM 18.67 65.606 0.54 7.91 6.72 8.21
8/9/2021 5:45:00 AM 18.54 65.372 0.54 7.91 6.79 8.26
8/9/2021 6:00:00 AM 18.4 65.12 0.54 7.91 7.58 8.29
8/9/2021 6:15:00 AM 18.27 64.886 0.541 7.91 5.55 8.35
8/9/2021 6:30:00 AM 18.15 64.67 0.541 7.92 6.02 8.4
8/9/2021 6:45:00 AM 18.04 64.472 0.541 7.92 4.4 8.46
8/9/2021 7:00:00 AM 17.93 64.274 0.541 7.91 3.98 8.53
8/9/2021 7:15:00 AM 17.84 64.112 0.541 7.93 3.42 8.6
8/9/2021 7:30:00 AM 17.75 63.95 0.542 7.93 3.01 8.7
8/9/2021 7:45:00 AM 17.69 63.842 0.542 7.94 2.54 8.83
8/9/2021 8:00:00 AM 17.65 63.77 0.543 7.95 2.53 9.03
8/9/2021 8:15:00 AM 17.63 63.734 0.543 7.97 2.28 9.25
8/9/2021 8:30:00 AM 17.62 63.716 0.542 7.99 2.2 9.46
8/9/2021 8:45:00 AM 17.62 63.716 0.54 8.02 2.02 9.75
8/9/2021 9:00:00 AM 17.64 63.752 0.54 8.04 1.68 10.01
8/9/2021 9:15:00 AM 17.64 63.752 0.539 8.06 1.62 10.19
8/9/2021 9:30:00 AM 17.66 63.788 0.539 8.08 1.46 10.37
8/9/2021 9:45:00 AM 17.67 63.806 0.538 8.1 1.44 10.55
8/9/2021 10:00:00 AM 17.69 63.842 0.537 8.13 1.24 10.74
8/9/2021 10:15:00 AM 17.76 63.968 0.537 8.15 1.32 11
8/9/2021 10:30:00 AM 17.86 64.148 0.535 8.18 1.22 11.24
8/9/2021 10:45:00 AM 18.01 64.418 0.534 8.21 1.18 11.47
8/9/2021 11:00:00 AM 18.16 64.688 0.533 8.24 1.18 11.68
8/9/2021 11:15:00 AM 18.31 64.958 0.532 8.26 1.39 11.82
8/9/2021 11:30:00 AM 18.48 65.264 0.531 8.29 1.1 11.98
8/9/2021 11:45:00 AM 18.61 65.498 0.53 8.31 1.21 12.1
8/9/2021 12:00:00 PM 18.79 65.82201 0.28 8.32 3.06 12.21
8/9/2021 12:15:00 PM 19 66.2 0.527 8.35 1.02 12.32
8/9/2021 12:30:00 PM 19.21 66.578 0.526 8.37 1.17 12.43
8/9/2021 12:45:00 PM 19.42 66.956 0.526 8.38 1.7 12.51
8/9/2021 1:00:00 PM 19.63 67.334 0.579 8.4 1.94 12.59
8/9/2021 1:15:00 PM 19.83 67.694 0.521 8.43 0.95 12.63
8/9/2021 1:30:00 PM 20.02 68.036 0.52 8.44 1.03 12.63
8/9/2021 1:45:00 PM 20.21 68.378 0.519 8.46 0.97 12.68
8/9/2021 2:00:00 PM 20.32 68.576 0.518 8.46 1 12.56
8/9/2021 2:15:00 PM 20.45 68.81 0.517 8.47 1.19 12.38
8/9/2021 2:30:00 PM 20.51 68.918 0.516 8.47 1.07 12.22
8/9/2021 2:45:00 PM 20.58 69.044 0.516 8.47 1.1 11.97
8/9/2021 3:00:00 PM 20.67 69.206 0.515 8.47 1.11 11.84
8/9/2021 3:15:00 PM 20.79 69.422 0.515 8.46 1.98 11.81
8/9/2021 3:30:00 PM 20.83 69.494 0.513 8.46 1.45 11.51
8/9/2021 3:45:00 PM 20.92 69.656 0.512 8.46 1.16 11.47
8/9/2021 4:00:00 PM 21.12 70.016 0.511 8.47 1.24 11.5
8/9/2021 4:15:00 PM 21.33 70.394 0.51 8.47 1.14 11.41
8/9/2021 4:30:00 PM 21.52 70.736 0.509 8.48 1.1 11.34
8/9/2021 4:45:00 PM 21.65 70.97 0.509 8.47 1.25 11.12
8/9/2021 5:00:00 PM 21.73 71.114 0.509 8.46 1.4 10.88
8/9/2021 5:15:00 PM 21.77 71.186 0.509 8.44 1.25 10.57
8/9/2021 5:30:00 PM 21.83 71.294 0.51 8.42 1.23 10.34
8/9/2021 5:45:00 PM 21.84 71.312 0.511 8.4 1.53 10.07
8/9/2021 6:00:00 PM 21.85 71.33 0.512 8.38 1.62 9.81
8/9/2021 6:15:00 PM 21.87 71.366 0.513 8.36 1.55 9.57
8/9/2021 6:30:00 PM 21.9 71.42 0.515 8.33 1.88 9.31
8/9/2021 6:45:00 PM 21.92 71.456 0.516 8.3 1.78 9.06
8/9/2021 7:00:00 PM 21.97 71.546 0.518 8.27 1.92 8.85
8/9/2021 7:15:00 PM 22.02 71.636 0.519 8.24 1.7 8.59
8/9/2021 7:30:00 PM 22.05 71.69 0.521 8.21 2.07 8.39
8/9/2021 7:45:00 PM 22.07 71.726 0.523 8.18 1.98 8.18
8/9/2021 8:00:00 PM 22.09 71.762 0.524 8.15 2.04 7.98
8/9/2021 8:15:00 PM 22.11 71.798 0.526 8.12 2.4 7.81
8/9/2021 8:30:00 PM 22.12 71.816 0.527 8.09 2.35 7.67
8/9/2021 8:45:00 PM 22.14 71.852 0.528 8.07 3.23 7.53
8/9/2021 9:00:00 PM 22.16 71.888 0.528 8.04 2.8 7.45
8/9/2021 9:15:00 PM 22.17 71.906 0.529 8.03 3.11 7.38
8/9/2021 9:30:00 PM 22.18 71.924 0.53 8.01 3.55 7.31
8/9/2021 9:45:00 PM 22.19 71.942 0.53 8 3.27 7.25
8/9/2021 10:00:00 PM 22.19 71.942 0.531 7.98 3.37 7.18
8/9/2021 10:15:00 PM 22.17 71.906 0.532 7.96 3.25 7.12
8/9/2021 10:30:00 PM 22.17 71.906 0.533 7.95 3.58 7.06
8/9/2021 10:45:00 PM 22.16 71.888 0.533 7.94 3.93 7.03
8/9/2021 11:00:00 PM 22.14 71.852 0.534 7.93 4.23 7.01
8/9/2021 11:15:00 PM 22.12 71.816 0.534 7.92 4.33 7.01
8/9/2021 11:30:00 PM 22.09 71.762 0.534 7.92 4.39 7.01
8/9/2021 11:45:00 PM 22.05 71.69 0.534 7.91 4.39 7.02
8/10/2021 12:00:00 AM 22.02 71.636 0.534 7.9 4.55 7.02
8/10/2021 12:15:00 AM 21.98 71.564 0.534 7.89 5.33 7.02
8/10/2021 12:30:00 AM 21.93 71.474 0.534 7.89 5.39 7.02
8/10/2021 12:45:00 AM 21.88 71.384 0.535 7.87 7.76 7.04
8/10/2021 1:00:00 AM 21.83 71.294 0.591 7.87 6.57 7.04
8/10/2021 1:15:00 AM 21.77 71.186 0.54 7.87 6.21 7.07
8/10/2021 1:30:00 AM 21.71 71.078 0.534 7.88 5.54 7.1
8/10/2021 1:45:00 AM 21.65 70.97 0.534 7.87 5.89 7.12
8/10/2021 2:00:00 AM 21.58 70.844 0.534 7.88 5.52 7.16
8/10/2021 2:15:00 AM 21.51 70.718 0.534 7.88 5.94 7.21
8/10/2021 2:30:00 AM 21.43 70.574 0.534 7.88 6.14 7.26
8/10/2021 2:45:00 AM 21.34 70.412 0.53 7.88 5.91 7.3
8/10/2021 3:00:00 AM 21.25 70.25 0.533 7.88 6.5 7.35
8/10/2021 3:15:00 AM 21.15 70.07 0.533 7.88 6.71 7.4
8/10/2021 3:30:00 AM 21.06 69.908 0.534 7.88 6.61 7.45
8/10/2021 3:45:00 AM 20.95 69.71 0.534 7.87 10.79 7.49
8/10/2021 4:00:00 AM 20.85 69.53 0.535 7.87 8.65 7.54
8/10/2021 4:15:00 AM 20.74 69.332 0.535 7.87 7.96 7.56
8/10/2021 4:30:00 AM 20.61 69.098 0.535 7.87 8.08 7.62
8/10/2021 4:45:00 AM 20.49 68.882 0.535 7.87 7.54 7.66
8/10/2021 5:00:00 AM 20.37 68.666 0.536 7.87 7.35 7.69
8/10/2021 5:15:00 AM 20.25 68.45 0.536 7.87 6.98 7.74
8/10/2021 5:30:00 AM 20.13 68.234 0.536 7.87 8.09 7.78
8/10/2021 5:45:00 AM 20.01 68.018 0.537 7.86 8.27 7.79
8/10/2021 6:00:00 AM 19.89 67.802 0.538 7.86 7.51 7.87
8/10/2021 6:15:00 AM 19.78 67.604 0.538 7.86 6.66 7.9
8/10/2021 6:30:00 AM 19.68 67.424 0.539 7.86 5.93 7.95
8/10/2021 6:45:00 AM 19.58 67.244 0.542 7.85 6.66 7.99
8/10/2021 7:00:00 AM 19.48 67.064 0.54 7.86 4.75 8.04
8/10/2021 7:15:00 AM 19.4 66.92 0.541 7.86 3.96 8.12
8/10/2021 7:30:00 AM 19.33 66.794 0.541 7.86 3.61 8.16
8/10/2021 7:45:00 AM 19.25 66.65 0.542 7.86 3.23 8.2
8/10/2021 8:00:00 AM 19.19 66.542 0.543 7.86 4.91 8.27
8/10/2021 8:15:00 AM 19.13 66.434 0.543 7.87 2.4 8.33
8/10/2021 8:30:00 AM 19.07 66.326 0.543 7.88 2.28 8.41
8/10/2021 8:45:00 AM 19.04 66.272 0.544 7.89 2.04 8.56
8/10/2021 9:00:00 AM 19.02 66.236 0.544 7.91 1.91 8.72
8/10/2021 9:15:00 AM 19.01 66.218 0.544 7.93 1.73 8.92
8/10/2021 9:30:00 AM 19.03 66.254 0.544 7.96 1.69 9.25
8/10/2021 9:45:00 AM 19.11 66.398 0.543 7.99 1.94 9.6
8/10/2021 10:00:00 AM 19.12 66.416 0.543 8.02 1.53 9.77
8/10/2021 10:15:00 AM 19.13 66.434 0.542 8.05 1.48 9.96
8/10/2021 10:30:00 AM 19.16 66.488 0.542 8.07 1.49 10.09
8/10/2021 10:45:00 AM 19.31 66.758 0.54 8.11 1.53 10.53
8/10/2021 11:00:00 AM 19.41 66.938 0.539 8.15 1.54 10.81
8/10/2021 11:15:00 AM 19.53 67.154 0.538 8.19 1.49 11.18
8/10/2021 11:30:00 AM 19.71 67.478 0.536 8.22 1.39 11.4
8/10/2021 11:45:00 AM 19.82 67.676 0.535 8.25 1.5 11.58
8/10/2021 12:00:00 PM 19.91 67.838 0.534 8.27 1.35 11.68
8/10/2021 12:15:00 PM 20.17 68.306 0.532 8.3 1.35 11.9
8/10/2021 12:30:00 PM 20.32 68.576 0.531 8.32 1.32 12.02
8/10/2021 12:45:00 PM 20.42 68.756 0.53 8.34 1.26 12.02
8/10/2021 1:00:00 PM 20.6 69.08 0.528 8.36 1.33 12.17
8/10/2021 1:15:00 PM 20.85 69.53 0.527 8.38 1.16 12.3
8/10/2021 1:30:00 PM 21 69.8 0.526 8.4 1.26 12.28
8/10/2021 1:45:00 PM 21.06 69.908 0.525 8.41 1.18 12.19
8/10/2021 2:00:00 PM 21.29 70.32201 0.523 8.42 1.52 12.29
8/10/2021 2:15:00 PM 21.46 70.628 0.522 8.44 1.28 12.26
8/10/2021 2:30:00 PM 21.62 70.916 0.521 8.45 1.66 12.21
8/10/2021 2:45:00 PM 21.68 71.024 0.52 8.45 1.6 12.04
8/10/2021 3:00:00 PM 21.81 71.258 0.52 8.46 1.45 12.06
8/10/2021 3:15:00 PM 21.79 71.222 0.519 8.45 1.37 11.76
8/10/2021 3:30:00 PM 21.91 71.438 0.519 8.46 1.37 11.71
8/10/2021 3:45:00 PM 21.88 71.384 0.519 8.44 1.3 11.25
8/10/2021 4:00:00 PM 21.95 71.51 0.518 8.45 1.33 11.19
8/10/2021 4:15:00 PM 22.06 71.708 0.517 8.46 1.49 11.2
8/10/2021 4:30:00 PM 22.1 71.78 0.516 8.45 1.42 11
8/10/2021 4:45:00 PM 22.19 71.942 0.514 8.45 1.61 11
8/10/2021 5:00:00 PM 22.28 72.104 0.514 8.44 1.75 10.79
8/10/2021 5:15:00 PM 22.29 72.122 0.515 8.43 1.65 10.57
8/10/2021 5:30:00 PM 22.28 72.104 0.516 8.4 1.64 10.3
8/10/2021 5:45:00 PM 22.28 72.104 0.517 8.39 1.53 10.12
8/10/2021 6:00:00 PM 22.26 72.068 0.517 8.36 1.64 9.84
8/10/2021 6:15:00 PM 22.21 71.978 0.519 8.33 1.67 9.44
8/10/2021 6:30:00 PM 22.1 71.78 0.489 8.3 6.01 8.92
8/10/2021 6:45:00 PM 22.02 71.636 0.47 8.26 18.49 8.58
8/10/2021 7:00:00 PM 21.97 71.546 0.457 8.2 25.66 8.3
8/10/2021 7:15:00 PM 21.98 71.564 0.465 8.15 23.64 8.08
8/10/2021 7:30:00 PM 21.98 71.564 0.46 8.1 39.38 7.88
8/10/2021 7:45:00 PM 21.98 71.564 0.457 8.05 36.09 7.71
8/10/2021 8:00:00 PM 21.93 71.474 0.441 7.97 86.49 7.55
8/10/2021 8:15:00 PM 21.91 71.438 0.43 7.92 108.88 7.43
8/10/2021 8:30:00 PM 21.9 71.42 0.428 7.89 77.19 7.32
8/10/2021 8:45:00 PM 21.92 71.456 0.425 7.87 60.3 7.23
8/10/2021 9:00:00 PM 21.96 71.528 0.43 7.86 52 7.18
8/10/2021 9:15:00 PM 22.01 71.618 0.441 7.86 44.18 7.17
8/10/2021 9:30:00 PM 22.07 71.726 0.449 7.86 57.99 7.14
8/10/2021 9:45:00 PM 22.15 71.87 0.458 7.84 63.71 7.08
8/10/2021 10:00:00 PM 22.18 71.924 0.466 7.86 60.64 7.08
8/10/2021 10:15:00 PM 22.15 71.87 0.473 7.85 48.57 7.09
8/10/2021 10:30:00 PM 22.09 71.762 0.48 7.85 38.24 7.14
8/10/2021 10:45:00 PM 22.02 71.636 0.487 7.85 29.83 7.18
8/10/2021 11:00:00 PM 21.93 71.474 0.489 7.85 27.06 7.22
8/10/2021 11:15:00 PM 21.81 71.258 0.485 7.85 25.63 7.26
8/10/2021 11:30:00 PM 21.67 71.006 0.477 7.84 26.13 7.28
8/10/2021 11:45:00 PM 21.5 70.7 0.469 7.82 28.47 7.29
8/11/2021 12:00:00 AM 21.32 70.376 0.463 7.81 30.46 7.29
8/11/2021 12:15:00 AM 21.13 70.034 0.457 7.78 34.12 7.26
8/11/2021 12:30:00 AM 20.95 69.71 0.451 7.76 42.2 7.24
8/11/2021 12:45:00 AM 20.8 69.44 0.443 7.74 49.5 7.2
8/11/2021 1:00:00 AM 20.65 69.17 0.437 7.72 49.36 7.2
8/11/2021 1:15:00 AM 20.51 68.918 0.433 7.71 49.03 7.18
8/11/2021 1:30:00 AM 20.37 68.666 0.431 7.7 44.5 7.17
8/11/2021 1:45:00 AM 20.24 68.432 0.432 7.67 45.13 7.14
8/11/2021 2:00:00 AM 20.1 68.18 0.434 7.67 41.67 7.1
8/11/2021 2:15:00 AM 19.97 67.946 0.438 7.68 41.37 7.1
8/11/2021 2:30:00 AM 19.83 67.694 0.444 7.68 37.32 7.19
8/11/2021 2:45:00 AM 19.68 67.424 0.451 7.69 32.4 7.29
8/11/2021 3:00:00 AM 19.55 67.19 0.457 7.7 27.7 7.41
8/11/2021 3:15:00 AM 19.42 66.956 0.464 7.71 27.19 7.53
8/11/2021 3:30:00 AM 19.3 66.74 0.468 7.72 21.91 7.62
8/11/2021 3:45:00 AM 19.19 66.542 0.471 7.73 22.06 7.71
8/11/2021 4:00:00 AM 19.09 66.362 0.471 7.72 24.55 7.77
8/11/2021 4:15:00 AM 19 66.2 0.468 7.74 19.69 7.81
8/11/2021 4:30:00 AM 18.92 66.056 0.465 7.73 20.46 7.85
8/11/2021 4:45:00 AM 18.85 65.93 0.464 7.72 18.62 7.87
8/11/2021 5:00:00 AM 18.78 65.804 0.455 7.73 17.59 7.88
8/11/2021 5:15:00 AM 18.73 65.714 0.45 7.72 17.23 7.88
8/11/2021 5:30:00 AM 18.69 65.642 0.445 7.72 17.47 7.9
8/11/2021 5:45:00 AM 18.66 65.588 0.439 7.72 18.42 7.91
8/11/2021 6:00:00 AM 18.64 65.552 0.433 7.7 17.8 7.92
8/11/2021 6:15:00 AM 18.62 65.516 0.427 7.72 15.59 7.94
8/11/2021 6:30:00 AM 18.6 65.48 0.421 7.71 15.35 7.95
8/11/2021 6:45:00 AM 18.58 65.444 0.328 7.7 14.58 7.97
8/11/2021 7:00:00 AM 18.57 65.426 0.41 7.7 12.32 7.99
8/11/2021 7:15:00 AM 18.56 65.408 0.406 7.7 10.99 8.02
8/11/2021 7:30:00 AM 18.55 65.39 0.403 7.71 10.05 8.1
8/11/2021 7:45:00 AM 18.55 65.39 0.401 7.71 9.17 8.18
8/11/2021 8:00:00 AM 18.55 65.39 0.399 7.71 9.01 8.25
8/11/2021 8:15:00 AM 18.54 65.372 0.399 7.72 7.73 8.34
8/11/2021 8:30:00 AM 18.54 65.372 0.4 7.72 9.61 8.44
8/11/2021 8:45:00 AM 18.54 65.372 0.4 7.74 6.44 8.51
8/11/2021 9:00:00 AM 18.59 65.462 0.401 7.76 6.14 8.75
8/11/2021 9:15:00 AM 18.62 65.516 0.402 7.78 6.02 8.88
8/11/2021 9:30:00 AM 18.67 65.606 0.404 7.8 5.41 9.06
8/11/2021 9:45:00 AM 18.73 65.714 0.407 7.82 5.62 9.2
8/11/2021 10:00:00 AM 18.81 65.858 0.41 7.85 5.08 9.36
8/11/2021 10:15:00 AM 18.89 66.002 0.413 7.88 4.76 9.51
8/11/2021 10:30:00 AM 19 66.2 0.416 7.91 4.62 9.67
8/11/2021 10:45:00 AM 19.1 66.38 0.419 7.94 4.49 9.79
8/11/2021 11:00:00 AM 19.25 66.65 0.423 7.97 3.81 9.99
8/11/2021 11:15:00 AM 19.41 66.938 0.426 8.01 3.82 10.17
8/11/2021 11:30:00 AM 19.56 67.208 0.43 8.04 3.65 10.35
8/11/2021 11:45:00 AM 19.73 67.514 0.433 8.08 4.05 10.53
8/11/2021 12:00:00 PM 19.93 67.874 0.437 8.12 3.46 10.72
8/11/2021 12:15:00 PM 20.13 68.234 0.44 8.15 3.52 10.93
8/11/2021 12:30:00 PM 20.36 68.648 0.443 8.19 3.24 11.11
8/11/2021 12:45:00 PM 20.58 69.044 0.446 8.23 3.23 11.26
8/11/2021 1:00:00 PM 20.79 69.422 0.449 8.26 2.9 11.42
8/11/2021 1:15:00 PM 20.92 69.656 0.451 8.29 3.24 11.48
8/11/2021 1:30:00 PM 21.2 70.16 0.453 8.32 2.72 11.66
8/11/2021 1:45:00 PM 21.39 70.502 0.456 8.35 2.61 11.76
8/11/2021 2:00:00 PM 21.61 70.898 0.458 8.37 3.16 11.78
8/11/2021 2:15:00 PM 21.84 71.312 0.459 8.39 2.52 11.79
8/11/2021 2:30:00 PM 22.07 71.726 0.461 8.4 2.63 11.74
8/11/2021 2:45:00 PM 22.3 72.14 0.463 8.42 2.9 11.67
8/11/2021 3:00:00 PM 22.52 72.536 0.464 8.44 2.91 11.63
8/11/2021 3:15:00 PM 22.71 72.878 0.466 8.44 2.76 11.5
8/11/2021 3:30:00 PM 22.74 72.932 0.468 8.43 2.82 10.97
8/11/2021 3:45:00 PM 22.71 72.878 0.47 8.4 2.85 10.41
8/11/2021 4:00:00 PM 22.72 72.896 0.473 8.35 2.72 9.89
8/11/2021 4:15:00 PM 22.81 73.058 0.475 8.34 2.86 9.79
8/11/2021 4:30:00 PM 22.94 73.292 0.476 8.34 2.92 9.85
8/11/2021 4:45:00 PM 23.11 73.598 0.478 8.35 2.33 9.93
8/11/2021 5:00:00 PM 23.27 73.886 0.48 8.35 2.85 9.91
8/11/2021 5:15:00 PM 23.22 73.796 0.483 8.3 2.74 9.36
8/11/2021 5:30:00 PM 23.18 73.724 0.485 8.25 2.68 8.89
8/11/2021 5:45:00 PM 23.15 73.67 0.486 8.21 4.32 8.51
8/11/2021 6:00:00 PM 23.05 73.49 0.453 8.19 9.58 8.28
8/11/2021 6:15:00 PM 22.99 73.382 0.425 8.13 34.08 8.06
8/11/2021 6:30:00 PM 22.99 73.382 0.414 8.07 38.32 7.8
8/11/2021 6:45:00 PM 22.96 73.328 0.415 8 57.9 7.58
8/11/2021 7:00:00 PM 22.94 73.292 0.415 7.95 74.91 7.46
8/11/2021 7:15:00 PM 22.92 73.256 0.406 7.89 103.55 7.37
8/11/2021 7:30:00 PM 22.88 73.184 0.394 7.82 128.66 7.25
8/11/2021 7:45:00 PM 22.88 73.184 0.397 7.81 94.31 7.16
8/11/2021 8:00:00 PM 22.88 73.184 0.393 7.79 82.38 7.07
8/11/2021 8:15:00 PM 22.88 73.184 0.394 7.77 73.22 7.01
8/11/2021 8:30:00 PM 22.87 73.166 0.405 7.76 57.5 6.98
8/11/2021 8:45:00 PM 22.89 73.202 0.418 7.76 52.24 6.96
8/11/2021 9:00:00 PM 22.92 73.256 0.43 7.77 51.49 6.92
8/11/2021 9:15:00 PM 22.93 73.274 0.437 7.77 49.9 6.87
8/11/2021 9:30:00 PM 22.92 73.256 0.446 7.78 46.62 6.86
8/11/2021 9:45:00 PM 22.87 73.166 0.454 7.77 2.28 6.87
8/11/2021 10:00:00 PM 22.79 73.022 0.46 7.78 32.81 6.87
8/11/2021 10:15:00 PM 22.69 72.842 0.467 7.78 28.75 6.88
8/11/2021 10:30:00 PM 22.58 72.644 0.472 7.77 27.38 6.91
8/11/2021 10:45:00 PM 22.45 72.41 0.475 7.78 24.29 6.96
8/11/2021 11:00:00 PM 22.31 72.158 0.475 7.78 22.62 7.02
8/11/2021 11:15:00 PM 22.15 71.87 0.471 7.78 20.76 7.07
8/11/2021 11:30:00 PM 21.99 71.582 0.467 7.78 20.95 7.13
8/11/2021 11:45:00 PM 21.82 71.276 0.462 7.77 21.27 7.2
8/12/2021 12:00:00 AM 21.66 70.988 0.458 7.77 21.96 7.22
8/12/2021 12:15:00 AM 21.49 70.682 0.455 7.76 28.24 7.29
8/12/2021 12:30:00 AM 21.34 70.412 0.451 7.76 66.03 7.33
8/12/2021 12:45:00 AM 21.19 70.142 0.446 7.75 29.42 7.34
8/12/2021 1:00:00 AM 21.06 69.908 0.442 7.74 31.59 7.34
8/12/2021 1:15:00 AM 20.94 69.692 0.438 7.72 29.02 7.34
8/12/2021 1:30:00 AM 20.82 69.476 0.436 7.72 29.17 7.36
8/12/2021 1:45:00 AM 20.7 69.26 0.436 7.71 28.38 7.39
8/12/2021 2:00:00 AM 20.58 69.044 0.437 7.7 29.81 7.4
8/12/2021 2:15:00 AM 20.46 68.828 0.44 7.71 26.89 7.42
8/12/2021 2:30:00 AM 20.34 68.612 0.443 7.71 24.71 7.42
8/12/2021 2:45:00 AM 20.23 68.414 0.448 7.71 23.93 7.44
8/12/2021 3:00:00 AM 20.11 68.198 0.453 7.71 30.22 7.46
8/12/2021 3:15:00 AM 20 68 0.458 7.71 22.73 7.5
8/12/2021 3:30:00 AM 19.88 67.784 0.464 7.72 22.79 7.53
8/12/2021 3:45:00 AM 19.77 67.586 0.47 7.72 19.59 7.59
8/12/2021 4:00:00 AM 19.65 67.37 0.474 7.73 19.37 7.64
8/12/2021 4:15:00 AM 19.54 67.172 0.48 7.74 17.14 7.72
8/12/2021 4:30:00 AM 19.43 66.974 0.484 7.75 17.44 7.8
8/12/2021 4:45:00 AM 19.33 66.794 0.488 7.76 16.58 7.86
8/12/2021 5:00:00 AM 19.22 66.596 0.492 7.76 16.13 7.92
8/12/2021 5:15:00 AM 19.12 66.416 0.494 7.77 15.57 7.98
8/12/2021 5:30:00 AM 19.01 66.218 0.497 7.78 15.51 8.03
8/12/2021 5:45:00 AM 18.92 66.056 0.286 7.78 15.95 8.09
8/12/2021 6:00:00 AM 18.82 65.876 0.499 7.77 14.08 8.12
8/12/2021 6:15:00 AM 18.73 65.714 0.499 7.79 13.74 8.15
8/12/2021 6:30:00 AM 18.64 65.552 0.498 7.79 12.07 8.19
8/12/2021 6:45:00 AM 18.56 65.408 0.496 7.8 11.2 8.22
8/12/2021 7:00:00 AM 18.48 65.264 0.493 7.79 9.36 8.24
8/12/2021 7:15:00 AM 18.41 65.138 0.49 7.8 8.14 8.34
8/12/2021 7:30:00 AM 18.36 65.048 0.486 7.8 6.92 8.39
8/12/2021 7:45:00 AM 18.33 64.994 0.481 7.8 5.79 8.48
8/12/2021 8:00:00 AM 18.31 64.958 0.477 7.82 5.11 8.6
8/12/2021 8:15:00 AM 18.31 64.958 0.472 7.82 4.12 8.73
8/12/2021 8:30:00 AM 18.33 64.994 0.468 7.83 4.17 8.9
8/12/2021 8:45:00 AM 18.35 65.03 0.464 7.84 3.6 8.97
8/12/2021 9:00:00 AM 18.36 65.048 0.461 7.85 3.05 9.04
8/12/2021 9:15:00 AM 18.39 65.102 0.458 7.86 2.97 9.14
8/12/2021 9:30:00 AM 18.42 65.156 0.456 7.87 2.83 9.24
8/12/2021 9:45:00 AM 18.51 65.318 0.454 7.89 2.88 9.42
8/12/2021 10:00:00 AM 18.6 65.48 0.453 7.91 2.81 9.57
8/12/2021 10:15:00 AM 18.68 65.624 0.452 7.93 2.68 9.7
8/12/2021 10:30:00 AM 18.78 65.804 0.452 7.96 2.68 9.85
8/12/2021 10:45:00 AM 18.9 66.02 0.452 7.98 2.39 9.99
8/12/2021 11:00:00 AM 19.05 66.29 0.452 8.01 2.34 10.15
8/12/2021 11:15:00 AM 19.2 66.56 0.453 8.04 2.35 10.32
8/12/2021 11:30:00 AM 19.35 66.83 0.453 8.07 2.24 10.49
8/12/2021 11:45:00 AM 19.51 67.118 0.454 8.1 2.23 10.65
8/12/2021 12:00:00 PM 19.71 67.478 0.455 8.13 2.13 10.83
8/12/2021 12:15:00 PM 19.93 67.874 0.457 8.16 2.31 10.98
8/12/2021 12:30:00 PM 20.15 68.27 0.458 8.2 2.06 11.14
8/12/2021 12:45:00 PM 20.4 68.72 0.459 8.23 2.19 11.29
8/12/2021 1:00:00 PM 20.64 69.152 0.46 8.26 2.01 11.4
8/12/2021 1:15:00 PM 20.86 69.548 0.462 8.28 1.94 11.47
8/12/2021 1:30:00 PM 21.08 69.944 0.463 8.3 1.89 11.53
8/12/2021 1:45:00 PM 21.32 70.376 0.464 8.33 1.76 11.53
8/12/2021 2:00:00 PM 21.56 70.808 0.465 8.35 1.82 11.59
8/12/2021 2:15:00 PM 21.81 71.258 0.466 8.37 1.8 11.6
8/12/2021 2:30:00 PM 22.06 71.708 0.467 8.4 1.87 11.59
8/12/2021 2:45:00 PM 22.3 72.14 0.467 8.41 2.05 11.53
8/12/2021 3:00:00 PM 22.53 72.554 0.469 8.42 1.88 11.4
8/12/2021 3:15:00 PM 22.77 72.986 0.469 8.43 2.05 11.3
8/12/2021 3:30:00 PM 22.95 73.31 0.47 8.42 1.98 11.06
8/12/2021 3:45:00 PM 23.16 73.688 0.471 8.44 1.94 11
8/12/2021 4:00:00 PM 23.35 74.03 0.472 8.43 2.01 10.8
8/12/2021 4:15:00 PM 23.5 74.3 0.473 8.42 1.95 10.54
8/12/2021 4:30:00 PM 23.65 74.57 0.475 8.41 2.13 10.33
8/12/2021 4:45:00 PM 23.75 74.75 0.476 8.39 2.07 10.06
8/12/2021 5:00:00 PM 23.84 74.912 0.478 8.37 1.92 9.82
8/12/2021 5:15:00 PM 23.88 74.984 0.48 8.34 2.2 9.51
8/12/2021 5:30:00 PM 23.93 75.074 0.481 8.31 2.37 9.26
8/12/2021 5:45:00 PM 23.97 75.146 0.483 8.28 2.49 9.01
8/12/2021 6:00:00 PM 24 75.2 0.485 8.25 2.73 8.74
8/12/2021 6:15:00 PM 24.01 75.218 0.49 8.21 3.63 8.48
8/12/2021 6:30:00 PM 24.03 75.254 0.49 8.17 3.18 8.24
8/12/2021 6:45:00 PM 24.03 75.254 0.492 8.13 3.3 8
8/12/2021 7:00:00 PM 24.04 75.272 0.495 8.1 3.37 7.81
8/12/2021 7:15:00 PM 24.04 75.272 0.497 8.06 3.41 7.62
8/12/2021 7:30:00 PM 24.03 75.254 0.498 8.02 3.39 7.46
8/12/2021 7:45:00 PM 24.02 75.236 0.5 7.99 3.51 7.33
8/12/2021 8:00:00 PM 24.01 75.218 0.501 7.96 3.82 7.19
8/12/2021 8:15:00 PM 24 75.2 0.502 7.94 4.15 7.1
8/12/2021 8:30:00 PM 23.98 75.164 0.503 7.92 5.08 7.01
8/12/2021 8:45:00 PM 23.97 75.146 0.504 7.9 5.76 6.95
8/12/2021 9:00:00 PM 23.96 75.128 0.506 7.89 5.81 6.9
8/12/2021 9:15:00 PM 23.95 75.11 0.507 7.87 5.96 6.84
8/12/2021 9:30:00 PM 23.93 75.074 0.508 7.86 5.84 6.8
8/12/2021 9:45:00 PM 23.92 75.056 0.509 7.85 6.11 6.77
8/12/2021 10:00:00 PM 23.91 75.038 0.509 7.84 6.47 6.75
8/12/2021 10:15:00 PM 23.89 75.002 0.51 7.84 7.68 6.74
8/12/2021 10:30:00 PM 23.87 74.966 0.511 7.83 7.39 6.73
8/12/2021 10:45:00 PM 23.84 74.912 0.511 7.83 7.82 6.72
8/12/2021 11:00:00 PM 23.82 74.876 0.512 7.83 9.21 6.73
8/12/2021 11:15:00 PM 23.78 74.804 0.513 7.83 8.26 6.72
8/12/2021 11:30:00 PM 23.69 74.642 0.508 7.83 10.43 6.81
8/12/2021 11:45:00 PM 23.55 74.39 0.496 7.84 11.94 6.9
8/13/2021 12:00:00 AM 23.45 74.21 0.493 7.82 14.83 6.85
8/13/2021 12:15:00 AM 23.36 74.048 0.497 7.81 528.66 6.76
8/13/2021 12:30:00 AM 23.26 73.868 0.497 7.78 13.99 6.73
8/13/2021 12:45:00 AM 23.15 73.67 0.498 7.8 15.48 6.8
8/13/2021 1:00:00 AM 23.01 73.418 0.497 7.8 15.65 6.82
8/13/2021 1:15:00 AM 22.85 73.13 0.492 7.8 17.56 6.89
8/13/2021 1:30:00 AM 22.7 72.86 0.491 7.79 21.24 6.9
8/13/2021 1:45:00 AM 22.55 72.59 0.49 7.79 19.21 6.92
8/13/2021 2:00:00 AM 22.4 72.32 0.491 7.79 18.85 6.98
8/13/2021 2:15:00 AM 22.25 72.05 0.492 7.78 15.18 7.06
8/13/2021 2:30:00 AM 22.08 71.744 0.494 7.8 18.34 7.09
8/13/2021 2:45:00 AM 21.91 71.438 0.496 7.81 21.89 7.18
8/13/2021 3:00:00 AM 21.73 71.114 0.498 7.79 4.48 7.25
8/13/2021 3:15:00 AM 21.55 70.79 0.5 7.8 11448.54 7.31
8/13/2021 3:30:00 AM 21.37 70.466 0.501 7.81 20.75 7.37
8/13/2021 3:45:00 AM 21.19 70.142 0.501 7.81 20.59 7.44
8/13/2021 4:00:00 AM 21.02 69.836 0.502 7.81 19.53 7.5
8/13/2021 4:15:00 AM 20.86 69.548 0.503 7.81 29.6 7.54
8/13/2021 4:30:00 AM 20.7 69.26 0.505 7.82 15.81 7.61
8/13/2021 4:45:00 AM 20.56 69.008 0.507 7.82 20.06 7.65
8/13/2021 5:00:00 AM 20.43 68.774 0.508 7.83 15.17 7.71
8/13/2021 5:15:00 AM 20.3 68.54 0.509 7.83 14.31 7.75
8/13/2021 5:30:00 AM 20.18 68.324 0.508 7.83 14.56 7.79
8/13/2021 5:45:00 AM 20.07 68.126 0.507 7.83 15.68 7.82
8/13/2021 6:00:00 AM 19.95 67.91 0.505 7.83 15.06 7.84
8/13/2021 6:15:00 AM 19.84 67.712 0.504 7.83 15.46 7.86
8/13/2021 6:30:00 AM 19.73 67.514 0.503 7.83 14.19 7.9
8/13/2021 6:45:00 AM 19.63 67.334 0.503 7.83 13.44 7.92
8/13/2021 7:00:00 AM 19.52 67.136 0.503 7.83 11.97 7.97
8/13/2021 7:15:00 AM 19.43 66.974 0.503 7.83 11.05 8.02
8/13/2021 7:30:00 AM 19.34 66.812 0.503 7.83 9.98 8.06
8/13/2021 7:45:00 AM 19.25 66.65 0.504 7.82 9.78 8.13
8/13/2021 8:00:00 AM 19.17 66.506 0.503 7.84 8.29 8.18
8/13/2021 8:15:00 AM 19.11 66.398 0.331 7.83 9.08 8.25
8/13/2021 8:30:00 AM 19.06 66.308 0.502 7.84 6.48 8.33
8/13/2021 8:45:00 AM 19.02 66.236 0.305 7.84 7.96 8.42
8/13/2021 9:00:00 AM 18.98 66.164 0.503 7.84 5.32 8.52
8/13/2021 9:15:00 AM 18.96 66.128 0.504 7.85 4.9 8.65
8/13/2021 9:30:00 AM 18.95 66.11 0.505 7.87 4.46 8.81
8/13/2021 9:45:00 AM 18.95 66.11 0.506 7.88 4.03 9
8/13/2021 10:00:00 AM 18.97 66.146 0.507 7.9 3.54 9.18
8/13/2021 10:15:00 AM 19 66.2 0.508 7.93 3.31 9.35
8/13/2021 10:30:00 AM 19.04 66.272 0.509 7.95 3.1 9.51
8/13/2021 10:45:00 AM 19.11 66.398 0.509 7.97 3.06 9.7
8/13/2021 11:00:00 AM 19.21 66.578 0.509 8 2.88 9.88
8/13/2021 11:15:00 AM 19.31 66.758 0.509 8.02 2.69 10.07
8/13/2021 11:30:00 AM 19.43 66.974 0.508 8.05 2.58 10.27
8/13/2021 11:45:00 AM 19.55 67.19 0.507 8.08 2.54 10.45
8/13/2021 12:00:00 PM 19.73 67.514 0.506 8.1 2.41 10.63
8/13/2021 12:15:00 PM 19.93 67.874 0.503 8.13 2.38 10.8
8/13/2021 12:30:00 PM 20.14 68.252 0.501 8.16 2.34 10.98
8/13/2021 12:45:00 PM 20.34 68.612 0.499 8.19 2.2 11.14
8/13/2021 1:00:00 PM 20.57 69.026 0.497 8.22 2.15 11.28
8/13/2021 1:15:00 PM 20.75 69.35 0.496 8.23 3.15 11.38
8/13/2021 1:30:00 PM 20.96 69.728 0.492 8.27 2.1 11.46
8/13/2021 1:45:00 PM 21.17 70.106 0.49 8.29 2.09 11.51
8/13/2021 2:00:00 PM 21.41 70.538 0.49 8.31 3.52 11.56
8/13/2021 2:15:00 PM 21.64 70.952 0.484 8.34 1.86 11.58
8/13/2021 2:30:00 PM 21.87 71.366 0.481 8.36 2 11.56
8/13/2021 2:45:00 PM 22.1 71.78 0.478 8.38 1.71 11.5
8/13/2021 3:00:00 PM 22.33 72.194 0.476 8.39 1.89 11.45
8/13/2021 3:15:00 PM 22.55 72.59 0.473 8.42 1.92 11.34
8/13/2021 3:30:00 PM 22.74 72.932 0.471 8.41 5.7 11.2
8/13/2021 3:45:00 PM 22.93 73.274 0.469 8.43 1.94 11
8/13/2021 4:00:00 PM 23.11 73.598 0.468 8.43 1.98 10.79
8/13/2021 4:15:00 PM 23.2 73.76 0.467 8.42 1.82 10.47
8/13/2021 4:30:00 PM 23.19 73.742 0.468 8.39 2.04 10.01
8/13/2021 4:45:00 PM 23.19 73.742 0.469 8.35 2.01 9.52
8/13/2021 5:00:00 PM 23.19 73.742 0.471 8.3 2.47 9.12
8/13/2021 5:15:00 PM 23.21 73.778 0.472 8.26 2.36 8.77
8/13/2021 5:30:00 PM 23.23 73.814 0.474 8.23 2.26 8.51
8/13/2021 5:45:00 PM 23.22 73.796 0.476 8.19 3.49 8.25
8/13/2021 6:00:00 PM 23.2 73.76 0.478 8.15 2.36 8.03
8/13/2021 6:15:00 PM 23.19 73.742 0.481 8.12 2.6 7.88
8/13/2021 6:30:00 PM 23.19 73.742 0.483 8.08 6.31 7.76
8/13/2021 6:45:00 PM 23.19 73.742 0.485 8.06 2.77 7.68
8/13/2021 7:00:00 PM 23.19 73.742 0.487 8.03 3.37 7.62
8/13/2021 7:15:00 PM 23.18 73.724 0.489 8.01 3.17 7.54
8/13/2021 7:30:00 PM 23.18 73.724 0.491 7.98 2.81 7.46
8/13/2021 7:45:00 PM 23.18 73.724 0.493 7.97 3 7.39
8/13/2021 8:00:00 PM 23.19 73.742 0.494 7.95 3.52 7.3
8/13/2021 8:15:00 PM 23.19 73.742 0.496 7.94 3.8 7.23
8/13/2021 8:30:00 PM 23.19 73.742 0.497 7.92 4.3 7.18
8/13/2021 8:45:00 PM 23.2 73.76 0.499 7.91 5.34 7.12
8/13/2021 9:00:00 PM 23.2 73.76 0.5 7.9 5.68 7.08
8/13/2021 9:15:00 PM 23.18 73.724 0.501 7.9 5.68 7.06
8/13/2021 9:30:00 PM 23.16 73.688 0.503 7.89 5.86 7.04
8/13/2021 9:45:00 PM 23.13 73.634 0.504 7.89 5.85 7.03
8/13/2021 10:00:00 PM 23.08 73.544 0.506 7.87 9.88 7.03
8/13/2021 10:15:00 PM 23.04 73.472 0.507 7.88 6.29 7.01
8/13/2021 10:30:00 PM 22.99 73.382 0.508 7.87 6.92 7
8/13/2021 10:45:00 PM 22.92 73.256 0.51 7.87 6.83 7.01
8/13/2021 11:00:00 PM 22.83 73.094 0.511 7.86 6.94 7.01
8/13/2021 11:15:00 PM 22.74 72.932 0.513 7.86 7.59 7.02
8/13/2021 11:30:00 PM 22.64 72.752 0.515 7.85 7.81 7.03
8/13/2021 11:45:00 PM 22.52 72.536 0.516 7.85 7.85 7.05
8/14/2021 12:00:00 AM 22.39 72.302 0.518 7.83 11.37 7.09
8/14/2021 12:15:00 AM 22.25 72.05 0.518 7.84 9 7.12
8/14/2021 12:30:00 AM 22.09 71.762 0.519 7.84 8.94 7.16
8/14/2021 12:45:00 AM 21.93 71.474 0.519 7.84 8.72 7.23
8/14/2021 1:00:00 AM 21.76 71.168 0.52 7.84 9.61 7.31
8/14/2021 1:15:00 AM 21.59 70.862 0.52 7.84 9.83 7.38
8/14/2021 1:30:00 AM 21.42 70.556 0.298 7.84 11.39 7.45
8/14/2021 1:45:00 AM 21.26 70.268 0.52 7.85 11.48 7.5
8/14/2021 2:00:00 AM 21.1 69.98 0.521 7.85 9.95 7.57
8/14/2021 2:15:00 AM 20.95 69.71 0.521 7.85 11.29 7.63
8/14/2021 2:30:00 AM 20.81 69.458 0.521 7.85 10.01 7.67
8/14/2021 2:45:00 AM 20.67 69.206 0.521 7.85 9.54 7.73
8/14/2021 3:00:00 AM 20.53 68.954 0.522 7.86 10.31 7.77
8/14/2021 3:15:00 AM 20.4 68.72 0.522 7.85 10.43 7.78
8/14/2021 3:30:00 AM 20.27 68.486 0.522 7.86 9.8 7.84
8/14/2021 3:45:00 AM 20.14 68.252 0.522 7.85 10.5 7.86
8/14/2021 4:00:00 AM 20.01 68.018 0.522 7.86 11.1 7.91
8/14/2021 4:15:00 AM 19.89 67.802 0.522 7.85 10.24 7.92
8/14/2021 4:30:00 AM 19.78 67.604 0.522 7.85 10.42 7.95
8/14/2021 4:45:00 AM 19.67 67.406 0.522 7.85 10.5 7.99
8/14/2021 5:00:00 AM 19.57 67.226 0.522 7.85 10.23 8.03
8/14/2021 5:15:00 AM 19.47 67.046 0.523 7.85 10.09 8.07
8/14/2021 5:30:00 AM 19.38 66.884 0.523 7.85 10.43 8.1
8/14/2021 5:45:00 AM 19.29 66.722 0.523 7.85 10.72 8.13
8/14/2021 6:00:00 AM 19.21 66.578 0.523 7.85 10.89 8.16
8/14/2021 6:15:00 AM 19.12 66.416 0.523 7.85 11.18 8.14
8/14/2021 6:30:00 AM 19.05 66.29 0.523 7.85 9.57 8.21
8/14/2021 6:45:00 AM 18.97 66.146 0.524 7.85 8.95 8.25
8/14/2021 7:00:00 AM 18.9 66.02 0.524 7.86 8.25 8.29
8/14/2021 7:15:00 AM 18.84 65.912 0.524 7.86 7.11 8.34
8/14/2021 7:30:00 AM 18.79 65.82201 0.527 7.85 6.25 8.44
8/14/2021 7:45:00 AM 18.73 65.714 0.525 7.87 4.63 8.5
8/14/2021 8:00:00 AM 18.67 65.606 0.525 7.87 3.85 8.54
8/14/2021 8:15:00 AM 18.61 65.498 0.526 7.87 3.42 8.57
8/14/2021 8:30:00 AM 18.59 65.462 0.526 7.88 2.79 8.7
8/14/2021 8:45:00 AM 18.56 65.408 0.526 7.89 2.51 8.78
8/14/2021 9:00:00 AM 18.59 65.462 0.526 7.91 2.15 9.01
8/14/2021 9:15:00 AM 18.65 65.57 0.526 7.93 2.36 9.34
8/14/2021 9:30:00 AM 18.67 65.606 0.526 7.96 2.23 9.48
8/14/2021 9:45:00 AM 18.68 65.624 0.526 7.97 1.91 9.6
8/14/2021 10:00:00 AM 18.68 65.624 0.525 7.99 1.75 9.75
8/14/2021 10:15:00 AM 18.69 65.642 0.525 8.01 1.84 9.93
8/14/2021 10:30:00 AM 18.72 65.696 0.525 8.04 1.93 10.08
8/14/2021 10:45:00 AM 18.86 65.948 0.524 8.07 1.62 10.41
8/14/2021 11:00:00 AM 18.89 66.002 0.523 8.11 1.68 10.64
8/14/2021 11:15:00 AM 19.01 66.218 0.522 8.14 1.68 10.86
8/14/2021 11:30:00 AM 19.03 66.254 0.522 8.15 1.55 10.76
8/14/2021 11:45:00 AM 19.01 66.218 0.522 8.16 1.62 10.68
8/14/2021 12:00:00 PM 19.04 66.272 0.521 8.17 1.58 10.7
8/14/2021 12:15:00 PM 19.07 66.326 0.521 8.19 1.47 10.77
8/14/2021 12:30:00 PM 19.16 66.488 0.52 8.22 5.46 11.05
8/14/2021 12:45:00 PM 19.24 66.632 0.518 8.25 1.37 11.28
8/14/2021 1:00:00 PM 19.28 66.704 0.518 8.26 1.44 11.11
8/14/2021 1:15:00 PM 19.31 66.758 0.517 8.28 1.36 11.17
8/14/2021 1:30:00 PM 19.34 66.812 0.517 8.27 1.37 11.03
8/14/2021 1:45:00 PM 19.38 66.884 0.517 8.28 1.48 11.04
8/14/2021 2:00:00 PM 19.46 67.028 0.516 8.3 1.68 11.16
8/14/2021 2:15:00 PM 19.5 67.1 0.516 8.31 1.6 11.23
8/14/2021 2:30:00 PM 19.62 67.316 0.515 8.33 1.64 11.44
8/14/2021 2:45:00 PM 19.69 67.442 0.514 8.35 1.45 11.51
8/14/2021 3:00:00 PM 19.81 67.658 0.512 8.37 1.46 11.68
8/14/2021 3:15:00 PM 19.92 67.856 0.511 8.38 1.4 11.71
8/14/2021 3:30:00 PM 20.13 68.234 0.51 8.4 1.29 11.75
8/14/2021 3:45:00 PM 20.26 68.468 0.509 8.41 1.38 11.58
8/14/2021 4:00:00 PM 20.29 68.522 0.509 8.4 1.42 11.42
8/14/2021 4:15:00 PM 20.38 68.684 0.508 8.4 1.4 11.36
8/14/2021 4:30:00 PM 20.44 68.792 0.508 8.4 1.52 11.07
8/14/2021 4:45:00 PM 20.61 69.098 0.508 8.4 1.54 11.01
8/14/2021 5:00:00 PM 20.68 69.224 0.508 8.39 1.84 10.76
8/14/2021 5:15:00 PM 20.72 69.296 0.509 8.37 1.82 10.51
8/14/2021 5:30:00 PM 20.82 69.476 0.509 8.36 1.82 10.42
8/14/2021 5:45:00 PM 20.88 69.584 0.51 8.34 2.08 10.16
8/14/2021 6:00:00 PM 20.91 69.638 0.51 8.32 1.91 9.98
8/14/2021 6:15:00 PM 20.97 69.746 0.511 8.3 2.3 9.65
8/14/2021 6:30:00 PM 20.95 69.71 0.512 8.26 2.24 9.37
8/14/2021 6:45:00 PM 20.95 69.71 0.513 8.23 2.2 9.15
8/14/2021 7:00:00 PM 20.98 69.764 0.514 8.21 2.38 9.04
8/14/2021 7:15:00 PM 20.98 69.764 0.515 8.18 2.45 8.83
8/14/2021 7:30:00 PM 20.95 69.71 0.517 8.15 2.56 8.68
8/14/2021 7:45:00 PM 20.91 69.638 0.518 8.13 2.64 8.49
8/14/2021 8:00:00 PM 20.88 69.584 0.519 8.1 2.7 8.32
8/14/2021 8:15:00 PM 20.84 69.512 0.52 8.07 2.91 8.24
8/14/2021 8:30:00 PM 20.8 69.44 0.521 8.04 6.9 8.16
8/14/2021 8:45:00 PM 20.77 69.386 0.521 8.03 4 8.07
8/14/2021 9:00:00 PM 20.75 69.35 0.522 8.02 4.53 8.01
8/14/2021 9:15:00 PM 20.73 69.314 0.522 8 4.78 7.94
8/14/2021 9:30:00 PM 20.71 69.278 0.523 7.98 4.76 7.84
8/14/2021 9:45:00 PM 20.69 69.242 0.523 7.97 4.91 7.86
8/14/2021 10:00:00 PM 20.67 69.206 0.523 7.96 5.2 7.84
8/14/2021 10:15:00 PM 20.66 69.188 0.524 7.95 5.13 7.8
8/14/2021 10:30:00 PM 20.65 69.17 0.524 7.94 6.01 7.75
8/14/2021 10:45:00 PM 20.64 69.152 0.524 7.93 6.19 7.76
8/14/2021 11:00:00 PM 20.63 69.134 0.525 7.92 6.69 7.67
8/14/2021 11:15:00 PM 20.63 69.134 0.525 7.92 5.43 7.72
8/14/2021 11:30:00 PM 20.61 69.098 0.525 7.91 6.5 7.7
8/14/2021 11:45:00 PM 20.59 69.062 0.525 7.9 6.3 7.7
8/15/2021 12:00:00 AM 20.57 69.026 0.526 7.9 7.5 7.7
8/15/2021 12:15:00 AM 20.55 68.99 0.526 7.9 9.1 7.69
8/15/2021 12:30:00 AM 20.52 68.936 0.581 7.88 11.36 7.7
8/15/2021 12:45:00 AM 20.47 68.846 0.526 7.89 7.9 7.71
8/15/2021 1:00:00 AM 20.42 68.756 0.527 7.89 8.72 7.71
8/15/2021 1:15:00 AM 20.36 68.648 0.527 7.88 8.78 7.74
8/15/2021 1:30:00 AM 20.28 68.504 0.527 7.88 8.52 7.77
8/15/2021 1:45:00 AM 20.2 68.36 0.527 7.88 8.26 7.8
8/15/2021 2:00:00 AM 20.12 68.216 0.527 7.88 9.06 7.82
8/15/2021 2:15:00 AM 20.02 68.036 0.528 7.88 9.52 7.85
8/15/2021 2:30:00 AM 19.93 67.874 0.528 7.88 10.33 7.88
8/15/2021 2:45:00 AM 19.83 67.694 0.528 7.88 10.42 7.92
8/15/2021 3:00:00 AM 19.73 67.514 0.529 7.89 9.76 7.95
8/15/2021 3:15:00 AM 19.64 67.352 0.529 7.88 10.02 7.98
8/15/2021 3:30:00 AM 19.54 67.172 0.529 7.88 9.87 8.02
8/15/2021 3:45:00 AM 19.43 66.974 0.529 7.88 10.7 8.05
8/15/2021 4:00:00 AM 19.33 66.794 0.529 7.88 15.81 8.08
8/15/2021 4:15:00 AM 19.22 66.596 0.53 7.88 11.66 8.14
8/15/2021 4:30:00 AM 19.11 66.398 0.53 7.88 12.34 8.17
8/15/2021 4:45:00 AM 19 66.2 0.53 7.89 11.27 8.2
8/15/2021 5:00:00 AM 18.89 66.002 0.53 7.89 10.65 8.24
8/15/2021 5:15:00 AM 18.78 65.804 0.53 7.89 11.28 8.27
8/15/2021 5:30:00 AM 18.66 65.588 0.53 7.89 11.4 8.3
8/15/2021 5:45:00 AM 18.54 65.372 0.53 7.9 12.51 8.34
8/15/2021 6:00:00 AM 18.43 65.174 0.53 7.9 11.98 8.38
8/15/2021 6:15:00 AM 18.31 64.958 0.53 7.9 10.65 8.41
8/15/2021 6:30:00 AM 18.19 64.742 0.53 7.9 10.05 8.44
8/15/2021 6:45:00 AM 18.1 64.58 0.53 7.91 9.1 8.51
8/15/2021 7:00:00 AM 18.01 64.418 0.531 7.91 8.09 8.57
8/15/2021 7:15:00 AM 17.93 64.274 0.531 7.92 6.67 8.63
8/15/2021 7:30:00 AM 17.86 64.148 0.531 7.92 5.55 8.7
8/15/2021 7:45:00 AM 17.8 64.04 0.531 7.93 4.52 8.78
8/15/2021 8:00:00 AM 17.75 63.95 0.531 7.94 3.67 8.84
8/15/2021 8:15:00 AM 17.7 63.86 0.531 7.94 3.04 8.89
8/15/2021 8:30:00 AM 17.67 63.806 0.531 7.96 2.79 9.03
8/15/2021 8:45:00 AM 17.63 63.734 0.531 7.95 2.41 9.12
8/15/2021 9:00:00 AM 17.62 63.716 0.531 7.98 2.08 9.31
8/15/2021 9:15:00 AM 17.61 63.698 0.531 8 1.96 9.51
8/15/2021 9:30:00 AM 17.6 63.68 0.531 8.01 1.84 9.64
8/15/2021 9:45:00 AM 17.6 63.68 0.53 8.03 1.8 9.82
8/15/2021 10:00:00 AM 17.61 63.698 0.53 8.06 1.49 10
8/15/2021 10:15:00 AM 17.61 63.698 0.53 8.07 1.58 10.14
8/15/2021 10:30:00 AM 17.65 63.77 0.529 8.1 1.52 10.4
8/15/2021 10:45:00 AM 17.69 63.842 0.528 8.14 1.51 10.67
8/15/2021 11:00:00 AM 17.77 63.986 0.527 8.16 1.46 10.87
8/15/2021 11:15:00 AM 17.92 64.256 0.526 8.2 1.38 11.17
8/15/2021 11:30:00 AM 18.03 64.454 0.525 8.24 1.42 11.49
8/15/2021 11:45:00 AM 18.23 64.814 0.523 8.27 1.47 11.75
8/15/2021 12:00:00 PM 18.29 64.922 0.522 8.29 2.11 11.82
8/15/2021 12:15:00 PM 18.51 65.318 0.521 8.31 1.63 11.81
8/15/2021 12:30:00 PM 18.71 65.67799 0.283 8.32 4.3 11.84
8/15/2021 12:45:00 PM 18.9 66.02 0.519 8.34 1.47 11.91
8/15/2021 1:00:00 PM 19.04 66.272 0.518 8.36 1.34 12.01
8/15/2021 1:15:00 PM 19.27 66.686 0.517 8.38 1.31 12.15
8/15/2021 1:30:00 PM 19.24 66.632 0.515 8.4 1.09 12.09
8/15/2021 1:45:00 PM 19.38 66.884 0.515 8.4 3.86 12.18
8/15/2021 2:00:00 PM 19.69 67.442 0.513 8.43 1.19 12.31
8/15/2021 2:15:00 PM 19.78 67.604 0.513 8.43 1.2 12.23
8/15/2021 2:30:00 PM 19.96 67.92799 0.512 8.44 1.15 12.15
8/15/2021 2:45:00 PM 20.14 68.252 0.511 8.44 1.76 12.11
8/15/2021 3:00:00 PM 20.29 68.522 0.511 8.45 1.34 12.03
8/15/2021 3:15:00 PM 20.4 68.72 0.51 8.46 1.36 11.95
8/15/2021 3:30:00 PM 20.52 68.936 0.508 8.46 1.85 11.88
8/15/2021 3:45:00 PM 20.62 69.116 0.507 8.46 1.43 11.7
8/15/2021 4:00:00 PM 20.76 69.368 0.507 8.46 1.46 11.46
8/15/2021 4:15:00 PM 20.87 69.566 0.506 8.45 1.45 11.27
8/15/2021 4:30:00 PM 20.97 69.746 0.506 8.45 1.67 11.07
8/15/2021 4:45:00 PM 21.02 69.836 0.506 8.44 1.66 10.83
8/15/2021 5:00:00 PM 21.02 69.836 0.506 8.43 1.59 10.61
8/15/2021 5:15:00 PM 21.02 69.836 0.507 8.41 1.6 10.38
8/15/2021 5:30:00 PM 21.01 69.818 0.508 8.39 1.77 10.13
8/15/2021 5:45:00 PM 21 69.8 0.509 8.36 2.03 9.9
8/15/2021 6:00:00 PM 20.96 69.728 0.511 8.33 2.12 9.64
8/15/2021 6:15:00 PM 20.94 69.692 0.512 8.3 2.3 9.42
8/15/2021 6:30:00 PM 20.9 69.62 0.514 8.27 2.4 9.19
8/15/2021 6:45:00 PM 20.88 69.584 0.516 8.24 2.55 9.03
8/15/2021 7:00:00 PM 20.86 69.548 0.519 8.21 3.81 8.86
8/15/2021 7:15:00 PM 20.84 69.512 0.518 8.19 2.5 8.7
8/15/2021 7:30:00 PM 20.82 69.476 0.519 8.16 2.44 8.54
8/15/2021 7:45:00 PM 20.8 69.44 0.52 8.14 2.74 8.38
8/15/2021 8:00:00 PM 20.78 69.404 0.522 8.11 3.01 8.25
8/15/2021 8:15:00 PM 20.76 69.368 0.523 8.09 3.11 8.12
8/15/2021 8:30:00 PM 20.75 69.35 0.523 8.06 3.86 8.01
8/15/2021 8:45:00 PM 20.75 69.35 0.524 8.04 4.48 7.9
8/15/2021 9:00:00 PM 20.75 69.35 0.525 8.02 4.58 7.83
8/15/2021 9:15:00 PM 20.77 69.386 0.526 8 5 7.77
8/15/2021 9:30:00 PM 20.78 69.404 0.527 7.99 4.88 7.72
8/15/2021 9:45:00 PM 20.8 69.44 0.527 7.98 5.39 7.67
8/15/2021 10:00:00 PM 20.81 69.458 0.528 7.97 5.35 7.64
8/15/2021 10:15:00 PM 20.82 69.476 0.528 7.95 5.22 7.62
8/15/2021 10:30:00 PM 20.82 69.476 0.528 7.95 5.6 7.6
8/15/2021 10:45:00 PM 20.81 69.458 0.528 7.94 5.59 7.59
8/15/2021 11:00:00 PM 20.8 69.44 0.529 7.94 5.71 7.6
8/15/2021 11:15:00 PM 20.78 69.404 0.529 7.93 6.11 7.59
8/15/2021 11:30:00 PM 20.74 69.332 0.529 7.93 5.7 7.6
8/15/2021 11:45:00 PM 20.7 69.26 0.529 7.92 5.57 7.61
8/16/2021 12:00:00 AM 20.66 69.188 0.53 7.92 5.6 7.63
8/16/2021 12:15:00 AM 20.62 69.116 0.53 7.91 5.78 7.65
8/16/2021 12:30:00 AM 20.57 69.026 0.531 7.91 6.72 7.64
8/16/2021 12:45:00 AM 20.51 68.918 0.531 7.91 6.81 7.65
8/16/2021 1:00:00 AM 20.44 68.792 0.531 7.9 6.93 7.66
8/16/2021 1:15:00 AM 20.36 68.648 0.532 7.9 6.69 7.68
8/16/2021 1:30:00 AM 20.28 68.504 0.532 7.89 7.2 7.7
8/16/2021 1:45:00 AM 20.18 68.324 0.532 7.89 6.87 7.73
8/16/2021 2:00:00 AM 20.08 68.144 0.533 7.89 8.24 7.77
8/16/2021 2:15:00 AM 19.97 67.946 0.533 7.89 7.72 7.81
8/16/2021 2:30:00 AM 19.85 67.73 0.533 7.88 10.27 7.84
8/16/2021 2:45:00 AM 19.74 67.532 0.533 7.89 7.79 7.9
8/16/2021 3:00:00 AM 19.62 67.316 0.533 7.89 8.49 7.94
8/16/2021 3:15:00 AM 19.51 67.118 0.533 7.89 8.9 7.99
8/16/2021 3:30:00 AM 19.39 66.902 0.534 7.89 8.98 8.04
8/16/2021 3:45:00 AM 19.27 66.686 0.534 7.89 9.48 8.09
8/16/2021 4:00:00 AM 19.15 66.47 0.535 7.89 11.51 8.12
8/16/2021 4:15:00 AM 19.04 66.272 0.534 7.89 9.7 8.16
8/16/2021 4:30:00 AM 18.93 66.074 0.535 7.89 11.4 8.2
8/16/2021 4:45:00 AM 18.82 65.876 0.535 7.89 11.12 8.23
8/16/2021 5:00:00 AM 18.71 65.67799 0.536 7.88 14.36 8.26
8/16/2021 5:15:00 AM 18.61 65.498 0.536 7.89 10.88 8.3
8/16/2021 5:30:00 AM 18.51 65.318 0.536 7.89 10.18 8.33
8/16/2021 5:45:00 AM 18.42 65.156 0.536 7.89 11.03 8.36
8/16/2021 6:00:00 AM 18.33 64.994 0.536 7.89 10.03 8.39
8/16/2021 6:15:00 AM 18.25 64.85 0.536 7.89 9.78 8.42
8/16/2021 6:30:00 AM 18.17 64.706 0.537 7.89 9.57 8.45
8/16/2021 6:45:00 AM 18.1 64.58 0.537 7.89 8.46 8.48
8/16/2021 7:00:00 AM 18.03 64.454 0.537 7.89 7.42 8.53
8/16/2021 7:15:00 AM 17.98 64.364 0.537 7.89 5.96 8.58
8/16/2021 7:30:00 AM 17.93 64.274 0.537 7.9 5.8 8.63
8/16/2021 7:45:00 AM 17.88 64.184 0.538 7.9 4.28 8.68
8/16/2021 8:00:00 AM 17.83 64.094 0.538 7.9 4.43 8.73
8/16/2021 8:15:00 AM 17.8 64.04 0.538 7.9 3.92 8.8
8/16/2021 8:30:00 AM 17.79 64.022 0.538 7.92 3.09 9
8/16/2021 8:45:00 AM 17.79 64.022 0.537 7.93 2.79 9.21
8/16/2021 9:00:00 AM 17.8 64.04 0.537 7.96 2.37 9.45
8/16/2021 9:15:00 AM 17.81 64.058 0.537 7.98 2.18 9.64
8/16/2021 9:30:00 AM 17.84 64.112 0.537 8 1.96 9.87
8/16/2021 9:45:00 AM 17.83 64.094 0.536 8.01 1.93 9.88
8/16/2021 10:00:00 AM 17.83 64.094 0.536 8.03 2.12 10.02
8/16/2021 10:15:00 AM 17.89 64.202 0.535 8.06 1.91 10.32
8/16/2021 10:30:00 AM 17.94 64.292 0.535 8.08 4.1 10.56
8/16/2021 10:45:00 AM 18.05 64.49 0.533 8.13 1.73 10.88
8/16/2021 11:00:00 AM 18.13 64.634 0.532 8.16 1.64 11.11
8/16/2021 11:15:00 AM 18.23 64.814 0.531 8.19 1.56 11.29
8/16/2021 11:30:00 AM 18.32 64.976 0.53 8.22 1.44 11.45
8/16/2021 11:45:00 AM 18.34 65.012 0.529 8.24 1.44 11.48
8/16/2021 12:00:00 PM 18.41 65.138 0.527 8.25 1.43 11.58
8/16/2021 12:15:00 PM 18.44 65.192 0.527 8.27 1.5 11.57
8/16/2021 12:30:00 PM 18.45 65.21 0.527 8.27 3.27 11.5
8/16/2021 12:45:00 PM 18.46 65.228 0.525 8.28 1.22 11.39
8/16/2021 1:00:00 PM 18.47 65.246 0.525 8.29 1.55 11.31
8/16/2021 1:15:00 PM 18.52 65.336 0.523 8.31 1.17 11.44
8/16/2021 1:30:00 PM 18.56 65.408 0.523 8.32 1.29 11.41
8/16/2021 1:45:00 PM 18.64 65.552 0.521 8.34 1.34 11.55
8/16/2021 2:00:00 PM 18.69 65.642 0.521 8.35 1.41 11.54
8/16/2021 2:15:00 PM 18.77 65.786 0.52 8.35 2.86 11.54
8/16/2021 2:30:00 PM 18.84 65.912 0.519 8.36 2.18 11.52
8/16/2021 2:45:00 PM 18.9 66.02 0.518 8.37 1.61 11.57
8/16/2021 3:00:00 PM 18.97 66.146 0.517 8.38 1.53 11.64
8/16/2021 3:15:00 PM 19.04 66.272 0.516 8.39 1.53 11.68
8/16/2021 3:30:00 PM 19.13 66.434 0.515 8.41 1.44 11.77
8/16/2021 3:45:00 PM 19.2 66.56 0.514 8.41 1.51 11.73
8/16/2021 4:00:00 PM 19.27 66.686 0.514 8.42 1.44 11.66
8/16/2021 4:15:00 PM 19.29 66.722 0.514 8.41 1.42 11.36
8/16/2021 4:30:00 PM 19.28 66.704 0.514 8.39 1.46 11.06
8/16/2021 4:45:00 PM 19.32 66.776 0.514 8.38 1.48 10.94
8/16/2021 5:00:00 PM 19.35 66.83 0.514 8.37 1.62 10.77
8/16/2021 5:15:00 PM 19.38 66.884 0.515 8.35 1.6 10.5
8/16/2021 5:30:00 PM 19.4 66.92 0.515 8.33 1.75 10.2
8/16/2021 5:45:00 PM 19.41 66.938 0.516 8.3 1.82 9.88
8/16/2021 6:00:00 PM 19.43 66.974 0.518 8.26 1.97 9.59
8/16/2021 6:15:00 PM 19.47 67.046 0.519 8.23 2.08 9.4
8/16/2021 6:30:00 PM 19.52 67.136 0.519 8.21 2.22 9.22
8/16/2021 6:45:00 PM 19.57 67.226 0.52 8.18 2.12 9.05
8/16/2021 7:00:00 PM 19.62 67.316 0.521 8.15 2.18 8.89
8/16/2021 7:15:00 PM 19.65 67.37 0.522 8.13 2.41 8.76
8/16/2021 7:30:00 PM 19.68 67.424 0.523 8.11 2.82 8.63
8/16/2021 7:45:00 PM 19.71 67.478 0.287 8.08 5.5 8.53
8/16/2021 8:00:00 PM 19.73 67.514 0.524 8.06 2.8 8.42
8/16/2021 8:15:00 PM 19.74 67.532 0.525 8.04 3.16 8.33
8/16/2021 8:30:00 PM 19.74 67.532 0.526 8.02 4.31 8.25
8/16/2021 8:45:00 PM 19.74 67.532 0.526 8 4.65 8.17
8/16/2021 9:00:00 PM 19.74 67.532 0.527 7.99 4.95 8.09
8/16/2021 9:15:00 PM 19.74 67.532 0.528 7.97 5.13 8.03
8/16/2021 9:30:00 PM 19.74 67.532 0.529 7.95 6.15 7.97
8/16/2021 9:45:00 PM 19.73 67.514 0.53 7.94 5.29 7.92
8/16/2021 10:00:00 PM 19.73 67.514 0.53 7.93 5.8 7.9
8/16/2021 10:15:00 PM 19.73 67.514 0.53 7.92 6.66 7.89
8/16/2021 10:30:00 PM 19.73 67.514 0.531 7.92 6.94 7.88
8/16/2021 10:45:00 PM 19.72 67.496 0.531 7.91 6.88 7.88
8/16/2021 11:00:00 PM 19.72 67.496 0.531 7.9 7.11 7.87
8/16/2021 11:15:00 PM 19.71 67.478 0.531 7.9 8.12 7.86
8/16/2021 11:30:00 PM 19.7 67.46 0.531 7.89 7.84 7.86
8/16/2021 11:45:00 PM 19.69 67.442 0.532 7.88 7.67 7.84
8/17/2021 12:00:00 AM 19.67 67.406 0.313 7.87 10.21 7.86
8/17/2021 12:15:00 AM 19.65 67.37 0.532 7.87 9.2 7.85
8/17/2021 12:30:00 AM 19.62 67.316 0.537 7.86 10.26 7.84
8/17/2021 12:45:00 AM 19.58 67.244 0.532 7.86 8.34 7.84
8/17/2021 1:00:00 AM 19.54 67.172 0.287 7.86 11.79 7.87
8/17/2021 1:15:00 AM 19.5 67.1 0.532 7.86 7.68 7.9
8/17/2021 1:30:00 AM 19.45 67.01 0.531 7.86 8.76 7.91
8/17/2021 1:45:00 AM 19.4 66.92 0.531 7.87 9.76 7.95
8/17/2021 2:00:00 AM 19.34 66.812 0.531 7.87 9.33 7.99
8/17/2021 2:15:00 AM 19.28 66.704 0.531 7.87 8.73 8.03
8/17/2021 2:30:00 AM 19.22 66.596 0.531 7.87 10.39 8.07
8/17/2021 2:45:00 AM 19.15 66.47 0.531 7.88 9.96 8.1
8/17/2021 3:00:00 AM 19.09 66.362 0.531 7.88 11 8.13
8/17/2021 3:15:00 AM 19.03 66.254 0.531 7.88 11.12 8.17
8/17/2021 3:30:00 AM 18.96 66.128 0.532 7.87 11.08 8.18
8/17/2021 3:45:00 AM 18.9 66.02 0.532 7.88 8.64 8.21
8/17/2021 4:00:00 AM 18.84 65.912 0.532 7.89 9.38 8.24
8/17/2021 4:15:00 AM 18.77 65.786 0.532 7.89 11.08 8.26
8/17/2021 4:30:00 AM 18.71 65.67799 0.31 7.88 13.22 8.29
8/17/2021 4:45:00 AM 18.66 65.588 0.532 7.89 11.17 8.31
8/17/2021 5:00:00 AM 18.61 65.498 0.533 7.89 9.32 8.33
8/17/2021 5:15:00 AM 18.55 65.39 0.533 7.89 9.18 8.35
8/17/2021 5:30:00 AM 18.51 65.318 0.533 7.89 10.16 8.34
8/17/2021 5:45:00 AM 18.46 65.228 0.533 7.9 9.4 8.37
8/17/2021 6:00:00 AM 18.43 65.174 0.533 7.9 9.49 8.39
8/17/2021 6:15:00 AM 18.39 65.102 0.533 7.9 9.22 8.4
8/17/2021 6:30:00 AM 18.37 65.066 0.532 7.9 11.07 8.4
8/17/2021 6:45:00 AM 18.34 65.012 0.532 7.9 8.92 8.4
8/17/2021 7:00:00 AM 18.34 65.012 0.532 7.9 8.05 8.4
8/17/2021 7:15:00 AM 18.31 64.958 0.532 7.9 6.64 8.42
8/17/2021 7:30:00 AM 18.29 64.922 0.532 7.89 5.98 8.45
8/17/2021 7:45:00 AM 18.28 64.904 0.532 7.9 5.78 8.48
8/17/2021 8:00:00 AM 18.28 64.904 0.532 7.9 4.9 8.53
8/17/2021 8:15:00 AM 18.29 64.922 0.531 7.91 4.6 8.62
8/17/2021 8:30:00 AM 18.31 64.958 0.531 7.92 4.17 8.74
8/17/2021 8:45:00 AM 18.36 65.048 0.531 7.94 3.25 8.95
8/17/2021 9:00:00 AM 18.37 65.066 0.531 7.95 2.53 8.95
8/17/2021 9:15:00 AM 18.41 65.138 0.53 7.97 2.24 9.09
8/17/2021 9:30:00 AM 18.43 65.174 0.53 7.98 2.09 9.13
8/17/2021 9:45:00 AM 18.43 65.174 0.53 7.98 1.86 9.17
8/17/2021 10:00:00 AM 18.43 65.174 0.53 7.99 2.01 9.16
8/17/2021 10:15:00 AM 18.44 65.192 0.53 7.99 1.56 9.19
8/17/2021 10:30:00 AM 18.45 65.21 0.53 8 1.55 9.32
8/17/2021 10:45:00 AM 18.46 65.228 0.53 8.01 1.86 9.36
8/17/2021 11:00:00 AM 18.48 65.264 0.53 8.03 1.4 9.47
8/17/2021 11:15:00 AM 18.51 65.318 0.53 8.04 1.47 9.65
8/17/2021 11:30:00 AM 18.53 65.354 0.53 8.06 1.65 9.74
8/17/2021 11:45:00 AM 18.67 65.606 0.529 8.1 1.59 10.21
8/17/2021 12:00:00 PM 18.74 65.732 0.528 8.13 1.33 10.41
8/17/2021 12:15:00 PM 18.87 65.966 0.527 8.18 1.22 10.76
8/17/2021 12:30:00 PM 19 66.2 0.526 8.2 2.52 10.92
8/17/2021 12:45:00 PM 19.12 66.416 0.524 8.24 1.13 11.12
8/17/2021 1:00:00 PM 19.28 66.704 0.523 8.26 1.18 11.33
8/17/2021 1:15:00 PM 19.6 67.28 0.521 8.3 4.74 11.67
8/17/2021 1:30:00 PM 19.63 67.334 0.519 8.33 1.18 11.69
8/17/2021 1:45:00 PM 19.89 67.802 0.518 8.35 1.19 11.8
8/17/2021 2:00:00 PM 19.97 67.946 0.516 8.37 1.21 11.75
8/17/2021 2:15:00 PM 20.18 68.324 0.515 8.39 1.24 11.9
8/17/2021 2:30:00 PM 20.17 68.306 0.514 8.4 1.16 11.69
8/17/2021 2:45:00 PM 20.19 68.342 0.513 8.4 1.12 11.54
8/17/2021 3:00:00 PM 20.28 68.504 0.313 8.41 4.15 11.55
8/17/2021 3:15:00 PM 20.32 68.576 0.319 8.41 2.85 11.35
8/17/2021 3:30:00 PM 20.32 68.576 0.511 8.4 1.18 10.88
8/17/2021 3:45:00 PM 20.34 68.612 0.526 8.38 3 10.74
8/17/2021 4:00:00 PM 20.4 68.72 0.51 8.39 1.13 10.66
8/17/2021 4:15:00 PM 20.44 68.792 0.51 8.38 1.19 10.57
8/17/2021 4:30:00 PM 20.47 68.846 0.509 8.38 1.08 10.46
8/17/2021 4:45:00 PM 20.5 68.9 0.51 8.36 1.35 10.08
8/17/2021 5:00:00 PM 20.55 68.99 0.51 8.34 1.23 9.95
8/17/2021 5:15:00 PM 20.56 69.008 0.511 8.31 1.63 9.66
8/17/2021 5:30:00 PM 20.57 69.026 0.512 8.29 3.05 9.49
8/17/2021 5:45:00 PM 20.57 69.026 0.512 8.28 1.16 9.38
8/17/2021 6:00:00 PM 20.55 68.99 0.513 8.26 1.37 9.29
8/17/2021 6:15:00 PM 20.54 68.972 0.514 8.23 3.78 9.14
8/17/2021 6:30:00 PM 20.54 68.972 0.515 8.21 1.89 9.04
8/17/2021 6:45:00 PM 20.54 68.972 0.517 8.18 2.09 8.93
8/17/2021 7:00:00 PM 20.55 68.99 0.518 8.15 2.31 8.75
8/17/2021 7:15:00 PM 20.56 69.008 0.52 8.12 2.4 8.6
8/17/2021 7:30:00 PM 20.58 69.044 0.521 8.09 3.38 8.42
8/17/2021 7:45:00 PM 20.62 69.116 0.522 8.06 3.35 8.29
8/17/2021 8:00:00 PM 20.65 69.17 0.523 8.03 3.45 8.16
8/17/2021 8:15:00 PM 20.71 69.278 0.524 8.01 3.4 8.04
8/17/2021 8:30:00 PM 20.77 69.386 0.524 7.99 4.62 7.95
8/17/2021 8:45:00 PM 20.83 69.494 0.524 7.97 6.62 7.86
8/17/2021 9:00:00 PM 20.89 69.602 0.524 7.95 6.06 7.79
8/17/2021 9:15:00 PM 20.96 69.728 0.525 7.94 6.17 7.73
8/17/2021 9:30:00 PM 21.01 69.818 0.525 7.93 6.06 7.67
8/17/2021 9:45:00 PM 21.05 69.89 0.525 7.92 7.02 7.61
8/17/2021 10:00:00 PM 21.07 69.926 0.526 7.91 7.82 7.58
8/17/2021 10:15:00 PM 21.09 69.962 0.526 7.9 7.9 7.56
8/17/2021 10:30:00 PM 21.09 69.962 0.526 7.89 9.04 7.55
8/17/2021 10:45:00 PM 21.08 69.944 0.527 7.88 8.08 7.55
8/17/2021 11:00:00 PM 21.06 69.908 0.527 7.88 7.77 7.57
8/17/2021 11:15:00 PM 21.02 69.836 0.527 7.88 9.19 7.59
8/17/2021 11:30:00 PM 20.98 69.764 0.527 7.88 7.55 7.62
8/17/2021 11:45:00 PM 20.93 69.674 0.527 7.88 8.08 7.66
8/18/2021 12:00:00 AM 20.88 69.584 0.527 7.88 9.6 7.68
8/18/2021 12:15:00 AM 20.82 69.476 0.527 7.88 9.04 7.72
8/18/2021 12:30:00 AM 20.75 69.35 0.527 7.88 8.64 7.74
8/18/2021 12:45:00 AM 20.68 69.224 0.527 7.87 8.52 7.77
8/18/2021 1:00:00 AM 20.61 69.098 0.527 7.87 8.92 7.8
8/18/2021 1:15:00 AM 20.54 68.972 0.528 7.87 9.96 7.82
8/18/2021 1:30:00 AM 20.47 68.846 0.528 7.87 31.93 7.85
8/18/2021 1:45:00 AM 20.4 68.72 0.528 7.88 10.57 7.88
8/18/2021 2:00:00 AM 20.32 68.576 0.528 7.88 10.73 7.9
8/18/2021 2:15:00 AM 20.25 68.45 0.529 7.88 11.66 7.93
8/18/2021 2:30:00 AM 20.16 68.288 0.529 7.88 12.95 7.94
8/18/2021 2:45:00 AM 20.08 68.144 0.53 7.88 11.69 7.97
8/18/2021 3:00:00 AM 20.01 68.018 0.53 7.88 10.59 7.99
8/18/2021 3:15:00 AM 19.94 67.892 0.528 7.88 11.04 8.04
8/18/2021 3:30:00 AM 19.86 67.748 0.528 7.88 12.18 8.03
8/18/2021 3:45:00 AM 19.77 67.586 0.529 7.88 10.19 8.05
8/18/2021 4:00:00 AM 19.69 67.442 0.53 7.87 15.78 8.07
8/18/2021 4:15:00 AM 19.62 67.316 0.53 7.87 13.26 8.08
8/18/2021 4:30:00 AM 19.55 67.19 0.53 7.87 13.92 8.12
8/18/2021 4:45:00 AM 19.49 67.082 0.531 7.86 15.02 8.14
8/18/2021 5:00:00 AM 19.42 66.956 0.53 7.87 12.36 8.15
8/18/2021 5:15:00 AM 19.37 66.866 0.53 7.86 12.11 8.17
8/18/2021 5:30:00 AM 19.32 66.776 0.531 7.86 14.59 8.17
8/18/2021 5:45:00 AM 19.27 66.686 0.53 7.86 10.91 8.2
8/18/2021 6:00:00 AM 19.22 66.596 0.53 7.86 11.18 8.21
8/18/2021 6:15:00 AM 19.19 66.542 0.529 7.86 12.2 8.22
8/18/2021 6:30:00 AM 19.16 66.488 0.526 7.85 12.11 8.22
8/18/2021 6:45:00 AM 19.13 66.434 0.525 7.85 12.04 8.2
8/18/2021 7:00:00 AM 19.15 66.47 0.518 7.85 13 8.24
8/18/2021 7:15:00 AM 19.16 66.488 0.299 7.84 16.11 8.25
8/18/2021 7:30:00 AM 19.12 66.416 0.513 7.84 12.1 8.26
8/18/2021 7:45:00 AM 19.09 66.362 0.513 7.84 9.67 8.26
8/18/2021 8:00:00 AM 19.07 66.326 0.513 7.84 9.84 8.3
8/18/2021 8:15:00 AM 19.04 66.272 0.514 7.85 9.59 8.34
8/18/2021 8:30:00 AM 19.05 66.29 0.513 7.86 7.65 8.5
8/18/2021 8:45:00 AM 19.06 66.308 0.512 7.86 7.36 8.57
8/18/2021 9:00:00 AM 19.07 66.326 0.511 7.88 5.72 8.64
8/18/2021 9:15:00 AM 19.07 66.326 0.51 7.88 6.28 8.66
8/18/2021 9:30:00 AM 19.09 66.362 0.508 7.89 5.43 8.84
8/18/2021 9:45:00 AM 19.1 66.38 0.508 7.91 5.05 8.96
8/18/2021 10:00:00 AM 19.12 66.416 0.509 7.93 4.5 9.1
8/18/2021 10:15:00 AM 19.13 66.434 0.509 7.95 3.89 9.16
8/18/2021 10:30:00 AM 19.18 66.524 0.508 7.97 4.23 9.42
8/18/2021 10:45:00 AM 19.23 66.614 0.508 7.99 4.46 9.58
8/18/2021 11:00:00 AM 19.28 66.704 0.507 8.02 4.04 9.76
8/18/2021 11:15:00 AM 19.31 66.758 0.507 8.04 3.66 9.88
8/18/2021 11:30:00 AM 19.46 67.028 0.506 8.08 3.03 10.2
8/18/2021 11:45:00 AM 19.45 67.01 0.507 8.1 2.73 10.18
8/18/2021 12:00:00 PM 19.59 67.262 0.507 8.14 2.32 10.5
8/18/2021 12:15:00 PM 19.71 67.478 0.507 8.17 2.22 10.62
8/18/2021 12:30:00 PM 19.87 67.766 0.507 8.2 4.41 10.88
8/18/2021 12:45:00 PM 19.95 67.91 0.505 8.22 1.92 10.86
8/18/2021 1:00:00 PM 20.12 68.216 0.504 8.25 1.85 11
8/18/2021 1:15:00 PM 20.16 68.288 0.502 8.27 1.77 10.94
8/18/2021 1:30:00 PM 20.24 68.432 0.5 8.29 1.84 11.06
8/18/2021 1:45:00 PM 20.36 68.648 0.497 8.31 1.93 11.15
8/18/2021 2:00:00 PM 20.57 69.026 0.495 8.34 1.75 11.33
8/18/2021 2:15:00 PM 20.57 69.026 0.494 8.35 1.8 11.14
8/18/2021 2:30:00 PM 20.59 69.062 0.493 8.34 1.97 10.75
8/18/2021 2:45:00 PM 20.59 69.062 0.492 8.34 2.14 10.77
8/18/2021 3:00:00 PM 20.61 69.098 0.491 8.34 2.03 10.61
8/18/2021 3:15:00 PM 20.68 69.224 0.49 8.34 1.93 10.57
8/18/2021 3:30:00 PM 20.75 69.35 0.489 8.35 2.09 10.58
8/18/2021 3:45:00 PM 20.76 69.368 0.489 8.33 2.31 10.13
8/18/2021 4:00:00 PM 20.75 69.35 0.492 8.29 4.08 9.77
8/18/2021 4:15:00 PM 20.76 69.368 0.491 8.27 4.32 9.53
8/18/2021 4:30:00 PM 20.8 69.44 0.49 8.25 2.54 9.38
8/18/2021 4:45:00 PM 20.87 69.566 0.491 8.25 2.15 9.38
8/18/2021 5:00:00 PM 20.95 69.71 0.492 8.24 2.36 9.37
8/18/2021 5:15:00 PM 21.02 69.836 0.493 8.23 2.42 9.27
8/18/2021 5:30:00 PM 21.07 69.926 0.495 8.21 2.52 9.09
8/18/2021 5:45:00 PM 21.21 70.17799 0.486 8.2 3.47 8.84
8/18/2021 6:00:00 PM 21.21 70.17799 0.489 8.17 3.53 8.68
8/18/2021 6:15:00 PM 21.25 70.25 0.492 8.13 8.27 8.52
8/18/2021 6:30:00 PM 21.27 70.286 0.494 8.11 3.79 8.37
8/18/2021 6:45:00 PM 21.31 70.358 0.496 8.09 3.91 8.23
8/18/2021 7:00:00 PM 21.34 70.412 0.498 8.07 3.65 8.1
8/18/2021 7:15:00 PM 21.38 70.484 0.498 8.05 3.99 7.97
8/18/2021 7:30:00 PM 21.43 70.574 0.498 8.02 4.01 7.86
8/18/2021 7:45:00 PM 21.52 70.736 0.492 8.01 5.54 7.79
8/18/2021 8:00:00 PM 21.61 70.898 0.482 7.99 7.69 7.72
8/18/2021 8:15:00 PM 21.84 71.312 0.448 7.98 15.98 7.85
8/18/2021 8:30:00 PM 22.2 71.96 0.368 7.93 84.87 7.84
8/18/2021 8:45:00 PM 22.23 72.014 0.36 7.86 127.22 7.65
8/18/2021 9:00:00 PM 22.15 71.87 0.344 7.7 435.95 7.66
8/18/2021 9:15:00 PM 22.11 71.798 0.325 7.61 401.84 7.63
8/18/2021 9:30:00 PM 22.07 71.726 0.321 7.6 286.16 7.58
8/18/2021 9:45:00 PM 22.04 71.672 0.311 7.55 275.41 7.56
8/18/2021 10:00:00 PM 21.98 71.564 0.315 7.58 243.98 7.56
8/18/2021 10:15:00 PM 21.93 71.474 0.313 7.59 270.22 7.53
8/18/2021 10:30:00 PM 21.81 71.258 0.335 7.62 260.55 7.53
8/18/2021 10:45:00 PM 21.66 70.988 0.351 7.63 227.74 7.55
8/18/2021 11:00:00 PM 21.49 70.682 0.375 7.65 181.8 7.57
8/18/2021 11:15:00 PM 21.29 70.32201 0.389 7.66 165.4 7.6
8/18/2021 11:30:00 PM 21.16 70.088 0.38 7.64 170.19 7.55
8/18/2021 11:45:00 PM 21.16 70.088 0.354 7.59 263.89 7.38
8/19/2021 12:00:00 AM 21.36 70.448 0.322 7.52 360.58 7.11
8/19/2021 12:15:00 AM 21.37 70.466 0.319 7.49 358.88 7.02
8/19/2021 12:30:00 AM 21.13 70.034 0.338 7.49 319.89 6.98
8/19/2021 12:45:00 AM 20.86 69.548 0.359 7.5 286.85 7.03
8/19/2021 1:00:00 AM 20.65 69.17 0.364 7.5 259.66 7.19
8/19/2021 1:15:00 AM 20.66 69.188 0.347 7.5 231.13 7.29
8/19/2021 1:30:00 AM 20.8 69.44 0.322 7.5 213.98 7.32
8/19/2021 1:45:00 AM 20.96 69.728 0.301 7.48 197.78 7.33
8/19/2021 2:00:00 AM 21.1 69.98 0.285 7.48 186.73 7.3
8/19/2021 2:15:00 AM 21.21 70.17799 0.272 7.48 170.13 7.27
8/19/2021 2:30:00 AM 21.28 70.304 0.262 7.48 159.13 7.29
8/19/2021 2:45:00 AM 21.33 70.394 0.256 7.49 144.87 7.3
8/19/2021 3:00:00 AM 21.36 70.448 0.252 7.49 136.49 7.32
8/19/2021 3:15:00 AM 21.36 70.448 0.251 7.49 124.71 7.34
8/19/2021 3:30:00 AM 21.35 70.43 0.252 7.49 117.72 7.36
8/19/2021 3:45:00 AM 21.32 70.376 0.254 7.49 109.66 7.35
8/19/2021 4:00:00 AM 21.29 70.32201 0.256 7.5 101.32 7.38
8/19/2021 4:15:00 AM 21.25 70.25 0.259 7.5 98.75 7.4
8/19/2021 4:30:00 AM 21.2 70.16 0.263 7.5 92.86 7.39
8/19/2021 4:45:00 AM 21.14 70.052 0.267 7.51 85.37 7.44
8/19/2021 5:00:00 AM 21.08 69.944 0.272 7.52 82.07 7.48
8/19/2021 5:15:00 AM 21.01 69.818 0.278 7.52 78.44 7.5
8/19/2021 5:30:00 AM 20.93 69.674 0.284 7.53 76.25 7.52
8/19/2021 5:45:00 AM 20.86 69.548 0.291 7.54 70.03 7.56
8/19/2021 6:00:00 AM 20.78 69.404 0.298 7.55 68.4 7.58
8/19/2021 6:15:00 AM 20.7 69.26 0.304 7.56 65.28 7.62
8/19/2021 6:30:00 AM 20.63 69.134 0.309 7.57 62.87 7.61
8/19/2021 6:45:00 AM 20.57 69.026 0.314 7.58 60.38 7.64
8/19/2021 7:00:00 AM 20.5 68.9 0.317 7.58 55.85 7.68
8/19/2021 7:15:00 AM 20.45 68.81 0.32 7.59 50.2 7.73
8/19/2021 7:30:00 AM 20.41 68.738 0.323 7.6 46.23 7.76
8/19/2021 7:45:00 AM 20.36 68.648 0.325 7.6 44.48 7.77
8/19/2021 8:00:00 AM 20.35 68.63 0.326 7.61 38.16 7.85
8/19/2021 8:15:00 AM 20.34 68.612 0.328 7.62 34.21 7.89
8/19/2021 8:30:00 AM 20.33 68.594 0.33 7.63 32.28 7.95
8/19/2021 8:45:00 AM 20.3 68.54 0.332 7.63 28.51 7.93
8/19/2021 9:00:00 AM 20.27 68.486 0.335 7.64 24.74 7.95
8/19/2021 9:15:00 AM 20.3 68.54 0.338 7.64 22.82 8.01
8/19/2021 9:30:00 AM 20.34 68.612 0.342 7.66 19.94 8.08
8/19/2021 9:45:00 AM 20.39 68.702 0.346 7.67 19.27 8.15
8/19/2021 10:00:00 AM 20.44 68.792 0.349 7.69 18.26 8.27
8/19/2021 10:15:00 AM 20.5 68.9 0.353 7.71 16.41 8.35
8/19/2021 10:30:00 AM 20.55 68.99 0.357 7.73 15.67 8.45
8/19/2021 10:45:00 AM 20.64 69.152 0.361 7.75 13.82 8.55
8/19/2021 11:00:00 AM 20.7 69.26 0.365 7.77 13.37 8.67
8/19/2021 11:15:00 AM 20.89 69.602 0.302 7.8 11.75 8.87
8/19/2021 11:30:00 AM 20.83 69.494 0.373 7.82 11.53 8.86
8/19/2021 11:45:00 AM 20.94 69.692 0.377 7.85 10.94 9.05
8/19/2021 12:00:00 PM 20.92 69.656 0.381 7.87 10.66 9.06
8/19/2021 12:15:00 PM 20.99 69.782 0.386 7.89 9.93 9.18
8/19/2021 12:30:00 PM 21.04 69.872 0.389 7.91 9.63 9.27
8/19/2021 12:45:00 PM 21.18 70.124 0.393 7.94 9.18 9.45
8/19/2021 1:00:00 PM 21.25 70.25 0.397 7.97 8.99 9.52
8/19/2021 1:15:00 PM 21.41 70.538 0.401 8 8.73 9.66
8/19/2021 1:30:00 PM 21.5 70.7 0.405 8.03 8.22 9.78
8/19/2021 1:45:00 PM 21.58 70.844 0.408 8.05 7.76 9.76
8/19/2021 2:00:00 PM 21.67 71.006 0.412 8.06 8.04 9.74
8/19/2021 2:15:00 PM 21.97 71.546 0.415 8.09 7.52 9.87
8/19/2021 2:30:00 PM 22.16 71.888 0.418 8.11 6.48 9.87
8/19/2021 2:45:00 PM 22.22 71.996 0.421 8.12 6.8 9.78
8/19/2021 3:00:00 PM 22.31 72.158 0.424 8.14 6.63 9.78
8/19/2021 3:15:00 PM 22.36 72.248 0.427 8.14 6.29 9.7
8/19/2021 3:30:00 PM 22.5 72.5 0.43 8.15 6.44 9.64
8/19/2021 3:45:00 PM 22.68 72.824 0.433 8.16 6.93 9.65
8/19/2021 4:00:00 PM 22.82 73.076 0.435 8.17 6.49 9.51
8/19/2021 4:15:00 PM 22.92 73.256 0.438 8.17 6.2 9.43
8/19/2021 4:30:00 PM 22.99 73.382 0.441 8.16 5.63 9.32
8/19/2021 4:45:00 PM 23.06 73.508 0.45 8.15 9.27 9.22
8/19/2021 5:00:00 PM 23.04 73.472 0.443 8.13 7.07 8.84
8/19/2021 5:15:00 PM 23.08 73.544 0.444 8.12 7.58 8.71
8/19/2021 5:30:00 PM 23.13 73.634 0.448 8.1 7.17 8.57
8/19/2021 5:45:00 PM 23.14 73.652 0.451 8.08 6.33 8.4
8/19/2021 6:00:00 PM 23.11 73.598 0.453 8.06 6.5 8.18
8/19/2021 6:15:00 PM 23.05 73.49 0.456 8.04 6.82 8.04
8/19/2021 6:30:00 PM 22.99 73.382 0.458 8.01 6.78 7.96
8/19/2021 6:45:00 PM 22.95 73.31 0.46 7.99 6.78 7.88
8/19/2021 7:00:00 PM 22.91 73.238 0.46 7.98 6.96 7.74
8/19/2021 7:15:00 PM 22.86 73.148 0.462 7.95 8.14 7.68
8/19/2021 7:30:00 PM 22.79 73.022 0.463 7.93 8.22 7.6
8/19/2021 7:45:00 PM 22.73 72.914 0.465 7.92 7.77 7.57
8/19/2021 8:00:00 PM 22.67 72.806 0.466 7.91 8.49 7.53
8/19/2021 8:15:00 PM 22.61 72.698 0.468 7.89 9.18 7.49
8/19/2021 8:30:00 PM 22.56 72.608 0.47 7.88 10.38 7.44
8/19/2021 8:45:00 PM 22.5 72.5 0.471 7.87 11.88 7.42
8/19/2021 9:00:00 PM 22.46 72.42799 0.473 7.86 13.64 7.36
8/19/2021 9:15:00 PM 22.41 72.338 0.475 7.86 13.37 7.36
8/19/2021 9:30:00 PM 22.37 72.266 0.476 7.85 14.19 7.39
8/19/2021 9:45:00 PM 22.33 72.194 0.477 7.85 13.47 7.36
8/19/2021 10:00:00 PM 22.3 72.14 0.478 7.85 13.77 7.35
8/19/2021 10:15:00 PM 22.26 72.068 0.48 7.85 13.53 7.35
8/19/2021 10:30:00 PM 22.22 71.996 0.481 7.84 13.4 7.35
8/19/2021 10:45:00 PM 22.19 71.942 0.482 7.85 14.16 7.39
8/19/2021 11:00:00 PM 22.14 71.852 0.483 7.84 14.31 7.41
8/19/2021 11:15:00 PM 22.09 71.762 0.484 7.84 13.38 7.41
8/19/2021 11:30:00 PM 22.02 71.636 0.485 7.84 14 7.42
8/19/2021 11:45:00 PM 21.95 71.51 0.486 7.84 15.73 7.44
8/20/2021 12:00:00 AM 21.88 71.384 0.487 7.84 14.1 7.4
8/20/2021 12:15:00 AM 21.8 71.24 0.488 7.84 14.86 7.47
8/20/2021 12:30:00 AM 21.71 71.078 0.489 7.83 15.85 7.5
8/20/2021 12:45:00 AM 21.62 70.916 0.49 7.84 15.36 7.53
8/20/2021 1:00:00 AM 21.53 70.754 0.491 7.83 14.99 7.58
8/20/2021 1:15:00 AM 21.43 70.574 0.291 7.83 14.45 7.59
8/20/2021 1:30:00 AM 21.33 70.394 0.492 7.83 16.45 7.63
8/20/2021 1:45:00 AM 21.23 70.214 0.493 7.83 15.59 7.67
8/20/2021 2:00:00 AM 21.11 69.998 0.493 7.83 15.35 7.7
8/20/2021 2:15:00 AM 21 69.8 0.494 7.83 15.03 7.72
8/20/2021 2:30:00 AM 20.87 69.566 0.495 7.83 14.92 7.77
8/20/2021 2:45:00 AM 20.75 69.35 0.496 7.83 15.65 7.8
8/20/2021 3:00:00 AM 20.62 69.116 0.496 7.82 15.42 7.83
8/20/2021 3:15:00 AM 20.5 68.9 0.497 7.82 15.19 7.87
8/20/2021 3:30:00 AM 20.37 68.666 0.498 7.82 15.45 7.9
8/20/2021 3:45:00 AM 20.24 68.432 0.498 7.82 16.78 7.92
8/20/2021 4:00:00 AM 20.12 68.216 0.499 7.81 17.46 7.97
8/20/2021 4:15:00 AM 20 68 0.499 7.81 19.46 8
8/20/2021 4:30:00 AM 19.88 67.784 0.5 7.81 18.49 8.04
8/20/2021 4:45:00 AM 19.76 67.568 0.5 7.81 17.76 8.04
8/20/2021 5:00:00 AM 19.65 67.37 0.501 7.81 18.18 8.1
8/20/2021 5:15:00 AM 19.54 67.172 0.502 7.8 17.21 8.1
8/20/2021 5:30:00 AM 19.44 66.992 0.501 7.8 18.4 8.14
8/20/2021 5:45:00 AM 19.34 66.812 0.501 7.8 17.13 8.16
8/20/2021 6:00:00 AM 19.25 66.65 0.502 7.79 17.82 8.18
8/20/2021 6:15:00 AM 19.16 66.488 0.502 7.79 17.2 8.2
8/20/2021 6:30:00 AM 19.08 66.344 0.502 7.79 17.78 8.22
8/20/2021 6:45:00 AM 18.99 66.182 0.503 7.79 15.81 8.24
8/20/2021 7:00:00 AM 18.92 66.056 0.503 7.79 14.27 8.25
8/20/2021 7:15:00 AM 18.85 65.93 0.504 7.79 12.36 8.35
8/20/2021 7:30:00 AM 18.79 65.82201 0.504 7.8 10.76 8.37
8/20/2021 7:45:00 AM 18.74 65.732 0.504 7.8 9.34 8.44
8/20/2021 8:00:00 AM 18.68 65.624 0.505 7.8 8.04 8.48
8/20/2021 8:15:00 AM 18.63 65.534 0.505 7.81 6.29 8.55
8/20/2021 8:30:00 AM 18.6 65.48 0.505 7.82 5.55 8.63
8/20/2021 8:45:00 AM 18.57 65.426 0.506 7.82 4.8 8.76
8/20/2021 9:00:00 AM 18.55 65.39 0.506 7.84 4.76 8.89
8/20/2021 9:15:00 AM 18.53 65.354 0.507 7.85 4.46 8.99
8/20/2021 9:30:00 AM 18.53 65.354 0.507 7.86 3.97 9.13
8/20/2021 9:45:00 AM 18.51 65.318 0.507 7.87 3.71 9.22
8/20/2021 10:00:00 AM 18.49 65.282 0.507 7.88 3.55 9.28
8/20/2021 10:15:00 AM 18.48 65.264 0.508 7.88 3.5 9.35
8/20/2021 10:30:00 AM 18.46 65.228 0.508 7.89 3.19 9.39
8/20/2021 10:45:00 AM 18.46 65.228 0.508 7.91 3.24 9.51
8/20/2021 11:00:00 AM 18.47 65.246 0.508 7.92 3 9.66
8/20/2021 11:15:00 AM 18.5 65.3 0.508 7.95 2.89 9.84
8/20/2021 11:30:00 AM 18.55 65.39 0.507 7.98 2.81 10.03
8/20/2021 11:45:00 AM 18.57 65.426 0.507 8 2.88 10.11
8/20/2021 12:00:00 PM 18.6 65.48 0.506 8.03 2.72 10.2
8/20/2021 12:15:00 PM 18.62 65.516 0.506 8.05 2.53 10.31
8/20/2021 12:30:00 PM 18.67 65.606 0.505 8.07 2.66 10.45
8/20/2021 12:45:00 PM 18.72 65.696 0.504 8.1 2.45 10.57
8/20/2021 1:00:00 PM 18.78 65.804 0.503 8.13 2.51 10.69
8/20/2021 1:15:00 PM 18.83 65.894 0.503 8.15 2.47 10.79
8/20/2021 1:30:00 PM 18.88 65.984 0.502 8.17 2.56 10.81
8/20/2021 1:45:00 PM 18.9 66.02 0.502 8.18 2.42 10.76
8/20/2021 2:00:00 PM 18.92 66.056 0.501 8.19 2.38 10.75
8/20/2021 2:15:00 PM 18.94 66.092 0.501 8.19 2.31 10.63
8/20/2021 2:30:00 PM 19.05 66.29 0.501 8.22 2.37 10.85
8/20/2021 2:45:00 PM 19.12 66.416 0.5 8.23 2.4 10.89
8/20/2021 3:00:00 PM 19.29 66.722 0.499 8.26 2.45 11.06
8/20/2021 3:15:00 PM 19.4 66.92 0.499 8.27 2.46 11.07
8/20/2021 3:30:00 PM 19.48 67.064 0.498 8.28 2.57 10.99
8/20/2021 3:45:00 PM 19.52 67.136 0.498 8.28 2.44 10.87
8/20/2021 4:00:00 PM 19.56 67.208 0.497 8.28 2.45 10.72
8/20/2021 4:15:00 PM 19.75 67.55 0.497 8.28 2.82 10.7
8/20/2021 4:30:00 PM 19.89 67.802 0.497 8.28 2.69 10.57
8/20/2021 4:45:00 PM 19.97 67.946 0.496 8.28 2.59 10.41
8/20/2021 5:00:00 PM 20.02 68.036 0.497 8.27 2.55 10.25
8/20/2021 5:15:00 PM 20.03 68.054 0.497 8.26 2.69 10.06
8/20/2021 5:30:00 PM 20.07 68.126 0.497 8.24 2.7 9.88
8/20/2021 5:45:00 PM 20.09 68.162 0.497 8.23 2.75 9.72
8/20/2021 6:00:00 PM 20.09 68.162 0.498 8.21 2.9 9.53
8/20/2021 6:15:00 PM 20.09 68.162 0.498 8.19 2.93 9.36
8/20/2021 6:30:00 PM 20.07 68.126 0.499 8.17 3.29 9.2
8/20/2021 6:45:00 PM 20.07 68.126 0.5 8.15 3.16 9.06
8/20/2021 7:00:00 PM 20.06 68.108 0.5 8.12 3.29 8.91
8/20/2021 7:15:00 PM 20.05 68.09 0.501 8.1 3.41 8.77
8/20/2021 7:30:00 PM 20.04 68.07201 0.502 8.07 3.53 8.65
8/20/2021 7:45:00 PM 20.03 68.054 0.503 8.05 3.66 8.53
8/20/2021 8:00:00 PM 20.01 68.018 0.503 8.02 3.86 8.42
8/20/2021 8:15:00 PM 19.99 67.982 0.504 8.01 4.51 8.33
8/20/2021 8:30:00 PM 19.97 67.946 0.505 7.99 5.38 8.26
8/20/2021 8:45:00 PM 19.97 67.946 0.505 7.97 5.62 8.19
8/20/2021 9:00:00 PM 19.96 67.92799 0.506 7.95 6.78 8.12
8/20/2021 9:15:00 PM 19.96 67.92799 0.286 7.93 7.42 8.06
8/20/2021 9:30:00 PM 19.96 67.92799 0.507 7.93 8.39 8.01
8/20/2021 9:45:00 PM 19.97 67.946 0.508 7.92 8.14 7.98
8/20/2021 10:00:00 PM 19.98 67.964 0.508 7.9 8.59 7.95
8/20/2021 10:15:00 PM 19.99 67.982 0.508 7.9 11.13 7.93
8/20/2021 10:30:00 PM 20.01 68.018 0.508 7.89 11.13 7.9
8/20/2021 10:45:00 PM 20.02 68.036 0.509 7.88 10.92 7.85
8/20/2021 11:00:00 PM 20.04 68.07201 0.51 7.88 10.32 7.77
8/20/2021 11:15:00 PM 20.05 68.09 0.51 7.87 10.65 7.76
8/20/2021 11:30:00 PM 20.06 68.108 0.511 7.86 10.43 7.72
8/20/2021 11:45:00 PM 20.07 68.126 0.511 7.86 11.43 7.69
8/21/2021 12:00:00 AM 20.06 68.108 0.511 7.85 10.64 7.71
8/21/2021 12:15:00 AM 20.05 68.09 0.511 7.85 10.75 7.7
8/21/2021 12:30:00 AM 20.03 68.054 0.51 7.85 11.83 7.73
8/21/2021 12:45:00 AM 19.99 67.982 0.51 7.85 11.9 7.77
8/21/2021 1:00:00 AM 19.95 67.91 0.51 7.85 11.38 7.78
8/21/2021 1:15:00 AM 19.89 67.802 0.51 7.85 11.94 7.78
8/21/2021 1:30:00 AM 19.82 67.676 0.511 7.85 12.77 7.78
8/21/2021 1:45:00 AM 19.75 67.55 0.511 7.85 12.73 7.81
8/21/2021 2:00:00 AM 19.66 67.388 0.511 7.85 13.42 7.86
8/21/2021 2:15:00 AM 19.57 67.226 0.514 7.84 12.86 7.89
8/21/2021 2:30:00 AM 19.47 67.046 0.511 7.85 14.07 7.94
8/21/2021 2:45:00 AM 19.36 66.848 0.511 7.85 13.36 8
8/21/2021 3:00:00 AM 19.25 66.65 0.511 7.85 13.6 8.07
8/21/2021 3:15:00 AM 19.13 66.434 0.511 7.86 13.72 8.12
8/21/2021 3:30:00 AM 19 66.2 0.511 7.86 14.91 8.17
8/21/2021 3:45:00 AM 18.88 65.984 0.511 7.86 14.58 8.2
8/21/2021 4:00:00 AM 18.76 65.768 0.511 7.86 15.94 8.25
8/21/2021 4:15:00 AM 18.64 65.552 0.511 7.86 16.9 8.27
8/21/2021 4:30:00 AM 18.52 65.336 0.512 7.86 16.24 8.3
8/21/2021 4:45:00 AM 18.41 65.138 0.512 7.86 16.26 8.34
8/21/2021 5:00:00 AM 18.29 64.922 0.516 7.85 15.33 8.39
8/21/2021 5:15:00 AM 18.19 64.742 0.512 7.86 15.88 8.43
8/21/2021 5:30:00 AM 18.09 64.562 0.354 7.85 15.38 8.46
8/21/2021 5:45:00 AM 17.99 64.382 0.513 7.87 15.26 8.49
8/21/2021 6:00:00 AM 17.89 64.202 0.513 7.87 15.55 8.49
8/21/2021 6:15:00 AM 17.8 64.04 0.513 7.87 14.53 8.51
8/21/2021 6:30:00 AM 17.71 63.878 0.513 7.87 13.81 8.6
8/21/2021 6:45:00 AM 17.63 63.734 0.513 7.87 12.69 8.64
8/21/2021 7:00:00 AM 17.56 63.608 0.513 7.87 11.41 8.68
8/21/2021 7:15:00 AM 17.49 63.482 0.514 7.88 10.1 8.71
8/21/2021 7:30:00 AM 17.43 63.374 0.514 7.88 8.42 8.76
8/21/2021 7:45:00 AM 17.37 63.266 0.514 7.88 7.41 8.79
8/21/2021 8:00:00 AM 17.32 63.176 0.514 7.88 5.78 8.84
8/21/2021 8:15:00 AM 17.29 63.122 0.514 7.88 4.9 8.9
8/21/2021 8:30:00 AM 17.26 63.068 0.514 7.89 4.29 8.89
8/21/2021 8:45:00 AM 17.24 63.032 0.515 7.89 3.71 9.04
8/21/2021 9:00:00 AM 17.24 63.032 0.515 7.9 3.54 9.12
8/21/2021 9:15:00 AM 17.25 63.05 0.515 7.9 3.12 9.16
8/21/2021 9:30:00 AM 17.27 63.086 0.515 7.91 3.04 9.28
8/21/2021 9:45:00 AM 17.32 63.176 0.515 7.92 2.88 9.42
8/21/2021 10:00:00 AM 17.38 63.284 0.515 7.93 2.73 9.53
8/21/2021 10:15:00 AM 17.43 63.374 0.516 7.95 15.27 9.64
8/21/2021 10:30:00 AM 17.54 63.572 0.515 7.97 2.55 9.75
8/21/2021 10:45:00 AM 17.66 63.788 0.515 7.99 2.58 9.86
8/21/2021 11:00:00 AM 17.74 63.932 0.515 8.01 2.21 9.94
8/21/2021 11:15:00 AM 17.76 63.968 0.515 8.02 2.31 10.02
8/21/2021 11:30:00 AM 17.88 64.184 0.514 8.04 2.44 10.21
8/21/2021 11:45:00 AM 17.91 64.238 0.514 8.06 2.18 10.3
8/21/2021 12:00:00 PM 18.03 64.454 0.513 8.09 2.13 10.44
8/21/2021 12:15:00 PM 18.11 64.598 0.513 8.1 2.12 10.4
8/21/2021 12:30:00 PM 18.14 64.652 0.514 8.1 4.22 10.34
8/21/2021 12:45:00 PM 18.34 65.012 0.512 8.14 2.11 10.6
8/21/2021 1:00:00 PM 18.3 64.94 0.512 8.15 1.95 10.62
8/21/2021 1:15:00 PM 18.61 65.498 0.51 8.19 1.9 10.94
8/21/2021 1:30:00 PM 18.77 65.786 0.51 8.21 1.88 11.04
8/21/2021 1:45:00 PM 19.02 66.236 0.509 8.24 1.78 11.18
8/21/2021 2:00:00 PM 19.14 66.452 0.508 8.27 1.99 11.27
8/21/2021 2:15:00 PM 19.32 66.776 0.507 8.29 2.01 11.37
8/21/2021 2:30:00 PM 19.55 67.19 0.506 8.31 2.02 11.4
8/21/2021 2:45:00 PM 19.68 67.424 0.505 8.33 2.06 11.36
8/21/2021 3:00:00 PM 19.92 67.856 0.504 8.34 2.21 11.29
8/21/2021 3:15:00 PM 20.15 68.27 0.503 8.36 2.22 11.26
8/21/2021 3:30:00 PM 20.39 68.702 0.502 8.37 2.24 11.15
8/21/2021 3:45:00 PM 20.57 69.026 0.502 8.37 2.19 11.04
8/21/2021 4:00:00 PM 20.73 69.314 0.501 8.38 2.36 10.9
8/21/2021 4:15:00 PM 20.89 69.602 0.501 8.37 2.47 10.69
8/21/2021 4:30:00 PM 21.1 69.98 0.5 8.37 2.6 10.51
8/21/2021 4:45:00 PM 21.25 70.25 0.5 8.36 2.54 10.29
8/21/2021 5:00:00 PM 21.43 70.574 0.5 8.36 2.62 10.22
8/21/2021 5:15:00 PM 21.48 70.664 0.5 8.34 2.89 9.94
8/21/2021 5:30:00 PM 21.47 70.646 0.502 8.3 9.29 9.66
8/21/2021 5:45:00 PM 21.54 70.772 0.502 8.28 5.14 9.48
8/21/2021 6:00:00 PM 21.65 70.97 0.502 8.27 3.21 9.35
8/21/2021 6:15:00 PM 21.71 71.078 0.503 8.25 3.26 9.09
8/21/2021 6:30:00 PM 21.75 71.15 0.504 8.22 3.43 8.96
8/21/2021 6:45:00 PM 21.77 71.186 0.505 8.19 3.3 8.77
8/21/2021 7:00:00 PM 21.76 71.168 0.506 8.16 3.72 8.56
8/21/2021 7:15:00 PM 21.76 71.168 0.507 8.13 4.03 8.38
8/21/2021 7:30:00 PM 21.75 71.15 0.508 8.1 3.72 8.24
8/21/2021 7:45:00 PM 21.73 71.114 0.509 8.07 4.27 8.08
8/21/2021 8:00:00 PM 21.7 71.06 0.51 8.04 4.57 7.97
8/21/2021 8:15:00 PM 21.66 70.988 0.511 8.01 5.04 7.85
8/21/2021 8:30:00 PM 21.63 70.934 0.512 7.98 5.62 7.78
8/21/2021 8:45:00 PM 21.6 70.88 0.512 7.96 6.03 7.7
8/21/2021 9:00:00 PM 21.57 70.826 0.513 7.94 6.94 7.61
8/21/2021 9:15:00 PM 21.55 70.79 0.514 7.92 7.15 7.57
8/21/2021 9:30:00 PM 21.53 70.754 0.515 7.9 7.41 7.51
8/21/2021 9:45:00 PM 21.5 70.7 0.516 7.89 7.84 7.48
8/21/2021 10:00:00 PM 21.47 70.646 0.516 7.87 9.16 7.45
8/21/2021 10:15:00 PM 21.44 70.592 0.516 7.86 9.35 7.46
8/21/2021 10:30:00 PM 21.39 70.502 0.516 7.86 9.25 7.44
8/21/2021 10:45:00 PM 21.35 70.43 0.517 7.85 9.61 7.47
8/21/2021 11:00:00 PM 21.29 70.32201 0.516 7.85 9.72 7.49
8/21/2021 11:15:00 PM 21.24 70.232 0.517 7.85 9.57 7.5
8/21/2021 11:30:00 PM 21.18 70.124 0.517 7.85 10.11 7.51
8/21/2021 11:45:00 PM 21.11 69.998 0.517 7.84 10.31 7.51
8/22/2021 12:00:00 AM 21.04 69.872 0.518 7.83 12.46 7.49
8/22/2021 12:15:00 AM 20.97 69.746 0.518 7.83 10.36 7.51
8/22/2021 12:30:00 AM 20.9 69.62 0.519 7.83 11.17 7.51
8/22/2021 12:45:00 AM 20.82 69.476 0.519 7.82 11.72 7.51
8/22/2021 1:00:00 AM 20.75 69.35 0.519 7.82 11.49 7.51
8/22/2021 1:15:00 AM 20.68 69.224 0.519 7.82 11.81 7.58
8/22/2021 1:30:00 AM 20.6 69.08 0.519 7.82 11.52 7.59
8/22/2021 1:45:00 AM 20.52 68.936 0.519 7.82 11.57 7.63
8/22/2021 2:00:00 AM 20.43 68.774 0.519 7.82 12.15 7.66
8/22/2021 2:15:00 AM 20.33 68.594 0.519 7.82 11.77 7.74
8/22/2021 2:30:00 AM 20.24 68.432 0.52 7.81 12.87 7.74
8/22/2021 2:45:00 AM 20.14 68.252 0.519 7.82 11.88 7.79
8/22/2021 3:00:00 AM 20.03 68.054 0.519 7.82 14.89 7.86
8/22/2021 3:15:00 AM 19.93 67.874 0.519 7.82 13.71 7.89
8/22/2021 3:30:00 AM 19.82 67.676 0.519 7.82 11.82 7.96
8/22/2021 3:45:00 AM 19.7 67.46 0.519 7.82 12.1 7.99
8/22/2021 4:00:00 AM 19.6 67.28 0.519 7.82 11.94 8.01
8/22/2021 4:15:00 AM 19.49 67.082 0.519 7.82 11.89 8.05
8/22/2021 4:30:00 AM 19.39 66.902 0.519 7.82 12.64 8.1
8/22/2021 4:45:00 AM 19.29 66.722 0.519 7.82 12.05 8.13
8/22/2021 5:00:00 AM 19.19 66.542 0.52 7.82 15.54 8.16
8/22/2021 5:15:00 AM 19.09 66.362 0.52 7.82 12.39 8.2
8/22/2021 5:30:00 AM 19 66.2 0.52 7.82 13.34 8.21
8/22/2021 5:45:00 AM 18.91 66.038 0.52 7.82 12.32 8.26
8/22/2021 6:00:00 AM 18.83 65.894 0.52 7.82 12.5 8.27
8/22/2021 6:15:00 AM 18.75 65.75 0.52 7.81 13.11 8.3
8/22/2021 6:30:00 AM 18.68 65.624 0.52 7.81 12.56 8.32
8/22/2021 6:45:00 AM 18.61 65.498 0.52 7.81 12.91 8.34
8/22/2021 7:00:00 AM 18.55 65.39 0.52 7.81 12.12 8.37
8/22/2021 7:15:00 AM 18.5 65.3 0.52 7.81 10.25 8.39
8/22/2021 7:30:00 AM 18.46 65.228 0.52 7.82 9.66 8.4
8/22/2021 7:45:00 AM 18.45 65.21 0.514 7.82 9.46 8.41
8/22/2021 8:00:00 AM 18.45 65.21 0.503 7.82 9.6 8.45
8/22/2021 8:15:00 AM 18.39 65.102 0.504 7.81 8.87 8.43
8/22/2021 8:30:00 AM 18.33 64.994 0.503 7.8 8.96 8.45
8/22/2021 8:45:00 AM 18.27 64.886 0.503 7.8 8.02 8.49
8/22/2021 9:00:00 AM 18.24 64.832 0.499 7.8 7.64 8.53
8/22/2021 9:15:00 AM 18.23 64.814 0.49 7.8 9.16 8.63
8/22/2021 9:30:00 AM 18.24 64.832 0.482 7.79 10.53 8.75
8/22/2021 9:45:00 AM 18.27 64.886 0.476 7.8 11.19 8.88
8/22/2021 10:00:00 AM 18.3 64.94 0.473 7.81 11.12 9.04
8/22/2021 10:15:00 AM 18.33 64.994 0.473 7.83 9.71 9.19
8/22/2021 10:30:00 AM 18.34 65.012 0.476 7.85 9.38 9.32
8/22/2021 10:45:00 AM 18.34 65.012 0.479 7.86 9.69 9.37
8/22/2021 11:00:00 AM 18.34 65.012 0.483 7.88 9.23 9.46
8/22/2021 11:15:00 AM 18.33 64.994 0.487 7.9 8.04 9.53
8/22/2021 11:30:00 AM 18.33 64.994 0.488 7.92 6.76 9.58
8/22/2021 11:45:00 AM 18.32 64.976 0.489 7.93 6.48 9.59
8/22/2021 12:00:00 PM 18.3 64.94 0.489 7.94 5.35 9.56
8/22/2021 12:15:00 PM 18.29 64.922 0.489 7.95 4.89 9.59
8/22/2021 12:30:00 PM 18.31 64.958 0.489 7.97 4.52 9.67
8/22/2021 12:45:00 PM 18.33 64.994 0.49 7.97 4.16 9.68
8/22/2021 1:00:00 PM 18.33 64.994 0.49 7.97 4.34 9.67
8/22/2021 1:15:00 PM 18.35 65.03 0.489 7.98 4.1 9.7
8/22/2021 1:30:00 PM 18.39 65.102 0.488 7.99 4.23 9.79
8/22/2021 1:45:00 PM 18.42 65.156 0.486 8.01 4.31 9.85
8/22/2021 2:00:00 PM 18.45 65.21 0.484 8.02 4.33 9.89
8/22/2021 2:15:00 PM 18.49 65.282 0.483 8.03 4.2 9.94
8/22/2021 2:30:00 PM 18.51 65.318 0.319 8.02 8.72 9.85
8/22/2021 2:45:00 PM 18.54 65.372 0.482 8.04 4.11 9.87
8/22/2021 3:00:00 PM 18.6 65.48 0.482 8.06 3.99 10.02
8/22/2021 3:15:00 PM 18.66 65.588 0.483 8.08 4.15 10.12
8/22/2021 3:30:00 PM 18.71 65.67799 0.484 8.09 3.83 10.17
8/22/2021 3:45:00 PM 18.72 65.696 0.485 8.09 3.93 10
8/22/2021 4:00:00 PM 18.72 65.696 0.487 8.09 3.63 9.89
8/22/2021 4:15:00 PM 18.75 65.75 0.488 8.09 4.05 9.87
8/22/2021 4:30:00 PM 18.8 65.84 0.488 8.09 3.85 9.82
8/22/2021 4:45:00 PM 18.82 65.876 0.489 8.09 3.78 9.7
8/22/2021 5:00:00 PM 18.84 65.912 0.49 8.08 3.56 9.56
8/22/2021 5:15:00 PM 18.86 65.948 0.49 8.06 3.61 9.4
8/22/2021 5:30:00 PM 18.9 66.02 0.491 8.05 5.62 9.32
8/22/2021 5:45:00 PM 18.94 66.092 0.491 8.05 3.9 9.26
8/22/2021 6:00:00 PM 18.98 66.164 0.493 8.04 3.96 9.16
8/22/2021 6:15:00 PM 19 66.2 0.493 8.03 3.79 9.08
8/22/2021 6:30:00 PM 19.01 66.218 0.494 8.02 3.69 8.94
8/22/2021 6:45:00 PM 19.01 66.218 0.495 8.01 3.8 8.87
8/22/2021 7:00:00 PM 19.01 66.218 0.495 7.99 3.92 8.77
8/22/2021 7:15:00 PM 19.01 66.218 0.496 7.98 4.19 8.69
8/22/2021 7:30:00 PM 19 66.2 0.497 7.96 6.62 8.61
8/22/2021 7:45:00 PM 19 66.2 0.496 7.95 4.76 8.56
8/22/2021 8:00:00 PM 18.99 66.182 0.496 7.94 5.13 8.5
8/22/2021 8:15:00 PM 18.99 66.182 0.496 7.92 5.84 8.46
8/22/2021 8:30:00 PM 18.99 66.182 0.5 7.9 9.02 8.39
8/22/2021 8:45:00 PM 18.99 66.182 0.497 7.89 6.73 8.39
8/22/2021 9:00:00 PM 18.99 66.182 0.5 7.88 10.06 8.33
8/22/2021 9:15:00 PM 18.98 66.164 0.497 7.87 7.32 8.33
8/22/2021 9:30:00 PM 18.98 66.164 0.498 7.86 8.25 8.29
8/22/2021 9:45:00 PM 18.98 66.164 0.498 7.84 10.5 8.27
8/22/2021 10:00:00 PM 18.98 66.164 0.504 7.83 8.88 8.25
8/22/2021 10:15:00 PM 18.97 66.146 0.497 7.82 8.87 8.24
8/22/2021 10:30:00 PM 18.96 66.128 0.497 7.82 8.87 8.24
8/22/2021 10:45:00 PM 18.96 66.128 0.496 7.81 9.21 8.24
8/22/2021 11:00:00 PM 18.94 66.092 0.496 7.81 10.64 8.23
8/22/2021 11:15:00 PM 18.94 66.092 0.494 7.81 11.9 8.24
8/22/2021 11:30:00 PM 18.93 66.074 0.493 7.8 11.74 8.23
8/22/2021 11:45:00 PM 18.91 66.038 0.492 7.8 10.82 8.24
8/23/2021 12:00:00 AM 18.89 66.002 0.492 7.8 12.12 8.21
8/23/2021 12:15:00 AM 18.88 65.984 0.489 7.8 12.56 8.24
8/23/2021 12:30:00 AM 18.85 65.93 0.487 7.8 13.47 8.24
8/23/2021 12:45:00 AM 18.83 65.894 0.485 7.8 12.69 8.25
8/23/2021 1:00:00 AM 18.8 65.84 0.484 7.79 15.52 8.22
8/23/2021 1:15:00 AM 18.77 65.786 0.481 7.8 15.03 8.24
8/23/2021 1:30:00 AM 18.73 65.714 0.315 7.79 15.34 8.24
8/23/2021 1:45:00 AM 18.69 65.642 0.477 7.79 18.18 8.25
8/23/2021 2:00:00 AM 18.64 65.552 0.475 7.78 22.6 8.25
8/23/2021 2:15:00 AM 18.6 65.48 0.334 7.78 22.35 8.25
8/23/2021 2:30:00 AM 18.56 65.408 0.472 7.78 24.5 8.28
8/23/2021 2:45:00 AM 18.5 65.3 0.471 7.77 23.48 8.29
8/23/2021 3:00:00 AM 18.45 65.21 0.47 7.77 24.02 8.31
8/23/2021 3:15:00 AM 18.4 65.12 0.47 7.77 21.44 8.33
8/23/2021 3:30:00 AM 18.35 65.03 0.469 7.77 24.6 8.34
8/23/2021 3:45:00 AM 18.32 64.976 0.469 7.76 27.52 8.36
8/23/2021 4:00:00 AM 18.27 64.886 0.468 7.76 30.47 8.33
8/23/2021 4:15:00 AM 18.24 64.832 0.344 7.75 28.32 8.36
8/23/2021 4:30:00 AM 18.21 64.778 0.467 7.76 27.83 8.39
8/23/2021 4:45:00 AM 18.19 64.742 0.465 7.76 29.35 8.33
8/23/2021 5:00:00 AM 18.15 64.67 0.464 7.75 29.24 8.38
8/23/2021 5:15:00 AM 18.13 64.634 0.464 7.75 28.62 8.38
8/23/2021 5:30:00 AM 18.11 64.598 0.464 7.74 29.43 8.35
8/23/2021 5:45:00 AM 18.1 64.58 0.464 7.74 29.98 8.36
8/23/2021 6:00:00 AM 18.1 64.58 0.463 7.73 31.99 8.32
8/23/2021 6:15:00 AM 18.1 64.58 0.466 7.72 35.09 8.31
8/23/2021 6:30:00 AM 18.1 64.58 0.462 7.72 42.56 8.14
8/23/2021 6:45:00 AM 18.1 64.58 0.462 7.71 36.31 8.26
8/23/2021 7:00:00 AM 18.11 64.598 0.461 7.71 37.35 8.19
8/23/2021 7:15:00 AM 18.12 64.616 0.461 7.71 33.72 8.22
8/23/2021 7:30:00 AM 18.14 64.652 0.461 7.71 34.73 8.23
8/23/2021 7:45:00 AM 18.16 64.688 0.461 7.72 31.94 8.21
8/23/2021 8:00:00 AM 18.19 64.742 0.46 7.72 30.2 8.27
8/23/2021 8:15:00 AM 18.23 64.814 0.46 7.73 28.29 8.31
8/23/2021 8:30:00 AM 18.25 64.85 0.461 7.74 25.86 8.36
8/23/2021 8:45:00 AM 18.28 64.904 0.462 7.75 22.83 8.42
8/23/2021 9:00:00 AM 18.31 64.958 0.465 7.75 21.27 8.5
8/23/2021 9:15:00 AM 18.36 65.048 0.464 7.77 18.16 8.54
8/23/2021 9:30:00 AM 18.47 65.246 0.323 7.78 16.19 8.77
8/23/2021 9:45:00 AM 18.51 65.318 0.466 7.8 15.09 8.9
8/23/2021 10:00:00 AM 18.53 65.354 0.465 7.82 12.89 8.91
8/23/2021 10:15:00 AM 18.57 65.426 0.465 7.83 12.3 8.94
8/23/2021 10:30:00 AM 18.62 65.516 0.465 7.83 10.93 8.99
8/23/2021 10:45:00 AM 18.78 65.804 0.465 7.85 10.07 9.12
8/23/2021 11:00:00 AM 18.91 66.038 0.464 7.87 13.18 9.27
8/23/2021 11:15:00 AM 19.03 66.254 0.463 7.89 10.09 9.36
8/23/2021 11:30:00 AM 19.16 66.488 0.462 7.91 8.79 9.5
8/23/2021 11:45:00 AM 19.26 66.668 0.46 7.93 8.2 9.61
8/23/2021 12:00:00 PM 19.34 66.812 0.458 7.95 8.18 9.68
8/23/2021 12:15:00 PM 19.49 67.082 0.51 7.97 6.96 9.84
8/23/2021 12:30:00 PM 19.71 67.478 0.454 8 6.93 9.95
8/23/2021 12:45:00 PM 19.98 67.964 0.452 8.03 6.89 10.11
8/23/2021 1:00:00 PM 20.11 68.198 0.45 8.06 6.77 10.1
8/23/2021 1:15:00 PM 20.49 68.882 0.448 8.09 7.14 10.33
8/23/2021 1:30:00 PM 20.65 69.17 0.446 8.12 6.47 10.33
8/23/2021 1:45:00 PM 20.88 69.584 0.444 8.16 6.23 10.47
8/23/2021 2:00:00 PM 20.98 69.764 0.334 8.17 9.68 10.31
8/23/2021 2:15:00 PM 21.23 70.214 0.44 8.2 6.55 10.35
8/23/2021 2:30:00 PM 21.34 70.412 0.439 8.2 6.09 10.16
8/23/2021 2:45:00 PM 21.58 70.844 0.438 8.22 6.03 10.14
8/23/2021 3:00:00 PM 21.69 71.042 0.439 8.23 11.05 10.1
8/23/2021 3:15:00 PM 21.82 71.276 0.436 8.24 5.58 9.99
8/23/2021 3:30:00 PM 21.97 71.546 0.435 8.24 5.51 9.94
8/23/2021 3:45:00 PM 22.1 71.78 0.438 8.23 6.53 9.72
8/23/2021 4:00:00 PM 22.2 71.96 0.435 8.23 10.91 9.66
8/23/2021 4:15:00 PM 22.23 72.014 0.436 8.21 6 9.4
8/23/2021 4:30:00 PM 22.24 72.032 0.434 8.17 6.16 9.11
8/23/2021 4:45:00 PM 22.3 72.14 0.434 8.15 6.57 8.98
8/23/2021 5:00:00 PM 22.41 72.338 0.434 8.14 6.26 8.99
8/23/2021 5:15:00 PM 22.5 72.5 0.435 8.12 12.33 8.88
8/23/2021 5:30:00 PM 22.48 72.464 0.434 8.09 7.58 8.59
8/23/2021 5:45:00 PM 22.46 72.42799 0.433 8.05 7.61 8.34
8/23/2021 6:00:00 PM 22.44 72.392 0.43 8.02 8.76 8.17
8/23/2021 6:15:00 PM 22.46 72.42799 0.421 7.99 9.85 8.03
8/23/2021 6:30:00 PM 22.51 72.518 0.421 7.96 11.24 7.91
8/23/2021 6:45:00 PM 22.53 72.554 0.42 7.93 17.81 7.83
8/23/2021 7:00:00 PM 22.51 72.518 0.418 7.91 14.89 7.76
8/23/2021 7:15:00 PM 22.5 72.5 0.414 7.87 21.72 7.64
8/23/2021 7:30:00 PM 22.5 72.5 0.413 7.84 24.91 7.6
8/23/2021 7:45:00 PM 22.48 72.464 0.414 7.82 26.3 7.52
8/23/2021 8:00:00 PM 22.47 72.446 0.415 7.8 28.16 7.46
8/23/2021 8:15:00 PM 22.43 72.374 0.417 7.79 29.54 7.39
8/23/2021 8:30:00 PM 22.39 72.302 0.422 7.78 30.27 7.4
8/23/2021 8:45:00 PM 22.35 72.23 0.419 7.77 36.16 7.37
8/23/2021 9:00:00 PM 22.29 72.122 0.421 7.76 43.34 7.27
8/23/2021 9:15:00 PM 22.22 71.996 0.424 7.75 39.15 7.33
8/23/2021 9:30:00 PM 22.11 71.798 0.429 7.75 35.25 7.31
8/23/2021 9:45:00 PM 21.99 71.582 0.435 7.75 31.65 7.4
8/23/2021 10:00:00 PM 21.85 71.33 0.44 7.75 30.1 7.42
8/23/2021 10:15:00 PM 21.71 71.078 0.445 7.75 53.56 7.45
8/23/2021 10:30:00 PM 21.57 70.826 0.448 7.75 26.7 7.52
8/23/2021 10:45:00 PM 21.43 70.574 0.45 7.76 29.01 7.54
8/23/2021 11:00:00 PM 21.29 70.32201 0.45 7.75 27.83 7.49
8/23/2021 11:15:00 PM 21.14 70.052 0.45 7.75 27.32 7.62
8/23/2021 11:30:00 PM 21.01 69.818 0.449 7.75 27.14 7.57
8/23/2021 11:45:00 PM 20.88 69.584 0.447 7.75 29.38 7.57
8/24/2021 12:00:00 AM 20.77 69.386 0.446 7.74 29.99 7.58
8/24/2021 12:15:00 AM 20.66 69.188 0.443 7.73 30.55 7.63
8/24/2021 12:30:00 AM 20.57 69.026 0.441 7.72 33.35 7.65
8/24/2021 12:45:00 AM 20.49 68.882 0.438 7.72 34.19 7.57
8/24/2021 1:00:00 AM 20.4 68.72 0.436 7.71 34.68 7.64
8/24/2021 1:15:00 AM 20.31 68.558 0.435 7.7 36.56 7.52
8/24/2021 1:30:00 AM 20.21 68.378 0.433 7.7 35.37 7.6
8/24/2021 1:45:00 AM 20.11 68.198 0.432 7.69 36.54 7.55
8/24/2021 2:00:00 AM 20.01 68.018 0.433 7.69 31.77 7.48
8/24/2021 2:15:00 AM 19.91 67.838 0.434 7.69 32.04 7.58
8/24/2021 2:30:00 AM 19.81 67.658 0.436 7.69 30.15 7.6
8/24/2021 2:45:00 AM 19.7 67.46 0.438 7.69 30.1 7.61
8/24/2021 3:00:00 AM 19.59 67.262 0.441 7.7 29.51 7.64
8/24/2021 3:15:00 AM 19.49 67.082 0.443 7.7 27.77 7.71
8/24/2021 3:30:00 AM 19.37 66.866 0.446 7.71 24.88 7.84
8/24/2021 3:45:00 AM 19.27 66.686 0.449 7.71 24.66 7.87
8/24/2021 4:00:00 AM 19.16 66.488 0.452 7.71 24.92 7.97
8/24/2021 4:15:00 AM 19.05 66.29 0.455 7.72 23.92 7.99
8/24/2021 4:30:00 AM 18.95 66.11 0.457 7.72 23.38 8.02
8/24/2021 4:45:00 AM 18.84 65.912 0.459 7.73 23.84 8.07
8/24/2021 5:00:00 AM 18.74 65.732 0.46 7.73 24.64 8.09
8/24/2021 5:15:00 AM 18.64 65.552 0.461 7.73 24 8.14
8/24/2021 5:30:00 AM 18.55 65.39 0.462 7.73 30.31 8.23
8/24/2021 5:45:00 AM 18.47 65.246 0.462 7.74 20.82 8.31
8/24/2021 6:00:00 AM 18.39 65.102 0.463 7.73 22.34 8.34
8/24/2021 6:15:00 AM 18.31 64.958 0.463 7.73 23.03 8.36
8/24/2021 6:30:00 AM 18.23 64.814 0.463 7.72 20.87 8.38
8/24/2021 6:45:00 AM 18.17 64.706 0.463 7.73 18.47 8.4
8/24/2021 7:00:00 AM 18.11 64.598 0.462 7.73 16.46 8.43
8/24/2021 7:15:00 AM 18.05 64.49 0.461 7.73 14.7 8.48
8/24/2021 7:30:00 AM 18.01 64.418 0.46 7.73 13.44 8.52
8/24/2021 7:45:00 AM 17.97 64.346 0.458 7.75 11.21 8.56
8/24/2021 8:00:00 AM 17.94 64.292 0.457 7.75 10.69 8.55
8/24/2021 8:15:00 AM 17.92 64.256 0.456 7.76 9.39 8.66
8/24/2021 8:30:00 AM 17.91 64.238 0.454 7.76 6.67 8.74
8/24/2021 8:45:00 AM 17.9 64.22 0.453 7.77 6.42 8.81
8/24/2021 9:00:00 AM 17.92 64.256 0.453 7.78 5.28 8.89
8/24/2021 9:15:00 AM 17.94 64.292 0.453 7.79 4.68 8.99
8/24/2021 9:30:00 AM 17.97 64.346 0.453 7.81 3.97 9.1
8/24/2021 9:45:00 AM 18.01 64.418 0.453 7.83 3.83 9.22
8/24/2021 10:00:00 AM 18.08 64.544 0.453 7.84 3.68 9.34
8/24/2021 10:15:00 AM 18.15 64.67 0.454 7.86 3.93 9.39
8/24/2021 10:30:00 AM 18.23 64.814 0.455 7.88 4.09 9.52
8/24/2021 10:45:00 AM 18.32 64.976 0.456 7.91 3.24 9.67
8/24/2021 11:00:00 AM 18.46 65.228 0.457 7.93 3.35 9.89
8/24/2021 11:15:00 AM 18.57 65.426 0.458 7.96 3.37 10.01
8/24/2021 11:30:00 AM 18.62 65.516 0.459 7.98 3.71 10.11
8/24/2021 11:45:00 AM 18.83 65.894 0.46 8.01 2.97 10.28
8/24/2021 12:00:00 PM 18.93 66.074 0.461 8.03 12.7 10.41
8/24/2021 12:15:00 PM 19.13 66.434 0.462 8.07 2.71 10.58
8/24/2021 12:30:00 PM 19.39 66.902 0.463 8.1 3.15 10.69
8/24/2021 12:45:00 PM 19.41 66.938 0.464 8.11 12.38 10.7
8/24/2021 1:00:00 PM 19.68 67.424 0.465 8.14 12.37 10.83
8/24/2021 1:15:00 PM 19.71 67.478 0.467 8.15 3.13 10.76
8/24/2021 1:30:00 PM 20.05 68.09 0.468 8.18 3.02 10.87
8/24/2021 1:45:00 PM 20.2 68.36 0.468 8.2 12.81 10.88
8/24/2021 2:00:00 PM 20.57 69.026 0.469 8.23 2.92 10.97
8/24/2021 2:15:00 PM 20.77 69.386 0.469 8.25 3.07 10.93
8/24/2021 2:30:00 PM 20.95 69.71 0.47 8.26 12.5 10.92
8/24/2021 2:45:00 PM 21.18 70.124 0.47 8.28 2.72 10.85
8/24/2021 3:00:00 PM 21.38 70.484 0.471 8.29 2.74 10.74
8/24/2021 3:15:00 PM 21.57 70.826 0.471 8.3 2.82 10.69
8/24/2021 3:30:00 PM 21.75 71.15 0.472 8.3 2.68 10.55
8/24/2021 3:45:00 PM 21.91 71.438 0.473 8.31 3.29 10.41
8/24/2021 4:00:00 PM 22.07 71.726 0.473 8.3 12.23 10.23
8/24/2021 4:15:00 PM 22.24 72.032 0.474 8.3 3.43 10.02
8/24/2021 4:30:00 PM 22.37 72.266 0.475 8.28 13.13 9.89
8/24/2021 4:45:00 PM 22.48 72.464 0.475 8.27 3.61 9.64
8/24/2021 5:00:00 PM 22.56 72.608 0.477 8.25 3.19 9.33
8/24/2021 5:15:00 PM 22.61 72.698 0.477 8.23 5.04 9.23
8/24/2021 5:30:00 PM 22.64 72.752 0.478 8.21 3.75 9
8/24/2021 5:45:00 PM 22.66 72.788 0.48 8.18 3.63 8.78
8/24/2021 6:00:00 PM 22.66 72.788 0.481 8.15 3.92 8.62
8/24/2021 6:15:00 PM 22.65 72.77 0.482 8.12 4.17 8.44
8/24/2021 6:30:00 PM 22.64 72.752 0.483 8.09 4.14 8.26
8/24/2021 6:45:00 PM 22.62 72.716 0.484 8.07 4.1 8.1
8/24/2021 7:00:00 PM 22.6 72.68 0.485 8.04 24.49 8.04
8/24/2021 7:15:00 PM 22.59 72.662 0.486 8.02 5.28 7.93
8/24/2021 7:30:00 PM 22.57 72.626 0.487 8 4.8 7.82
8/24/2021 7:45:00 PM 22.54 72.57201 0.488 7.98 5.74 7.71
8/24/2021 8:00:00 PM 22.52 72.536 0.476 7.96 5.37 7.62
8/24/2021 8:15:00 PM 22.49 72.482 0.489 7.94 5.93 7.58
8/24/2021 8:30:00 PM 22.47 72.446 0.49 7.93 7.21 7.5
8/24/2021 8:45:00 PM 22.45 72.41 0.49 7.92 8.98 7.49
8/24/2021 9:00:00 PM 22.42 72.356 0.491 7.91 9.58 7.42
8/24/2021 9:15:00 PM 22.39 72.302 0.491 7.9 9.57 7.46
8/24/2021 9:30:00 PM 22.36 72.248 0.492 7.89 10.59 7.41
8/24/2021 9:45:00 PM 22.32 72.176 0.493 7.89 10.69 7.37
8/24/2021 10:00:00 PM 22.28 72.104 0.493 7.88 9.59 7.38
8/24/2021 10:15:00 PM 22.23 72.014 0.494 7.87 9.69 7.39
8/24/2021 10:30:00 PM 22.17 71.906 0.494 7.87 11.24 7.38
8/24/2021 10:45:00 PM 22.11 71.798 0.495 7.86 12.49 7.36
8/24/2021 11:00:00 PM 22.03 71.654 0.496 7.85 12.79 7.35
8/24/2021 11:15:00 PM 21.95 71.51 0.497 7.85 13.08 7.34
8/24/2021 11:30:00 PM 21.85 71.33 0.497 7.84 12.28 7.39
8/24/2021 11:45:00 PM 21.75 71.15 0.497 7.84 13.18 7.42
8/25/2021 12:00:00 AM 21.64 70.952 0.498 7.83 12.84 7.44
8/25/2021 12:15:00 AM 21.53 70.754 0.498 7.83 12.78 7.48
8/25/2021 12:30:00 AM 21.41 70.538 0.498 7.83 12.86 7.54
8/25/2021 12:45:00 AM 21.28 70.304 0.498 7.84 12.56 7.59
8/25/2021 1:00:00 AM 21.16 70.088 0.498 7.84 12.52 7.65
8/25/2021 1:15:00 AM 21.03 69.854 0.498 7.84 13.02 7.68
8/25/2021 1:30:00 AM 20.89 69.602 0.499 7.84 12.91 7.72
8/25/2021 1:45:00 AM 20.75 69.35 0.499 7.84 13.53 7.76
8/25/2021 2:00:00 AM 20.61 69.098 0.5 7.84 13.36 7.78
8/25/2021 2:15:00 AM 20.46 68.828 0.5 7.83 12.09 7.83
8/25/2021 2:30:00 AM 20.31 68.558 0.501 7.83 14 7.89
8/25/2021 2:45:00 AM 20.16 68.288 0.501 7.83 14.5 7.91
8/25/2021 3:00:00 AM 20.01 68.018 0.501 7.83 14.3 7.97
8/25/2021 3:15:00 AM 19.86 67.748 0.502 7.83 14.45 8.01
8/25/2021 3:30:00 AM 19.71 67.478 0.502 7.83 14.15 8.06
8/25/2021 3:45:00 AM 19.56 67.208 0.502 7.83 14.44 8.11
8/25/2021 4:00:00 AM 19.42 66.956 0.502 7.84 13.83 8.16
8/25/2021 4:15:00 AM 19.28 66.704 0.502 7.84 14.71 8.21
8/25/2021 4:30:00 AM 19.15 66.47 0.503 7.83 13.44 8.25
8/25/2021 4:45:00 AM 19.03 66.254 0.503 7.84 13.76 8.29
8/25/2021 5:00:00 AM 18.9 66.02 0.503 7.84 15.54 8.33
8/25/2021 5:15:00 AM 18.78 65.804 0.503 7.84 14.46 8.38
8/25/2021 5:30:00 AM 18.67 65.606 0.503 7.84 14.93 8.39
8/25/2021 5:45:00 AM 18.56 65.408 0.503 7.84 15.57 8.42
8/25/2021 6:00:00 AM 18.45 65.21 0.504 7.84 16.04 8.47
8/25/2021 6:15:00 AM 18.35 65.03 0.504 7.84 15.53 8.45
8/25/2021 6:30:00 AM 18.26 64.868 0.504 7.84 14.5 8.5
8/25/2021 6:45:00 AM 18.17 64.706 0.504 7.85 13.48 8.55
8/25/2021 7:00:00 AM 18.09 64.562 0.505 7.85 11.99 8.61
8/25/2021 7:15:00 AM 18.03 64.454 0.505 7.85 9.78 8.66
8/25/2021 7:30:00 AM 17.97 64.346 0.505 7.86 8.37 8.73
8/25/2021 7:45:00 AM 17.91 64.238 0.505 7.86 7.12 8.81
8/25/2021 8:00:00 AM 17.86 64.148 0.506 7.86 15.81 8.87
8/25/2021 8:15:00 AM 17.81 64.058 0.507 7.87 5.1 8.9
8/25/2021 8:30:00 AM 17.78 64.004 0.507 7.87 14.33 8.99
8/25/2021 8:45:00 AM 17.76 63.968 0.507 7.88 4.44 9.06
8/25/2021 9:00:00 AM 17.75 63.95 0.507 7.88 3.59 9.15
8/25/2021 9:15:00 AM 17.77 63.986 0.507 7.89 3.62 9.17
8/25/2021 9:30:00 AM 17.78 64.004 0.507 7.9 3.28 9.34
8/25/2021 9:45:00 AM 17.82 64.076 0.507 7.91 2.88 9.44
8/25/2021 10:00:00 AM 17.87 64.166 0.507 7.93 2.66 9.58
8/25/2021 10:15:00 AM 17.92 64.256 0.507 7.94 2.53 9.69
8/25/2021 10:30:00 AM 18 64.4 0.507 7.96 2.4 9.77
8/25/2021 10:45:00 AM 18.11 64.598 0.507 7.98 2.21 9.99
8/25/2021 11:00:00 AM 18.23 64.814 0.507 8 2.21 10.07
8/25/2021 11:15:00 AM 18.37 65.066 0.506 8.02 2.03 10.27
8/25/2021 11:30:00 AM 18.52 65.336 0.506 8.04 2.07 10.35
8/25/2021 11:45:00 AM 18.68 65.624 0.506 8.06 12.22 10.48
8/25/2021 12:00:00 PM 18.87 65.966 0.505 8.08 1.92 10.58
8/25/2021 12:15:00 PM 19.08 66.344 0.505 8.11 1.87 10.68
8/25/2021 12:30:00 PM 19.29 66.722 0.505 8.14 1.79 10.74
8/25/2021 12:45:00 PM 19.55 67.19 0.504 8.16 1.72 10.85
8/25/2021 1:00:00 PM 19.77 67.586 0.503 8.18 1.87 10.97
8/25/2021 1:15:00 PM 19.96 67.92799 0.503 8.2 1.84 11
8/25/2021 1:30:00 PM 20.19 68.342 0.502 8.22 1.66 11.09
8/25/2021 1:45:00 PM 20.38 68.684 0.501 8.24 1.71 11.03
8/25/2021 2:00:00 PM 20.59 69.062 0.501 8.26 1.79 11.14
8/25/2021 2:15:00 PM 20.82 69.476 0.5 8.28 1.93 11.2
8/25/2021 2:30:00 PM 21.02 69.836 0.499 8.29 1.84 11.14
8/25/2021 2:45:00 PM 21.2 70.16 0.498 8.3 1.9 10.97
8/25/2021 3:00:00 PM 21.41 70.538 0.497 8.32 2.14 11.01
8/25/2021 3:15:00 PM 21.64 70.952 0.496 8.33 2.08 10.94
8/25/2021 3:30:00 PM 21.83 71.294 0.495 8.34 2.2 10.84
8/25/2021 3:45:00 PM 22 71.6 0.494 8.34 2.46 10.7
8/25/2021 4:00:00 PM 22.16 71.888 0.493 8.34 2.44 10.51
8/25/2021 4:15:00 PM 22.32 72.176 0.493 8.33 2.52 10.32
8/25/2021 4:30:00 PM 22.43 72.374 0.493 8.32 3.03 10.1
8/25/2021 4:45:00 PM 22.54 72.57201 0.494 8.31 3.16 9.85
8/25/2021 5:00:00 PM 22.63 72.734 0.494 8.29 3.46 9.71
8/25/2021 5:15:00 PM 22.66 72.788 0.495 8.26 3.6 9.44
8/25/2021 5:30:00 PM 22.65 72.77 0.496 8.23 3.73 9.15
8/25/2021 5:45:00 PM 22.72 72.896 0.496 8.21 3.65 9.03
8/25/2021 6:00:00 PM 22.73 72.914 0.497 8.18 3.86 8.74
8/25/2021 6:15:00 PM 22.74 72.932 0.498 8.15 3.86 8.63
8/25/2021 6:30:00 PM 22.75 72.95 0.498 8.13 3.8 8.47
8/25/2021 6:45:00 PM 22.75 72.95 0.499 8.1 4.09 8.25
8/25/2021 7:00:00 PM 22.73 72.914 0.499 8.06 3.97 8.09
8/25/2021 7:15:00 PM 22.72 72.896 0.501 8.03 4.36 7.97
8/25/2021 7:30:00 PM 22.71 72.878 0.502 8.01 4.74 7.86
8/25/2021 7:45:00 PM 22.71 72.878 0.502 7.98 5.08 7.73
8/25/2021 8:00:00 PM 22.71 72.878 0.503 7.95 5.43 7.62
8/25/2021 8:15:00 PM 22.71 72.878 0.504 7.92 6.38 7.52
8/25/2021 8:30:00 PM 22.7 72.86 0.504 7.91 7.31 7.42
8/25/2021 8:45:00 PM 22.7 72.86 0.505 7.89 7.65 7.38
8/25/2021 9:00:00 PM 22.7 72.86 0.505 7.88 8.12 7.33
8/25/2021 9:15:00 PM 22.69 72.842 0.506 7.87 8.17 7.28
8/25/2021 9:30:00 PM 22.69 72.842 0.507 7.86 9.17 7.22
8/25/2021 9:45:00 PM 22.67 72.806 0.507 7.84 9.16 7.18
8/25/2021 10:00:00 PM 22.66 72.788 0.508 7.82 10.36 7.11
8/25/2021 10:15:00 PM 22.64 72.752 0.509 7.81 10.25 7.07
8/25/2021 10:30:00 PM 22.61 72.698 0.509 7.81 598.92 7.05
8/25/2021 10:45:00 PM 22.57 72.626 0.509 7.81 13.89 7.07
8/25/2021 11:00:00 PM 22.53 72.554 0.509 7.81 12.23 7.08
8/25/2021 11:15:00 PM 22.47 72.446 0.509 7.81 12.45 7.14
8/25/2021 11:30:00 PM 22.41 72.338 0.508 7.81 12.4 7.18
8/25/2021 11:45:00 PM 22.34 72.212 0.508 7.82 11.35 7.23
8/26/2021 12:00:00 AM 22.26 72.068 0.508 7.82 11.8 7.28
8/26/2021 12:15:00 AM 22.16 71.888 0.508 7.82 14.59 7.32
8/26/2021 12:30:00 AM 22.07 71.726 0.508 7.83 14.17 7.37
8/26/2021 12:45:00 AM 21.97 71.546 0.508 7.83 14.78 7.37
8/26/2021 1:00:00 AM 21.86 71.348 0.508 7.84 11.93 7.42
8/26/2021 1:15:00 AM 21.75 71.15 0.508 7.84 11.82 7.45
8/26/2021 1:30:00 AM 21.63 70.934 0.509 7.84 12.34 7.57
8/26/2021 1:45:00 AM 21.51 70.718 0.509 7.84 11.99 7.47
8/26/2021 2:00:00 AM 21.38 70.484 0.509 7.85 11.49 7.59
8/26/2021 2:15:00 AM 21.26 70.268 0.509 7.84 12.02 7.67
8/26/2021 2:30:00 AM 21.12 70.016 0.509 7.85 11.54 7.69
8/26/2021 2:45:00 AM 20.99 69.782 0.51 7.84 12.18 7.73
8/26/2021 3:00:00 AM 20.85 69.53 0.51 7.84 12.23 7.83
8/26/2021 3:15:00 AM 20.7 69.26 0.51 7.84 13.39 7.86
8/26/2021 3:30:00 AM 20.55 68.99 0.511 7.84 16.15 7.91
8/26/2021 3:45:00 AM 20.41 68.738 0.511 7.84 15.07 7.94
8/26/2021 4:00:00 AM 20.26 68.468 0.512 7.84 13.43 7.97
8/26/2021 4:15:00 AM 20.12 68.216 0.512 7.84 13.14 8.02
8/26/2021 4:30:00 AM 19.98 67.964 0.512 7.83 13.5 8.05
8/26/2021 4:45:00 AM 19.85 67.73 0.512 7.83 14.03 8.06
8/26/2021 5:00:00 AM 19.72 67.496 0.513 7.83 14.67 8.12
8/26/2021 5:15:00 AM 19.59 67.262 0.513 7.83 30.04 8.15
8/26/2021 5:30:00 AM 19.48 67.064 0.513 7.84 13.96 8.18
8/26/2021 5:45:00 AM 19.37 66.866 0.513 7.83 12.98 8.2
8/26/2021 6:00:00 AM 19.26 66.668 0.513 7.84 12.95 8.26
8/26/2021 6:15:00 AM 19.16 66.488 0.513 7.84 12.36 8.28
8/26/2021 6:30:00 AM 19.06 66.308 0.513 7.84 11.68 8.33
8/26/2021 6:45:00 AM 18.97 66.146 0.513 7.84 10.15 8.36
8/26/2021 7:00:00 AM 18.88 65.984 0.513 7.84 9.18 8.41
8/26/2021 7:15:00 AM 18.79 65.82201 0.514 7.84 8.27 8.45
8/26/2021 7:30:00 AM 18.71 65.67799 0.514 7.84 6.98 8.51
8/26/2021 7:45:00 AM 18.64 65.552 0.514 7.84 6.16 8.54
8/26/2021 8:00:00 AM 18.57 65.426 0.514 7.85 5.35 8.6
8/26/2021 8:15:00 AM 18.52 65.336 0.514 7.85 4.35 8.67
8/26/2021 8:30:00 AM 18.47 65.246 0.514 7.85 3.7 8.74
8/26/2021 8:45:00 AM 18.43 65.174 0.515 7.86 3.03 8.82
8/26/2021 9:00:00 AM 18.41 65.138 0.515 7.87 2.89 8.91
8/26/2021 9:15:00 AM 18.4 65.12 0.515 7.87 2.51 9.03
8/26/2021 9:30:00 AM 18.4 65.12 0.515 7.88 2.34 9.13
8/26/2021 9:45:00 AM 18.44 65.192 0.515 7.89 2.41 9.29
8/26/2021 10:00:00 AM 18.48 65.264 0.514 7.91 2.02 9.43
8/26/2021 10:15:00 AM 18.54 65.372 0.514 7.92 2.13 9.57
8/26/2021 10:30:00 AM 18.61 65.498 0.514 7.95 2.31 9.7
8/26/2021 10:45:00 AM 18.7 65.66 0.514 7.96 10.45 9.83
8/26/2021 11:00:00 AM 18.81 65.858 0.513 7.99 2.06 9.97
8/26/2021 11:15:00 AM 18.95 66.11 0.513 8.01 1.84 10.11
8/26/2021 11:30:00 AM 19.1 66.38 0.512 8.03 9.79 10.23
8/26/2021 11:45:00 AM 19.25 66.65 0.512 8.06 1.72 10.36
8/26/2021 12:00:00 PM 19.44 66.992 0.511 8.09 1.9 10.5
8/26/2021 12:15:00 PM 19.64 67.352 0.51 8.11 1.7 10.63
8/26/2021 12:30:00 PM 19.87 67.766 0.51 8.14 1.7 10.74
8/26/2021 12:45:00 PM 20.06 68.108 0.509 8.16 2.14 10.85
8/26/2021 1:00:00 PM 20.29 68.522 0.509 8.18 2.44 10.93
8/26/2021 1:15:00 PM 20.47 68.846 0.508 8.2 2.11 10.97
8/26/2021 1:30:00 PM 20.67 69.206 0.507 8.22 1.56 11.05
8/26/2021 1:45:00 PM 20.84 69.512 0.506 8.24 1.68 11.09
8/26/2021 2:00:00 PM 21.03 69.854 0.505 8.26 1.64 11.12
8/26/2021 2:15:00 PM 21.21 70.17799 0.504 8.28 1.76 11.11
8/26/2021 2:30:00 PM 21.39 70.502 0.503 8.29 1.73 11.08
8/26/2021 2:45:00 PM 21.56 70.808 0.501 8.3 3.6 10.98
8/26/2021 3:00:00 PM 21.74 71.132 0.5 8.31 2.11 10.94
8/26/2021 3:15:00 PM 21.92 71.456 0.499 8.33 1.76 10.83
8/26/2021 3:30:00 PM 22.1 71.78 0.498 8.33 2.15 10.71
8/26/2021 3:45:00 PM 22.25 72.05 0.497 8.34 1.59 10.56
8/26/2021 4:00:00 PM 22.39 72.302 0.497 8.34 1.89 10.41
8/26/2021 4:15:00 PM 22.53 72.554 0.496 8.33 2.01 10.26
8/26/2021 4:30:00 PM 22.66 72.788 0.496 8.33 2.24 10.11
8/26/2021 4:45:00 PM 22.75 72.95 0.496 8.31 2.05 9.91
8/26/2021 5:00:00 PM 22.81 73.058 0.497 8.29 2.18 9.67
8/26/2021 5:15:00 PM 22.85 73.13 0.498 8.27 2.42 9.48
8/26/2021 5:30:00 PM 22.88 73.184 0.498 8.25 2.51 9.27
8/26/2021 5:45:00 PM 22.92 73.256 0.499 8.23 2.62 8.97
8/26/2021 6:00:00 PM 22.94 73.292 0.499 8.2 2.81 8.83
8/26/2021 6:15:00 PM 22.95 73.31 0.5 8.17 3.27 8.64
8/26/2021 6:30:00 PM 22.95 73.31 0.501 8.13 10.53 8.47
8/26/2021 6:45:00 PM 22.95 73.31 0.502 8.1 2.92 8.22
8/26/2021 7:00:00 PM 22.95 73.31 0.503 8.07 3.34 8.13
8/26/2021 7:15:00 PM 22.95 73.31 0.504 8.04 3.49 7.99
8/26/2021 7:30:00 PM 22.95 73.31 0.505 8.01 3.55 7.84
8/26/2021 7:45:00 PM 22.94 73.292 0.506 7.98 11.8 7.72
8/26/2021 8:00:00 PM 22.94 73.292 0.506 7.95 5.07 7.61
8/26/2021 8:15:00 PM 22.94 73.292 0.507 7.93 5.86 7.52
8/26/2021 8:30:00 PM 22.94 73.292 0.507 7.91 5.86 7.44
8/26/2021 8:45:00 PM 22.95 73.31 0.508 7.88 6.28 7.28
8/26/2021 9:00:00 PM 22.97 73.346 0.508 7.87 6.98 7.34
8/26/2021 9:15:00 PM 22.97 73.346 0.508 7.85 6.81 7.16
8/26/2021 9:30:00 PM 22.98 73.364 0.509 7.84 8.01 7.2
8/26/2021 9:45:00 PM 22.98 73.364 0.509 7.83 8.11 7.22
8/26/2021 10:00:00 PM 22.98 73.364 0.51 7.83 8.41 7.2
8/26/2021 10:15:00 PM 22.97 73.346 0.511 7.82 8.15 7.18
8/26/2021 10:30:00 PM 22.95 73.31 0.511 7.82 8.69 7.18
8/26/2021 10:45:00 PM 22.92 73.256 0.511 7.82 9.23 7.17
8/26/2021 11:00:00 PM 22.89 73.202 0.511 7.81 9.28 7.18
8/26/2021 11:15:00 PM 22.84 73.112 0.511 7.82 10.28 7.18
8/26/2021 11:30:00 PM 22.79 73.022 0.512 7.81 9.62 7.2
8/26/2021 11:45:00 PM 22.73 72.914 0.512 7.81 10.83 7.21
8/27/2021 12:00:00 AM 22.66 72.788 0.513 7.81 9.54 7.22
8/27/2021 12:15:00 AM 22.58 72.644 0.513 7.81 10.34 7.22
8/27/2021 12:30:00 AM 22.49 72.482 0.513 7.81 11.06 7.17
8/27/2021 12:45:00 AM 22.4 72.32 0.513 7.81 11.05 7.25
8/27/2021 1:00:00 AM 22.29 72.122 0.514 7.81 11.1 7.24
8/27/2021 1:15:00 AM 22.19 71.942 0.514 7.81 11.42 7.32
8/27/2021 1:30:00 AM 22.07 71.726 0.514 7.81 11.89 7.34
8/27/2021 1:45:00 AM 21.96 71.528 0.515 7.81 12.34 7.35
8/27/2021 2:00:00 AM 21.83 71.294 0.515 7.81 12.18 7.36
8/27/2021 2:15:00 AM 21.7 71.06 0.515 7.81 11.45 7.39
8/27/2021 2:30:00 AM 21.57 70.826 0.515 7.81 10.93 7.49
8/27/2021 2:45:00 AM 21.43 70.574 0.515 7.81 11.12 7.57
8/27/2021 3:00:00 AM 21.28 70.304 0.515 7.81 12.69 7.59
8/27/2021 3:15:00 AM 21.13 70.034 0.515 7.81 11.93 7.68
8/27/2021 3:30:00 AM 20.99 69.782 0.515 7.81 11.69 7.76
8/27/2021 3:45:00 AM 20.84 69.512 0.515 7.82 12.76 7.8
8/27/2021 4:00:00 AM 20.69 69.242 0.516 7.82 12.41 7.83
8/27/2021 4:15:00 AM 20.55 68.99 0.516 7.82 12.22 7.89
8/27/2021 4:30:00 AM 20.41 68.738 0.516 7.82 12.36 7.94
8/27/2021 4:45:00 AM 20.27 68.486 0.516 7.81 11.28 7.98
8/27/2021 5:00:00 AM 20.13 68.234 0.516 7.82 11.67 8.01
8/27/2021 5:15:00 AM 20 68 0.517 7.82 11.1 8.05
8/27/2021 5:30:00 AM 19.88 67.784 0.517 7.81 10.97 8.07
8/27/2021 5:45:00 AM 19.76 67.568 0.517 7.82 12.37 8.08
8/27/2021 6:00:00 AM 19.65 67.37 0.517 7.82 12.54 8.1
8/27/2021 6:15:00 AM 19.54 67.172 0.517 7.82 14.05 8.16
8/27/2021 6:30:00 AM 19.44 66.992 0.517 7.82 11.44 8.17
8/27/2021 6:45:00 AM 19.34 66.812 0.517 7.82 10.71 8.23
8/27/2021 7:00:00 AM 19.26 66.668 0.517 7.82 9.69 8.22
8/27/2021 7:15:00 AM 19.18 66.524 0.517 7.83 8.08 8.32
8/27/2021 7:30:00 AM 19.12 66.416 0.517 7.83 6.68 8.37
8/27/2021 7:45:00 AM 19.07 66.326 0.517 7.84 6.66 8.52
8/27/2021 8:00:00 AM 19.02 66.236 0.517 7.85 5.24 8.59
8/27/2021 8:15:00 AM 18.99 66.182 0.517 7.85 4.17 8.74
8/27/2021 8:30:00 AM 18.93 66.074 0.518 7.85 3.92 8.77
8/27/2021 8:45:00 AM 18.89 66.002 0.518 7.86 3.17 8.86
8/27/2021 9:00:00 AM 18.87 65.966 0.518 7.87 2.63 8.98
8/27/2021 9:15:00 AM 18.88 65.984 0.518 7.88 11.25 9.16
8/27/2021 9:30:00 AM 18.96 66.128 0.518 7.91 2.42 9.44
8/27/2021 9:45:00 AM 19.02 66.236 0.517 7.94 2.26 9.73
8/27/2021 10:00:00 AM 19.03 66.254 0.517 7.96 2.34 9.82
8/27/2021 10:15:00 AM 19.04 66.272 0.517 7.98 2.09 9.86
8/27/2021 10:30:00 AM 19 66.2 0.517 7.98 2.21 9.79
8/27/2021 10:45:00 AM 18.95 66.11 0.517 7.98 1.93 9.79
8/27/2021 11:00:00 AM 18.94 66.092 0.517 7.98 2 9.79
8/27/2021 11:15:00 AM 18.94 66.092 0.517 7.99 2.05 9.93
8/27/2021 11:30:00 AM 18.99 66.182 0.516 8.02 1.82 10.16
8/27/2021 11:45:00 AM 19.12 66.416 0.515 8.06 1.88 10.51
8/27/2021 12:00:00 PM 19.34 66.812 0.514 8.1 1.64 10.74
8/27/2021 12:15:00 PM 19.41 66.938 0.513 8.14 1.6 10.95
8/27/2021 12:30:00 PM 19.49 67.082 0.512 8.16 9.79 11.09
8/27/2021 12:45:00 PM 19.54 67.172 0.511 8.19 1.63 11.13
8/27/2021 1:00:00 PM 19.75 67.55 0.51 8.22 1.64 11.37
8/27/2021 1:15:00 PM 20.01 68.018 0.509 8.23 9.49 11.51
8/27/2021 1:30:00 PM 20.07 68.126 0.508 8.26 1.56 11.44
8/27/2021 1:45:00 PM 20.12 68.216 0.507 8.27 1.63 11.43
8/27/2021 2:00:00 PM 20.39 68.702 0.506 8.29 1.66 11.52
8/27/2021 2:15:00 PM 20.64 69.152 0.505 8.31 1.78 11.55
8/27/2021 2:30:00 PM 20.86 69.548 0.504 8.33 1.71 11.48
8/27/2021 2:45:00 PM 20.91 69.638 0.504 8.32 1.95 11.25
8/27/2021 3:00:00 PM 21.16 70.088 0.502 8.33 1.82 11.26
8/27/2021 3:15:00 PM 21.25 70.25 0.502 8.33 2.05 11.13
8/27/2021 3:30:00 PM 21.41 70.538 0.501 8.34 2.01 11.1
8/27/2021 3:45:00 PM 21.52 70.736 0.499 8.35 2.35 10.97
8/27/2021 4:00:00 PM 21.61 70.898 0.499 8.35 2.08 10.84
8/27/2021 4:15:00 PM 21.71 71.078 0.498 8.35 2.04 10.68
8/27/2021 4:30:00 PM 21.81 71.258 0.497 8.35 2.14 10.52
8/27/2021 4:45:00 PM 21.85 71.33 0.497 8.34 2.16 10.31
8/27/2021 5:00:00 PM 21.89 71.402 0.498 8.32 2.26 10.05
8/27/2021 5:15:00 PM 21.86 71.348 0.499 8.28 2.24 9.77
8/27/2021 5:30:00 PM 21.82 71.276 0.501 8.25 2.67 9.4
8/27/2021 5:45:00 PM 21.78 71.204 0.503 8.21 2.8 9.09
8/27/2021 6:00:00 PM 21.73 71.114 0.504 8.17 11.34 8.88
8/27/2021 6:15:00 PM 21.67 71.006 0.505 8.15 3.25 8.63
8/27/2021 6:30:00 PM 21.62 70.916 0.506 8.12 3.02 8.44
8/27/2021 6:45:00 PM 21.57 70.826 0.507 8.09 3.54 8.24
8/27/2021 7:00:00 PM 21.53 70.754 0.508 8.06 3.92 8.07
8/27/2021 7:15:00 PM 21.48 70.664 0.509 8.04 3.77 7.9
8/27/2021 7:30:00 PM 21.44 70.592 0.508 8.01 4.11 7.88
8/27/2021 7:45:00 PM 21.4 70.52 0.507 7.99 4.79 7.93
8/27/2021 8:00:00 PM 21.38 70.484 0.506 7.97 5.41 7.75
8/27/2021 8:15:00 PM 21.37 70.466 0.507 7.95 5.64 7.7
8/27/2021 8:30:00 PM 21.38 70.484 0.508 7.93 6.31 7.54
8/27/2021 8:45:00 PM 21.4 70.52 0.508 7.92 7.2 7.48
8/27/2021 9:00:00 PM 21.42 70.556 0.508 7.9 7.45 7.46
8/27/2021 9:15:00 PM 21.46 70.628 0.508 7.88 15.74 7.51
8/27/2021 9:30:00 PM 21.5 70.7 0.509 7.87 12.06 7.45
8/27/2021 9:45:00 PM 21.54 70.772 0.51 7.86 11.42 7.38
8/27/2021 10:00:00 PM 21.58 70.844 0.511 7.85 11.56 7.38
8/27/2021 10:15:00 PM 21.6 70.88 0.514 7.84 11.99 7.26
8/27/2021 10:30:00 PM 21.61 70.898 0.517 7.83 14 7.34
8/27/2021 10:45:00 PM 21.59 70.862 0.519 7.83 14.72 7.3
8/27/2021 11:00:00 PM 21.57 70.826 0.522 7.82 20.95 7.32
8/27/2021 11:15:00 PM 21.51 70.718 0.524 7.82 23.22 7.33
8/27/2021 11:30:00 PM 21.43 70.574 0.526 7.82 24.03 7.36
8/27/2021 11:45:00 PM 21.32 70.376 0.527 7.82 22.33 7.33
8/28/2021 12:00:00 AM 21.18 70.124 0.527 7.82 19.29 7.41
8/28/2021 12:15:00 AM 21.03 69.854 0.526 7.83 18.17 7.53
8/28/2021 12:30:00 AM 20.87 69.566 0.524 7.83 19.06 7.69
8/28/2021 12:45:00 AM 20.7 69.26 0.522 7.83 18.42 7.8
8/28/2021 1:00:00 AM 20.53 68.954 0.518 7.83 16.92 7.87
8/28/2021 1:15:00 AM 20.38 68.684 0.509 7.82 18.76 7.91
8/28/2021 1:30:00 AM 20.26 68.468 0.488 7.82 25.05 7.97
8/28/2021 1:45:00 AM 20.17 68.306 0.461 7.8 36.45 7.97
8/28/2021 2:00:00 AM 20.11 68.198 0.433 7.76 56.67 7.93
8/28/2021 2:15:00 AM 20.09 68.162 0.399 7.7 109.51 7.89
8/28/2021 2:30:00 AM 20.07 68.126 0.373 7.64 161.85 7.82
8/28/2021 2:45:00 AM 20.04 68.07201 0.355 7.58 147.51 7.74
8/28/2021 3:00:00 AM 20.02 68.036 0.34 7.54 157.19 7.71
8/28/2021 3:15:00 AM 19.99 67.982 0.329 7.5 187.04 7.66
8/28/2021 3:30:00 AM 19.97 67.946 0.32 7.48 138.32 7.59
8/28/2021 3:45:00 AM 19.95 67.91 0.319 7.47 146.04 7.56
8/28/2021 4:00:00 AM 19.89 67.802 0.326 7.46 140.85 7.59
8/28/2021 4:15:00 AM 19.81 67.658 0.339 7.48 158.04 7.61
8/28/2021 4:30:00 AM 19.69 67.442 0.358 7.49 137.57 7.69
8/28/2021 4:45:00 AM 19.57 67.226 0.374 7.51 130.73 7.77
8/28/2021 5:00:00 AM 19.47 67.046 0.38 7.53 130 7.82
8/28/2021 5:15:00 AM 19.42 66.956 0.378 7.53 125.19 7.83
8/28/2021 5:30:00 AM 19.41 66.938 0.374 7.52 134.11 7.77
8/28/2021 5:45:00 AM 19.47 67.046 0.366 7.51 141.65 7.65
8/28/2021 6:00:00 AM 19.57 67.226 0.354 7.48 150.9 7.42
8/28/2021 6:15:00 AM 19.67 67.406 0.34 7.46 150.51 7.22
8/28/2021 6:30:00 AM 19.78 67.604 0.331 7.44 141.45 7.03
8/28/2021 6:45:00 AM 19.86 67.748 0.326 7.42 129.06 6.93
8/28/2021 7:00:00 AM 19.9 67.82 0.326 7.42 117.26 6.91
8/28/2021 7:15:00 AM 19.91 67.838 0.328 7.42 107.3 7
8/28/2021 7:30:00 AM 19.9 67.82 0.331 7.42 97.28 7.06
8/28/2021 7:45:00 AM 19.87 67.766 0.335 7.43 92.29 7.17
8/28/2021 8:00:00 AM 19.83 67.694 0.338 7.44 86.58 7.33
8/28/2021 8:15:00 AM 19.8 67.64 0.34 7.46 78.28 7.42
8/28/2021 8:30:00 AM 19.77 67.586 0.34 7.47 71.78 7.52
8/28/2021 8:45:00 AM 19.74 67.532 0.339 7.47 62.74 7.63
8/28/2021 9:00:00 AM 19.73 67.514 0.34 7.48 61.21 7.65
8/28/2021 9:15:00 AM 19.74 67.532 0.341 7.49 53.36 7.75
8/28/2021 9:30:00 AM 19.75 67.55 0.342 7.5 46.52 7.71
8/28/2021 9:45:00 AM 19.78 67.604 0.342 7.51 42.52 7.84
8/28/2021 10:00:00 AM 19.83 67.694 0.34 7.52 41.07 7.92
8/28/2021 10:15:00 AM 19.87 67.766 0.337 7.53 36.48 7.98
8/28/2021 10:30:00 AM 19.92 67.856 0.335 7.53 33.33 8.04
8/28/2021 10:45:00 AM 19.95 67.91 0.333 7.54 30.73 8.05
8/28/2021 11:00:00 AM 19.97 67.946 0.332 7.54 26.02 8.11
8/28/2021 11:15:00 AM 19.98 67.964 0.331 7.54 25.82 8.05
8/28/2021 11:30:00 AM 19.97 67.946 0.331 7.55 23.59 8
8/28/2021 11:45:00 AM 19.97 67.946 0.331 7.55 23.15 8.08
8/28/2021 12:00:00 PM 19.97 67.946 0.332 7.55 22.28 8.06
8/28/2021 12:15:00 PM 19.98 67.964 0.333 7.55 21.25 8.12
8/28/2021 12:30:00 PM 19.99 67.982 0.334 7.57 20.64 8.11
8/28/2021 12:45:00 PM 20.01 68.018 0.335 7.58 20.88 8.15
8/28/2021 1:00:00 PM 20.04 68.07201 0.336 7.58 20.64 8.25
8/28/2021 1:15:00 PM 20.07 68.126 0.338 7.6 18.33 8.33
8/28/2021 1:30:00 PM 20.11 68.198 0.339 7.61 16.59 8.35
8/28/2021 1:45:00 PM 20.15 68.27 0.342 7.63 16.59 8.45
8/28/2021 2:00:00 PM 20.24 68.432 0.344 7.65 15 8.58
8/28/2021 2:15:00 PM 20.26 68.468 0.346 7.67 14.6 8.66
8/28/2021 2:30:00 PM 20.31 68.558 0.348 7.68 14.81 8.69
8/28/2021 2:45:00 PM 20.36 68.648 0.351 7.7 13.43 8.75
8/28/2021 3:00:00 PM 20.38 68.684 0.354 7.71 12.48 8.75
8/28/2021 3:15:00 PM 20.42 68.756 0.357 7.72 12.91 8.72
8/28/2021 3:30:00 PM 20.47 68.846 0.36 7.74 11.94 8.75
8/28/2021 3:45:00 PM 20.48 68.864 0.363 7.74 11.85 8.72
8/28/2021 4:00:00 PM 20.49 68.882 0.366 7.75 12.16 8.62
8/28/2021 4:15:00 PM 20.51 68.918 0.369 7.75 11.78 8.59
8/28/2021 4:30:00 PM 20.52 68.936 0.373 7.76 12.39 8.49
8/28/2021 4:45:00 PM 20.52 68.936 0.376 7.76 11.23 8.56
8/28/2021 5:00:00 PM 20.5 68.9 0.379 7.76 11.94 8.5
8/28/2021 5:15:00 PM 20.48 68.864 0.382 7.76 10.72 8.41
8/28/2021 5:30:00 PM 20.46 68.828 0.386 7.76 11.28 8.34
8/28/2021 5:45:00 PM 20.43 68.774 0.389 7.75 11.12 8.3
8/28/2021 6:00:00 PM 20.39 68.702 0.393 7.75 11.09 8.39
8/28/2021 6:15:00 PM 20.37 68.666 0.397 7.75 10.85 8.33
8/28/2021 6:30:00 PM 20.35 68.63 0.4 7.75 10.49 8.23
8/28/2021 6:45:00 PM 20.32 68.576 0.404 7.75 11.01 8.31
8/28/2021 7:00:00 PM 20.3 68.54 0.408 7.74 11.71 8.26
8/28/2021 7:15:00 PM 20.27 68.486 0.411 7.75 10.68 7.94
8/28/2021 7:30:00 PM 20.25 68.45 0.415 7.75 10.06 8.15
8/28/2021 7:45:00 PM 20.23 68.414 0.418 7.75 11.54 8.15
8/28/2021 8:00:00 PM 20.21 68.378 0.421 7.74 12.85 8.05
8/28/2021 8:15:00 PM 20.2 68.36 0.424 7.75 13.05 8.07
8/28/2021 8:30:00 PM 20.19 68.342 0.427 7.75 15.06 8.03
8/28/2021 8:45:00 PM 20.18 68.324 0.43 7.75 14.6 8.04
8/28/2021 9:00:00 PM 20.17 68.306 0.433 7.75 15.26 7.84
8/28/2021 9:15:00 PM 20.15 68.27 0.436 7.75 18.45 8.02
8/28/2021 9:30:00 PM 20.12 68.216 0.438 7.74 17.11 8.04
8/28/2021 9:45:00 PM 20.09 68.162 0.441 7.75 16.11 7.98
8/28/2021 10:00:00 PM 20.05 68.09 0.443 7.76 15.93 7.76
8/28/2021 10:15:00 PM 19.99 67.982 0.445 7.76 19.46 7.73
8/28/2021 10:30:00 PM 19.93 67.874 0.447 7.76 19.19 7.68
8/28/2021 10:45:00 PM 19.86 67.748 0.45 7.76 21.67 8.06
8/28/2021 11:00:00 PM 19.79 67.622 0.453 7.77 20.42 8.03
8/28/2021 11:15:00 PM 19.71 67.478 0.456 7.77 25.75 8.12
8/28/2021 11:30:00 PM 19.63 67.334 0.459 7.77 27.34 8.06
8/28/2021 11:45:00 PM 19.55 67.19 0.461 7.77 17.8 8.2
8/29/2021 12:00:00 AM 19.47 67.046 0.463 7.78 24.55 8.05
8/29/2021 12:15:00 AM 19.39 66.902 0.464 7.78 23.51 8.18
8/29/2021 12:30:00 AM 19.31 66.758 0.465 7.79 21.2 8.08
8/29/2021 12:45:00 AM 19.22 66.596 0.466 7.79 20.15 8.16
8/29/2021 1:00:00 AM 19.14 66.452 0.467 7.79 19.04 8.27
8/29/2021 1:15:00 AM 19.05 66.29 0.469 7.79 20.23 8.24
8/29/2021 1:30:00 AM 18.96 66.128 0.47 7.79 17.58 8.26
8/29/2021 1:45:00 AM 18.88 65.984 0.471 7.79 22.55 8.31
8/29/2021 2:00:00 AM 18.8 65.84 0.472 7.8 19.02 8.2
8/29/2021 2:15:00 AM 18.72 65.696 0.472 7.79 20.98 8.38
8/29/2021 2:30:00 AM 18.64 65.552 0.473 7.8 19.83 8.45
8/29/2021 2:45:00 AM 18.57 65.426 0.472 7.8 20.35 8.49
8/29/2021 3:00:00 AM 18.49 65.282 0.472 7.8 20 8.52
8/29/2021 3:15:00 AM 18.43 65.174 0.471 7.8 20.76 8.35
8/29/2021 3:30:00 AM 18.37 65.066 0.469 7.8 20.88 8.39
8/29/2021 3:45:00 AM 18.32 64.976 0.467 7.79 19.59 8.48
8/29/2021 4:00:00 AM 18.27 64.886 0.467 7.79 19.07 8.47
8/29/2021 4:15:00 AM 18.23 64.814 0.467 7.79 17.82 8.51
8/29/2021 4:30:00 AM 18.19 64.742 0.467 7.79 19.77 8.57
8/29/2021 4:45:00 AM 18.15 64.67 0.469 7.79 17.93 8.5
8/29/2021 5:00:00 AM 18.11 64.598 0.47 7.79 18.18 8.58
8/29/2021 5:15:00 AM 18.07 64.526 0.472 7.79 18 8.59
8/29/2021 5:30:00 AM 18.02 64.436 0.474 7.79 18.82 8.62
8/29/2021 5:45:00 AM 17.98 64.364 0.476 7.8 18.96 8.64
8/29/2021 6:00:00 AM 17.93 64.274 0.478 7.8 19.94 8.64
8/29/2021 6:15:00 AM 17.89 64.202 0.479 7.79 18.45 8.68
8/29/2021 6:30:00 AM 17.84 64.112 0.481 7.8 17.92 8.68
8/29/2021 6:45:00 AM 17.79 64.022 0.481 7.8 16.62 8.7
8/29/2021 7:00:00 AM 17.75 63.95 0.482 7.8 16.6 8.67
8/29/2021 7:15:00 AM 17.7 63.86 0.483 7.8 13.08 8.53
8/29/2021 7:30:00 AM 17.66 63.788 0.484 7.8 11.57 8.68
8/29/2021 7:45:00 AM 17.63 63.734 0.484 7.81 9.6 8.67
8/29/2021 8:00:00 AM 17.59 63.662 0.485 7.81 7.22 8.84
8/29/2021 8:15:00 AM 17.56 63.608 0.485 7.81 6.11 8.87
8/29/2021 8:30:00 AM 17.54 63.572 0.486 7.82 5.96 8.93
8/29/2021 8:45:00 AM 17.52 63.536 0.486 7.83 4.4 8.97
8/29/2021 9:00:00 AM 17.51 63.518 0.487 7.83 15.96 9.1
8/29/2021 9:15:00 AM 17.5 63.5 0.487 7.84 13.87 9.2
8/29/2021 9:30:00 AM 17.51 63.518 0.487 7.85 15.26 9.31
8/29/2021 9:45:00 AM 17.51 63.518 0.487 7.87 13.93 9.44
8/29/2021 10:00:00 AM 17.52 63.536 0.487 7.88 13.96 9.54
8/29/2021 10:15:00 AM 17.54 63.572 0.487 7.9 3.37 9.65
8/29/2021 10:30:00 AM 17.61 63.698 0.487 7.93 3.39 9.89
8/29/2021 10:45:00 AM 17.64 63.752 0.487 7.96 2.78 9.96
8/29/2021 11:00:00 AM 17.71 63.878 0.487 7.98 14.12 10.2
8/29/2021 11:15:00 AM 17.76 63.968 0.486 8.01 2.62 10.25
8/29/2021 11:30:00 AM 17.83 64.094 0.486 8.03 2.69 10.42
8/29/2021 11:45:00 AM 17.98 64.364 0.486 8.07 2.32 10.68
8/29/2021 12:00:00 PM 18.13 64.634 0.486 8.09 3.33 10.77
8/29/2021 12:15:00 PM 18.25 64.85 0.485 8.12 2.4 10.73
8/29/2021 12:30:00 PM 18.47 65.246 0.485 8.14 2.08 10.87
8/29/2021 12:45:00 PM 18.58 65.444 0.484 8.16 2.61 11.01
8/29/2021 1:00:00 PM 18.75 65.75 0.484 8.19 2.21 10.92
8/29/2021 1:15:00 PM 18.7 65.66 0.485 8.19 13.67 11.1
8/29/2021 1:30:00 PM 18.8 65.84 0.484 8.21 2.59 10.98
8/29/2021 1:45:00 PM 18.82 65.876 0.484 8.22 2.15 10.95
8/29/2021 2:00:00 PM 18.87 65.966 0.484 8.22 13.24 11.02
8/29/2021 2:15:00 PM 18.94 66.092 0.483 8.23 2.18 10.97
8/29/2021 2:30:00 PM 19.08 66.344 0.483 8.25 2.07 11.09
8/29/2021 2:45:00 PM 19.28 66.704 0.482 8.27 2.06 11.13
8/29/2021 3:00:00 PM 19.53 67.154 0.482 8.29 2.07 11.05
8/29/2021 3:15:00 PM 19.73 67.514 0.481 8.29 2.08 10.95
8/29/2021 3:30:00 PM 19.85 67.73 0.481 8.29 2.14 10.86
8/29/2021 3:45:00 PM 19.99 67.982 0.481 8.29 2.14 10.82
8/29/2021 4:00:00 PM 20 68 0.481 8.29 2.16 10.69
8/29/2021 4:15:00 PM 19.95 67.91 0.481 8.27 2.21 10.54
8/29/2021 4:30:00 PM 19.96 67.92799 0.481 8.26 2.75 10.45
8/29/2021 4:45:00 PM 20.02 68.036 0.481 8.26 2.38 10.42
8/29/2021 5:00:00 PM 20.09 68.162 0.481 8.25 3.78 10.27
8/29/2021 5:15:00 PM 20.13 68.234 0.482 8.24 2.69 10.06
8/29/2021 5:30:00 PM 20.14 68.252 0.482 8.21 13.19 9.83
8/29/2021 5:45:00 PM 20.18 68.324 0.482 8.19 2.54 9.64
8/29/2021 6:00:00 PM 20.24 68.432 0.483 8.17 2.94 9.43
8/29/2021 6:15:00 PM 20.29 68.522 0.484 8.13 3.02 9.2
8/29/2021 6:30:00 PM 20.32 68.576 0.486 8.09 3.21 8.95
8/29/2021 6:45:00 PM 20.34 68.612 0.488 8.05 3.62 8.78
8/29/2021 7:00:00 PM 20.35 68.63 0.489 8 3.95 8.56
8/29/2021 7:15:00 PM 20.36 68.648 0.49 7.97 4.3 8.35
8/29/2021 7:30:00 PM 20.37 68.666 0.491 7.93 5.12 8.29
8/29/2021 7:45:00 PM 20.38 68.684 0.491 7.91 5.07 8.21
8/29/2021 8:00:00 PM 20.39 68.702 0.491 7.89 5.16 8.12
8/29/2021 8:15:00 PM 20.39 68.702 0.491 7.87 6.52 8.1
8/29/2021 8:30:00 PM 20.38 68.684 0.491 7.85 6.67 8.06
8/29/2021 8:45:00 PM 20.36 68.648 0.492 7.83 7.65 8.03
8/29/2021 9:00:00 PM 20.34 68.612 0.492 7.82 8.31 8
8/29/2021 9:15:00 PM 20.31 68.558 0.492 7.8 9.35 7.96
8/29/2021 9:30:00 PM 20.28 68.504 0.492 7.79 9.84 7.94
8/29/2021 9:45:00 PM 20.25 68.45 0.493 7.78 8.48 7.91
8/29/2021 10:00:00 PM 20.22 68.396 0.493 7.78 12.42 7.92
8/29/2021 10:15:00 PM 20.18 68.324 0.493 7.78 12.08 7.91
8/29/2021 10:30:00 PM 20.14 68.252 0.494 7.77 12.1 7.88
8/29/2021 10:45:00 PM 20.09 68.162 0.494 7.77 12.83 7.86
8/29/2021 11:00:00 PM 20.04 68.07201 0.494 7.76 12.97 7.84
8/29/2021 11:15:00 PM 19.99 67.982 0.495 7.76 12.33 7.84
8/29/2021 11:30:00 PM 19.93 67.874 0.495 7.76 13.16 7.84
8/29/2021 11:45:00 PM 19.88 67.784 0.495 7.76 12.77 7.76
8/30/2021 12:00:00 AM 19.81 67.658 0.495 7.76 13.39 7.92
8/30/2021 12:15:00 AM 19.75 67.55 0.495 7.76 13.1 7.96
8/30/2021 12:30:00 AM 19.67 67.406 0.495 7.76 12.32 8
8/30/2021 12:45:00 AM 19.59 67.262 0.494 7.76 12.9 7.99
8/30/2021 1:00:00 AM 19.51 67.118 0.495 7.75 13.4 8.04
8/30/2021 1:15:00 AM 19.42 66.956 0.495 7.75 12.76 8.08
8/30/2021 1:30:00 AM 19.33 66.794 0.495 7.76 14.11 7.95
8/30/2021 1:45:00 AM 19.23 66.614 0.495 7.76 15.41 7.93
8/30/2021 2:00:00 AM 19.14 66.452 0.495 7.76 14.76 7.82
8/30/2021 2:15:00 AM 19.04 66.272 0.495 7.76 14.06 7.93
8/30/2021 2:30:00 AM 18.94 66.092 0.495 7.76 14.81 8.02
8/30/2021 2:45:00 AM 18.84 65.912 0.495 7.76 14.07 8.29
8/30/2021 3:00:00 AM 18.75 65.75 0.495 7.77 15.02 8.21
8/30/2021 3:15:00 AM 18.67 65.606 0.495 7.77 13.91 8.26
8/30/2021 3:30:00 AM 18.59 65.462 0.495 7.77 14.5 8.26
8/30/2021 3:45:00 AM 18.51 65.318 0.495 7.77 14.78 8.3
8/30/2021 4:00:00 AM 18.43 65.174 0.495 7.77 15.06 8.2
8/30/2021 4:15:00 AM 18.36 65.048 0.495 7.76 14.11 8.28
8/30/2021 4:30:00 AM 18.28 64.904 0.496 7.76 14.11 8.36
8/30/2021 4:45:00 AM 18.22 64.796 0.496 7.76 14.56 8.29
8/30/2021 5:00:00 AM 18.15 64.67 0.496 7.76 14.55 8.32
8/30/2021 5:15:00 AM 18.09 64.562 0.496 7.76 13.97 8.34
8/30/2021 5:30:00 AM 18.02 64.436 0.496 7.76 13.67 8.42
8/30/2021 5:45:00 AM 17.97 64.346 0.496 7.76 14.83 8.45
8/30/2021 6:00:00 AM 17.92 64.256 0.496 7.76 14.57 8.41
8/30/2021 6:15:00 AM 17.87 64.166 0.496 7.76 14.53 8.43
8/30/2021 6:30:00 AM 17.83 64.094 0.496 7.76 13.09 8.48
8/30/2021 6:45:00 AM 17.8 64.04 0.496 7.76 12.38 8.61
8/30/2021 7:00:00 AM 17.77 63.986 0.496 7.76 10.37 8.64
8/30/2021 7:15:00 AM 17.74 63.932 0.497 7.76 9.88 8.54
8/30/2021 7:30:00 AM 17.72 63.896 0.497 7.77 9.18 8.64
8/30/2021 7:45:00 AM 17.71 63.878 0.497 7.77 7.54 8.73
8/30/2021 8:00:00 AM 17.71 63.878 0.497 7.78 6.87 8.78
8/30/2021 8:15:00 AM 17.74 63.932 0.497 7.79 5.27 8.88
8/30/2021 8:30:00 AM 17.75 63.95 0.497 7.8 5.14 8.95
8/30/2021 8:45:00 AM 17.77 63.986 0.497 7.82 3.81 9.05
8/30/2021 9:00:00 AM 17.79 64.022 0.497 7.83 3.33 9.15
8/30/2021 9:15:00 AM 17.81 64.058 0.497 7.84 3.27 9.17
8/30/2021 9:30:00 AM 17.84 64.112 0.497 7.84 2.95 9.33
8/30/2021 9:45:00 AM 17.86 64.148 0.496 7.86 2.87 9.38
8/30/2021 10:00:00 AM 17.92 64.256 0.496 7.88 2.85 9.53
8/30/2021 10:15:00 AM 18 64.4 0.496 7.91 2.37 9.68
8/30/2021 10:30:00 AM 18.11 64.598 0.496 7.93 2.4 9.81
8/30/2021 10:45:00 AM 18.18 64.724 0.495 7.96 2.43 9.84
8/30/2021 11:00:00 AM 18.37 65.066 0.495 7.98 2.24 10.02
8/30/2021 11:15:00 AM 18.44 65.192 0.494 8 2.14 10.08
8/30/2021 11:30:00 AM 18.64 65.552 0.494 8.03 2.1 10.24
8/30/2021 11:45:00 AM 18.69 65.642 0.494 8.05 2.26 10.29
8/30/2021 12:00:00 PM 18.72 65.696 0.494 8.05 13.14 10.23
8/30/2021 12:15:00 PM 18.77 65.786 0.493 8.07 2.22 10.17
8/30/2021 12:30:00 PM 18.86 65.948 0.493 8.09 1.97 10.37
8/30/2021 12:45:00 PM 18.96 66.128 0.492 8.11 1.97 10.47
8/30/2021 1:00:00 PM 19.13 66.434 0.492 8.14 2.13 10.62
8/30/2021 1:15:00 PM 19.44 66.992 0.491 8.16 11.96 10.78
8/30/2021 1:30:00 PM 19.6 67.28 0.491 8.18 2.01 10.73
8/30/2021 1:45:00 PM 19.86 67.748 0.491 8.19 2.09 10.76
8/30/2021 2:00:00 PM 19.82 67.676 0.491 8.18 2.1 10.54
8/30/2021 2:15:00 PM 20.13 68.234 0.491 8.2 2.34 10.61
8/30/2021 2:30:00 PM 20.08 68.144 0.491 8.19 2.6 10.33
8/30/2021 2:45:00 PM 20.44 68.792 0.49 8.21 2.4 10.48
8/30/2021 3:00:00 PM 20.67 69.206 0.49 8.21 12.85 10.47
8/30/2021 3:15:00 PM 20.78 69.404 0.489 8.22 2.7 10.32
8/30/2021 3:30:00 PM 20.91 69.638 0.488 8.23 2.41 10.27
8/30/2021 3:45:00 PM 21 69.8 0.488 8.21 12.85 10.01
8/30/2021 4:00:00 PM 21.08 69.944 0.488 8.22 2.5 9.88
8/30/2021 4:15:00 PM 21.16 70.088 0.488 8.21 2.63 9.78
8/30/2021 4:30:00 PM 21.29 70.32201 0.487 8.21 2.44 9.68
8/30/2021 4:45:00 PM 21.25 70.25 0.487 8.2 2.6 9.45
8/30/2021 5:00:00 PM 21.3 70.34 0.487 8.19 2.84 9.43
8/30/2021 5:15:00 PM 21.35 70.43 0.487 8.17 2.81 9.27
8/30/2021 5:30:00 PM 21.35 70.43 0.488 8.14 2.79 9.04
8/30/2021 5:45:00 PM 21.32 70.376 0.489 8.11 3.05 8.84
8/30/2021 6:00:00 PM 21.32 70.376 0.489 8.08 3.57 8.7
8/30/2021 6:15:00 PM 21.34 70.412 0.489 8.06 3.14 8.56
8/30/2021 6:30:00 PM 21.36 70.448 0.49 8.03 4.34 8.47
8/30/2021 6:45:00 PM 21.38 70.484 0.491 8.01 14.1 8.33
8/30/2021 7:00:00 PM 21.43 70.574 0.491 7.99 4.07 8.25
8/30/2021 7:15:00 PM 21.43 70.574 0.491 7.97 3.91 8.11
8/30/2021 7:30:00 PM 21.44 70.592 0.491 7.95 4.62 8
8/30/2021 7:45:00 PM 21.45 70.61 0.492 7.93 4.54 7.86
8/30/2021 8:00:00 PM 21.46 70.628 0.492 7.92 5.69 7.83
8/30/2021 8:15:00 PM 21.48 70.664 0.492 7.9 6.82 7.76
8/30/2021 8:30:00 PM 21.5 70.7 0.492 7.89 7.26 7.63
8/30/2021 8:45:00 PM 21.51 70.718 0.493 7.87 7.42 7.61
8/30/2021 9:00:00 PM 21.53 70.754 0.493 7.86 7.64 7.56
8/30/2021 9:15:00 PM 21.54 70.772 0.493 7.85 7.86 7.52
8/30/2021 9:30:00 PM 21.54 70.772 0.494 7.84 8.11 7.48
8/30/2021 9:45:00 PM 21.55 70.79 0.494 7.83 8.22 7.44
8/30/2021 10:00:00 PM 21.55 70.79 0.494 7.83 8.38 7.42
8/30/2021 10:15:00 PM 21.54 70.772 0.495 7.83 8.11 7.37
8/30/2021 10:30:00 PM 21.53 70.754 0.495 7.82 8.77 7.4
8/30/2021 10:45:00 PM 21.5 70.7 0.495 7.81 9.48 7.39
8/30/2021 11:00:00 PM 21.47 70.646 0.495 7.82 9.55 7.38
8/30/2021 11:15:00 PM 21.43 70.574 0.496 7.82 9.31 7.41
8/30/2021 11:30:00 PM 21.38 70.484 0.496 7.81 10.93 7.42
8/30/2021 11:45:00 PM 21.32 70.376 0.496 7.81 10.36 7.44
8/31/2021 12:00:00 AM 21.26 70.268 0.496 7.81 10.96 7.46
8/31/2021 12:15:00 AM 21.19 70.142 0.496 7.8 11.15 7.49
8/31/2021 12:30:00 AM 21.11 69.998 0.496 7.81 11.81 7.5
8/31/2021 12:45:00 AM 21.03 69.854 0.496 7.8 13.54 7.54
8/31/2021 1:00:00 AM 20.93 69.674 0.496 7.81 13.82 7.59
8/31/2021 1:15:00 AM 20.83 69.494 0.496 7.81 13.43 7.62
8/31/2021 1:30:00 AM 20.72 69.296 0.496 7.81 13.6 7.67
8/31/2021 1:45:00 AM 20.61 69.098 0.496 7.81 12.65 7.64
8/31/2021 2:00:00 AM 20.49 68.882 0.497 7.8 14.91 7.75
8/31/2021 2:15:00 AM 20.36 68.648 0.497 7.8 19.69 7.79
8/31/2021 2:30:00 AM 20.23 68.414 0.497 7.8 13.51 7.83
8/31/2021 2:45:00 AM 20.09 68.162 0.498 7.8 13.98 7.84
8/31/2021 3:00:00 AM 19.95 67.91 0.498 7.8 12.28 7.93
8/31/2021 3:15:00 AM 19.81 67.658 0.498 7.8 12.94 7.97
8/31/2021 3:30:00 AM 19.67 67.406 0.498 7.8 12.55 8.01
8/31/2021 3:45:00 AM 19.54 67.172 0.498 7.8 12.74 8.08
8/31/2021 4:00:00 AM 19.4 66.92 0.498 7.8 13.88 8.13
8/31/2021 4:15:00 AM 19.27 66.686 0.498 7.8 14.38 8.15
8/31/2021 4:30:00 AM 19.16 66.488 0.498 7.8 13.65 8.19
8/31/2021 4:45:00 AM 19.04 66.272 0.498 7.8 13.18 8.21
8/31/2021 5:00:00 AM 18.93 66.074 0.498 7.8 12.71 8.24
8/31/2021 5:15:00 AM 18.83 65.894 0.498 7.8 11.89 8.29
8/31/2021 5:30:00 AM 18.73 65.714 0.499 7.8 12.4 8.27
8/31/2021 5:45:00 AM 18.64 65.552 0.499 7.8 11.91 8.3
8/31/2021 6:00:00 AM 18.53 65.354 0.499 7.8 11.89 8.33
8/31/2021 6:15:00 AM 18.44 65.192 0.499 7.81 13.52 8.38
8/31/2021 6:30:00 AM 18.36 65.048 0.499 7.81 11.54 8.41
8/31/2021 6:45:00 AM 18.27 64.886 0.5 7.8 10.19 8.42
8/31/2021 7:00:00 AM 18.2 64.76 0.5 7.8 9.88 8.42
8/31/2021 7:15:00 AM 18.13 64.634 0.5 7.8 8.7 8.39
8/31/2021 7:30:00 AM 18.07 64.526 0.501 7.8 7.44 8.49
8/31/2021 7:45:00 AM 18.01 64.418 0.501 7.81 6.14 8.55
8/31/2021 8:00:00 AM 17.97 64.346 0.501 7.81 14.22 8.64
8/31/2021 8:15:00 AM 17.93 64.274 0.501 7.82 4.29 8.72
8/31/2021 8:30:00 AM 17.89 64.202 0.502 7.83 3.72 8.79
8/31/2021 8:45:00 AM 17.86 64.148 0.502 7.83 3.45 8.9
8/31/2021 9:00:00 AM 17.85 64.13 0.502 7.84 3.26 8.97
8/31/2021 9:15:00 AM 17.84 64.112 0.502 7.85 2.74 9.11
8/31/2021 9:30:00 AM 17.86 64.148 0.502 7.87 2.62 9.28
8/31/2021 9:45:00 AM 17.9 64.22 0.501 7.9 2.4 9.46
8/31/2021 10:00:00 AM 17.95 64.31 0.501 7.93 2.34 9.72
8/31/2021 10:15:00 AM 18.01 64.418 0.5 7.95 2.17 9.94
8/31/2021 10:30:00 AM 18.06 64.508 0.5 7.98 2.43 10.14
8/31/2021 10:45:00 AM 18.08 64.544 0.5 8 11.54 10.23
8/31/2021 11:00:00 AM 18.09 64.562 0.499 8.02 1.93 10.28
8/31/2021 11:15:00 AM 18.08 64.544 0.499 8.03 1.85 10.28
8/31/2021 11:30:00 AM 18.09 64.562 0.499 8.04 1.99 10.33
8/31/2021 11:45:00 AM 18.12 64.616 0.498 8.06 1.85 10.37
8/31/2021 12:00:00 PM 18.12 64.616 0.498 8.07 1.68 10.37
8/31/2021 12:15:00 PM 18.16 64.688 0.498 8.09 1.5 10.46
8/31/2021 12:30:00 PM 18.2 64.76 0.497 8.1 1.54 10.51
8/31/2021 12:45:00 PM 18.26 64.868 0.497 8.13 1.78 10.59
8/31/2021 1:00:00 PM 18.33 64.994 0.496 8.15 1.58 10.78
8/31/2021 1:15:00 PM 18.39 65.102 0.495 8.17 1.48 10.87
8/31/2021 1:30:00 PM 18.46 65.228 0.495 8.18 1.46 10.97
8/31/2021 1:45:00 PM 18.53 65.354 0.494 8.2 1.48 10.98
8/31/2021 2:00:00 PM 18.62 65.516 0.494 8.22 1.52 11.06
8/31/2021 2:15:00 PM 18.67 65.606 0.493 8.23 1.63 11.1
8/31/2021 2:30:00 PM 18.73 65.714 0.492 8.23 1.74 11.03
8/31/2021 2:45:00 PM 18.76 65.768 0.492 8.24 1.74 10.94
8/31/2021 3:00:00 PM 18.81 65.858 0.491 8.25 1.58 10.92
8/31/2021 3:15:00 PM 18.81 65.858 0.491 8.24 10.88 10.69
8/31/2021 3:30:00 PM 18.85 65.93 0.49 8.24 1.55 10.63
8/31/2021 3:45:00 PM 18.9 66.02 0.49 8.24 1.96 10.52
8/31/2021 4:00:00 PM 18.95 66.11 0.49 8.24 1.81 10.38
8/31/2021 4:15:00 PM 19.02 66.236 0.49 8.23 1.81 10.32
8/31/2021 4:30:00 PM 19.08 66.344 0.49 8.22 2 10.14
8/31/2021 4:45:00 PM 19.15 66.47 0.491 8.2 2.33 9.97
8/31/2021 5:00:00 PM 19.2 66.56 0.492 8.18 2.53 9.81
8/31/2021 5:15:00 PM 19.24 66.632 0.492 8.16 2.56 9.6
8/31/2021 5:30:00 PM 19.29 66.722 0.492 8.14 2.47 9.48
8/31/2021 5:45:00 PM 19.32 66.776 0.493 8.11 2.65 9.35
8/31/2021 6:00:00 PM 19.35 66.83 0.493 8.09 2.66 9.22
8/31/2021 6:15:00 PM 19.37 66.866 0.493 8.07 2.79 9.09
8/31/2021 6:30:00 PM 19.38 66.884 0.493 8.06 2.83 8.97
8/31/2021 6:45:00 PM 19.38 66.884 0.493 8.04 3.05 8.88
8/31/2021 7:00:00 PM 19.37 66.866 0.493 8.02 2.93 8.76
8/31/2021 7:15:00 PM 19.36 66.848 0.493 8 2.86 8.66
8/31/2021 7:30:00 PM 19.35 66.83 0.494 7.98 3.28 8.57
8/31/2021 7:45:00 PM 19.33 66.794 0.494 7.96 3.39 8.49
8/31/2021 8:00:00 PM 19.32 66.776 0.495 7.93 4.08 8.37
8/31/2021 8:15:00 PM 19.31 66.758 0.496 7.92 4.67 8.34
8/31/2021 8:30:00 PM 19.3 66.74 0.496 7.9 4.94 8.29
8/31/2021 8:45:00 PM 19.3 66.74 0.497 7.88 5.59 8.21
8/31/2021 9:00:00 PM 19.29 66.722 0.497 7.87 14.32 8.2
8/31/2021 9:15:00 PM 19.28 66.704 0.497 7.86 6.29 8.16
8/31/2021 9:30:00 PM 19.26 66.668 0.498 7.86 7.36 8.15
8/31/2021 9:45:00 PM 19.24 66.632 0.498 7.85 6.86 8.08
8/31/2021 10:00:00 PM 19.21 66.578 0.499 7.84 7.9 8.1
8/31/2021 10:15:00 PM 19.18 66.524 0.499 7.83 8.52 8.07
8/31/2021 10:30:00 PM 19.14 66.452 0.499 7.83 8.18 8.03
8/31/2021 10:45:00 PM 19.1 66.38 0.499 7.83 7.47 8.07
8/31/2021 11:00:00 PM 19.06 66.308 0.499 7.83 8.08 8.1
8/31/2021 11:15:00 PM 19 66.2 0.499 7.84 7.35 8.1
8/31/2021 11:30:00 PM 18.95 66.11 0.499 7.84 16.41 8.16
8/31/2021 11:45:00 PM 18.88 65.984 0.499 7.84 7.64 8.18
9/1/2021 12:00:00 AM 18.83 65.894 0.499 7.84 8.87 8.21
9/1/2021 12:15:00 AM 18.77 65.786 0.499 7.84 7.86 8.24
9/1/2021 12:30:00 AM 18.71 65.67799 0.499 7.85 8.11 8.2
9/1/2021 12:45:00 AM 18.64 65.552 0.499 7.85 9.86 8.15
9/1/2021 1:00:00 AM 18.58 65.444 0.499 7.85 9.13 8.18
9/1/2021 1:15:00 AM 18.52 65.336 0.499 7.85 8.58 8.25
9/1/2021 1:30:00 AM 18.45 65.21 0.499 7.85 7.95 8.25
9/1/2021 1:45:00 AM 18.39 65.102 0.499 7.84 8.5 8.22
9/1/2021 2:00:00 AM 18.32 64.976 0.499 7.84 9.06 8.39
9/1/2021 2:15:00 AM 18.26 64.868 0.5 7.84 8.79 8.38
9/1/2021 2:30:00 AM 18.19 64.742 0.5 7.83 8.14 8.43
9/1/2021 2:45:00 AM 18.12 64.616 0.5 7.84 8.68 8.45
9/1/2021 3:00:00 AM 18.06 64.508 0.5 7.84 7.58 8.45
9/1/2021 3:15:00 AM 17.99 64.382 0.499 7.83 8.69 8.44
9/1/2021 3:30:00 AM 17.93 64.274 0.499 7.83 8.26 8.43
9/1/2021 3:45:00 AM 17.87 64.166 0.498 7.82 8.69 8.44
9/1/2021 4:00:00 AM 17.82 64.076 0.497 7.82 8.44 8.52
9/1/2021 4:15:00 AM 17.76 63.968 0.496 7.81 9.36 8.51
9/1/2021 4:30:00 AM 17.71 63.878 0.495 7.81 9.42 8.52
9/1/2021 4:45:00 AM 17.66 63.788 0.494 7.8 10.13 8.51
9/1/2021 5:00:00 AM 17.61 63.698 0.494 7.8 11.67 8.47
9/1/2021 5:15:00 AM 17.56 63.608 0.492 7.79 10.72 8.54
9/1/2021 5:30:00 AM 17.52 63.536 0.489 7.79 12.61 8.55
9/1/2021 5:45:00 AM 17.49 63.482 0.487 7.78 11.54 8.56
9/1/2021 6:00:00 AM 17.45 63.41 0.485 7.78 11.3 8.55
9/1/2021 6:15:00 AM 17.41 63.338 0.484 7.77 11.69 8.49
9/1/2021 6:30:00 AM 17.38 63.284 0.482 7.77 12 8.56
9/1/2021 6:45:00 AM 17.35 63.23 0.479 7.77 12.89 8.57
9/1/2021 7:00:00 AM 17.33 63.194 0.476 7.77 14.49 8.47
9/1/2021 7:15:00 AM 17.36 63.248 0.464 7.78 15.41 8.64
9/1/2021 7:30:00 AM 17.38 63.284 0.453 7.76 22.49 8.62
9/1/2021 7:45:00 AM 17.4 63.32 0.446 7.74 25.36 8.59
9/1/2021 8:00:00 AM 17.37 63.266 0.442 7.74 31.92 8.59
9/1/2021 8:15:00 AM 17.35 63.23 0.438 7.73 38.68 8.54
9/1/2021 8:30:00 AM 17.34 63.212 0.431 7.71 44.69 8.55
9/1/2021 8:45:00 AM 17.33 63.194 0.425 7.7 52.81 8.58
9/1/2021 9:00:00 AM 17.32 63.176 0.422 7.69 45.63 8.61
9/1/2021 9:15:00 AM 17.33 63.194 0.418 7.68 40.88 8.61
9/1/2021 9:30:00 AM 17.34 63.212 0.416 7.68 38.48 8.58
9/1/2021 9:45:00 AM 17.33 63.194 0.419 7.68 38.6 8.62
9/1/2021 10:00:00 AM 17.33 63.194 0.418 7.69 38.97 8.63
9/1/2021 10:15:00 AM 17.32 63.176 0.422 7.69 43.37 8.63
9/1/2021 10:30:00 AM 17.31 63.158 0.425 7.69 37.88 8.64
9/1/2021 10:45:00 AM 17.3 63.14 0.429 7.7 33.01 8.69
9/1/2021 11:00:00 AM 17.3 63.14 0.431 7.7 27.38 8.72
9/1/2021 11:15:00 AM 17.31 63.158 0.431 7.71 27.05 8.75
9/1/2021 11:30:00 AM 17.32 63.176 0.428 7.71 24.67 8.75
9/1/2021 11:45:00 AM 17.35 63.23 0.421 7.7 23.23 8.74
9/1/2021 12:00:00 PM 17.4 63.32 0.411 7.68 31.81 8.66
9/1/2021 12:15:00 PM 17.49 63.482 0.403 7.66 40.21 8.57
9/1/2021 12:30:00 PM 17.63 63.734 0.39 7.64 54.38 8.46
9/1/2021 12:45:00 PM 17.81 64.058 0.376 7.62 74.32 8.37
9/1/2021 1:00:00 PM 17.98 64.364 0.363 7.56 134.21 8.26
9/1/2021 1:15:00 PM 18.08 64.544 0.35 7.55 125.35 8.2
9/1/2021 1:30:00 PM 18.19 64.742 0.335 7.52 418.58 8.2
9/1/2021 1:45:00 PM 18.3 64.94 0.321 7.52 196.76 8.26
9/1/2021 2:00:00 PM 18.46 65.228 0.295 7.49 282.73 8.28
9/1/2021 2:15:00 PM 18.66 65.588 0.265 7.45 389.41 8.24
9/1/2021 2:30:00 PM 18.98 66.164 0.221 7.38 509.35 8.12
9/1/2021 2:45:00 PM 19.29 66.722 0.186 7.31 641.57 7.86
9/1/2021 3:00:00 PM 19.55 67.19 0.156 7.21 742.28 7.53
9/1/2021 3:15:00 PM 19.7 67.46 0.139 7.18 783.81 7.37
9/1/2021 3:30:00 PM 19.8 67.64 0.135 7.17 715.34 7.19
9/1/2021 3:45:00 PM 19.84 67.712 0.129 7.14 617.51 7.17
9/1/2021 4:00:00 PM 19.9 67.82 0.119 7.09 548.88 7.17
9/1/2021 4:15:00 PM 19.93 67.874 0.113 7.1 478.74 7.2
9/1/2021 4:30:00 PM 19.93 67.874 0.108 7.09 441.61 7.22
9/1/2021 4:45:00 PM 19.92 67.856 0.104 7.03 438.56 7.26
9/1/2021 5:00:00 PM 19.91 67.838 0.102 6.75 429.15 7.25
9/1/2021 5:15:00 PM 19.92 67.856 0.103 6.72 417.87 7.21
9/1/2021 5:30:00 PM 19.91 67.838 0.103 6.68 387.24 7.2
9/1/2021 5:45:00 PM 19.91 67.838 0.105 6.68 357.41 7.21
9/1/2021 6:00:00 PM 19.92 67.856 0.107 6.71 326.86 7.23
9/1/2021 6:15:00 PM 19.89 67.802 0.108 6.66 277.05 7.28
9/1/2021 6:30:00 PM 19.84 67.712 0.108 6.73 248.08 7.34
9/1/2021 6:45:00 PM 19.78 67.604 0.109 6.78 220.99 7.38
9/1/2021 7:00:00 PM 19.72 67.496 0.111 6.79 192.94 7.41
9/1/2021 7:15:00 PM 19.68 67.424 0.112 6.79 176.24 7.44
9/1/2021 7:30:00 PM 19.63 67.334 0.114 6.8 168.4 7.45
9/1/2021 7:45:00 PM 19.59 67.262 0.111 6.8 149.71 7.47
9/1/2021 8:00:00 PM 19.54 67.172 0.118 6.81 140.05 7.48
9/1/2021 8:15:00 PM 19.49 67.082 0.114 6.79 131.36 7.48
9/1/2021 8:30:00 PM 19.43 66.974 0.121 6.85 124.56 7.49
9/1/2021 8:45:00 PM 19.37 66.866 0.123 6.87 114.38 7.49
9/1/2021 9:00:00 PM 19.31 66.758 0.125 6.86 110.49 7.49
9/1/2021 9:15:00 PM 19.24 66.632 0.127 6.87 103.37 7.49
9/1/2021 9:30:00 PM 19.18 66.524 0.13 6.88 98.8 7.5
9/1/2021 9:45:00 PM 19.12 66.416 0.132 6.89 94.25 7.51
9/1/2021 10:00:00 PM 19.06 66.308 0.135 6.89 88.84 7.51
9/1/2021 10:15:00 PM 19 66.2 0.137 6.81 87.28 7.51
9/1/2021 10:30:00 PM 18.94 66.092 0.14 6.89 84.36 7.51
9/1/2021 10:45:00 PM 18.89 66.002 0.142 6.9 83.33 7.51
9/1/2021 11:00:00 PM 18.82 65.876 0.145 6.85 83.25 7.51
9/1/2021 11:15:00 PM 18.76 65.768 0.149 6.89 82.24 7.51
9/1/2021 11:30:00 PM 18.69 65.642 0.153 6.86 80.5 7.52
9/1/2021 11:45:00 PM 18.62 65.516 0.158 6.9 80.7 7.53
9/2/2021 12:00:00 AM 18.54 65.372 0.163 6.87 79.84 7.54
9/2/2021 12:15:00 AM 18.46 65.228 0.169 6.9 78.16 7.56
9/2/2021 12:30:00 AM 18.37 65.066 0.175 6.91 79.09 7.58
9/2/2021 12:45:00 AM 18.28 64.904 0.182 6.89 79.21 7.61
9/2/2021 1:00:00 AM 18.19 64.742 0.188 6.92 80.28 7.65
9/2/2021 1:15:00 AM 18.08 64.544 0.192 6.91 83.94 7.69
9/2/2021 1:30:00 AM 17.98 64.364 0.195 6.92 83.98 7.74
9/2/2021 1:45:00 AM 17.86 64.148 0.199 6.91 85.67 7.81
9/2/2021 2:00:00 AM 17.75 63.95 0.204 6.91 84.25 7.89
9/2/2021 2:15:00 AM 17.63 63.734 0.209 6.92 83.32 7.97
9/2/2021 2:30:00 AM 17.52 63.536 0.214 6.92 80.09 8.05
9/2/2021 2:45:00 AM 17.41 63.338 0.219 6.92 77.94 8.11
9/2/2021 3:00:00 AM 17.3 63.14 0.224 6.95 76.6 8.17
9/2/2021 3:15:00 AM 17.19 62.942 0.228 6.95 71.22 8.23
9/2/2021 3:30:00 AM 17.08 62.744 0.233 6.95 69.06 8.29
9/2/2021 3:45:00 AM 16.97 62.546 0.238 6.95 66.19 8.34
9/2/2021 4:00:00 AM 16.86 62.348 0.242 6.99 62.96 8.4
9/2/2021 4:15:00 AM 16.76 62.168 0.247 6.97 61.27 8.44
9/2/2021 4:30:00 AM 16.66 61.988 0.251 6.98 58.7 8.5
9/2/2021 4:45:00 AM 16.57 61.826 0.254 6.99 56.26 8.54
9/2/2021 5:00:00 AM 16.48 61.664 0.257 7 51.21 8.58
9/2/2021 5:15:00 AM 16.38 61.484 0.26 7 50.59 8.62
9/2/2021 5:30:00 AM 16.3 61.34 0.263 7.01 50.76 8.67
9/2/2021 5:45:00 AM 16.21 61.178 0.266 7.01 49.57 8.7
9/2/2021 6:00:00 AM 16.12 61.016 0.268 7.01 48.98 8.74
9/2/2021 6:15:00 AM 16.03 60.854 0.271 7.03 47.63 8.78
9/2/2021 6:30:00 AM 15.95 60.71 0.273 7.03 46.52 8.82
9/2/2021 6:45:00 AM 15.86 60.548 0.276 7.03 44.84 8.85
9/2/2021 7:00:00 AM 15.78 60.404 0.279 7.04 44.59 8.89
9/2/2021 7:15:00 AM 15.71 60.278 0.28 7.05 43.3 8.92
9/2/2021 7:30:00 AM 15.64 60.152 0.283 7.05 42.24 8.95
9/2/2021 7:45:00 AM 15.58 60.044 0.285 7.06 41.41 8.99
9/2/2021 8:00:00 AM 15.52 59.936 0.287 7.05 39.12 9.01
9/2/2021 8:15:00 AM 15.48 59.864 0.288 7.08 37.93 9.04
9/2/2021 8:30:00 AM 15.44 59.792 0.29 7.08 36.87 9.07
9/2/2021 8:45:00 AM 15.41 59.738 0.292 7.07 35.47 9.1
9/2/2021 9:00:00 AM 15.39 59.702 0.294 7.08 30.84 9.12
9/2/2021 9:15:00 AM 15.38 59.684 0.296 7.09 33.4 9.14
9/2/2021 9:30:00 AM 15.39 59.702 0.297 7.1 34.26 9.17
9/2/2021 9:45:00 AM 15.43